<?xml version='1.0' encoding='UTF-8'?><gpx version="1.1" creator="JPX - https://github.com/jenetics/jpx" xmlns="http://www.topografix.com/GPX/1/1"><trk><trkseg><trkpt lat="45.987975" lon="10.3217701"><ele>397.0</ele><time>2026-04-25T07:45:59.752Z</time></trkpt><trkpt lat="45.9880286" lon="10.3218459"><ele>397.0</ele><time>2026-04-25T07:46:24.763Z</time></trkpt><trkpt lat="45.9881485" lon="10.3219876"><ele>397.0</ele><time>2026-04-25T07:46:26.757Z</time></trkpt><trkpt lat="45.9881992" lon="10.3220989"><ele>397.0</ele><time>2026-04-25T07:46:27.761Z</time></trkpt><trkpt lat="45.9882476" lon="10.3222216"><ele>397.0</ele><time>2026-04-25T07:46:28.755Z</time></trkpt><trkpt lat="45.9883031" lon="10.3223392"><ele>399.8</ele><time>2026-04-25T07:46:29.763Z</time></trkpt><trkpt lat="45.9883613" lon="10.3224521"><ele>402.6</ele><time>2026-04-25T07:46:30.759Z</time></trkpt><trkpt lat="45.98843" lon="10.3225581"><ele>405.40000000000003</ele><time>2026-04-25T07:46:31.766Z</time></trkpt><trkpt lat="45.9885088" lon="10.3226546"><ele>408.20000000000005</ele><time>2026-04-25T07:46:32.761Z</time></trkpt><trkpt lat="45.9885944" lon="10.3227455"><ele>411.0</ele><time>2026-04-25T07:46:33.761Z</time></trkpt><trkpt lat="45.9886771" lon="10.3228408"><ele>411.0</ele><time>2026-04-25T07:46:34.763Z</time></trkpt><trkpt lat="45.9887512" lon="10.322934"><ele>411.0</ele><time>2026-04-25T07:46:35.762Z</time></trkpt><trkpt lat="45.9888167" lon="10.3230298"><ele>411.0</ele><time>2026-04-25T07:46:36.758Z</time></trkpt><trkpt lat="45.9888765" lon="10.3231319"><ele>411.0</ele><time>2026-04-25T07:46:37.758Z</time></trkpt><trkpt lat="45.9889385" lon="10.3232377"><ele>411.0</ele><time>2026-04-25T07:46:38.764Z</time></trkpt><trkpt lat="45.9890081" lon="10.3233432"><ele>411.0</ele><time>2026-04-25T07:46:39.759Z</time></trkpt><trkpt lat="45.9890741" lon="10.3234585"><ele>411.0</ele><time>2026-04-25T07:46:40.759Z</time></trkpt><trkpt lat="45.9891321" lon="10.3235837"><ele>411.0</ele><time>2026-04-25T07:46:41.757Z</time></trkpt><trkpt lat="45.9892035" lon="10.3237053"><ele>411.0</ele><time>2026-04-25T07:46:42.762Z</time></trkpt><trkpt lat="45.989284" lon="10.3238249"><ele>411.0</ele><time>2026-04-25T07:46:43.754Z</time></trkpt><trkpt lat="45.9893778" lon="10.3239467"><ele>411.0</ele><time>2026-04-25T07:46:44.758Z</time></trkpt><trkpt lat="45.9894786" lon="10.3240742"><ele>411.0</ele><time>2026-04-25T07:46:45.759Z</time></trkpt><trkpt lat="45.9895825" lon="10.3242063"><ele>411.0</ele><time>2026-04-25T07:46:46.76Z</time></trkpt><trkpt lat="45.9896971" lon="10.3243321"><ele>411.0</ele><time>2026-04-25T07:46:47.759Z</time></trkpt><trkpt lat="45.9898193" lon="10.3244489"><ele>411.0</ele><time>2026-04-25T07:46:48.76Z</time></trkpt><trkpt lat="45.9899421" lon="10.3245626"><ele>411.0</ele><time>2026-04-25T07:46:49.763Z</time></trkpt><trkpt lat="45.9900624" lon="10.324669"><ele>411.0</ele><time>2026-04-25T07:46:50.761Z</time></trkpt><trkpt lat="45.990184" lon="10.3247655"><ele>411.0</ele><time>2026-04-25T07:46:51.764Z</time></trkpt><trkpt lat="45.9903069" lon="10.3248462"><ele>412.25</ele><time>2026-04-25T07:46:52.757Z</time></trkpt><trkpt lat="45.9904332" lon="10.3249141"><ele>413.5</ele><time>2026-04-25T07:46:53.758Z</time></trkpt><trkpt lat="45.9905605" lon="10.3249742"><ele>414.75</ele><time>2026-04-25T07:46:54.761Z</time></trkpt><trkpt lat="45.9906857" lon="10.3250299"><ele>416.0</ele><time>2026-04-25T07:46:55.765Z</time></trkpt><trkpt lat="45.9908097" lon="10.325089"><ele>419.5</ele><time>2026-04-25T07:46:56.761Z</time></trkpt><trkpt lat="45.9909343" lon="10.3251513"><ele>423.0</ele><time>2026-04-25T07:46:57.755Z</time></trkpt><trkpt lat="45.9910608" lon="10.325215"><ele>426.5</ele><time>2026-04-25T07:46:58.759Z</time></trkpt><trkpt lat="45.99118" lon="10.3252912"><ele>430.0</ele><time>2026-04-25T07:46:59.756Z</time></trkpt><trkpt lat="45.9912878" lon="10.3253891"><ele>430.0</ele><time>2026-04-25T07:47:00.758Z</time></trkpt><trkpt lat="45.9913888" lon="10.3254981"><ele>430.0</ele><time>2026-04-25T07:47:01.764Z</time></trkpt><trkpt lat="45.9914993" lon="10.3256032"><ele>430.0</ele><time>2026-04-25T07:47:02.765Z</time></trkpt><trkpt lat="45.9916245" lon="10.3256888"><ele>430.0</ele><time>2026-04-25T07:47:03.763Z</time></trkpt><trkpt lat="45.9917572" lon="10.3257667"><ele>431.25</ele><time>2026-04-25T07:47:04.76Z</time></trkpt><trkpt lat="45.9918922" lon="10.3258497"><ele>432.5</ele><time>2026-04-25T07:47:05.764Z</time></trkpt><trkpt lat="45.9920277" lon="10.3259391"><ele>433.75</ele><time>2026-04-25T07:47:06.763Z</time></trkpt><trkpt lat="45.9921603" lon="10.326042"><ele>435.0</ele><time>2026-04-25T07:47:07.762Z</time></trkpt><trkpt lat="45.9922902" lon="10.3261525"><ele>435.0</ele><time>2026-04-25T07:47:08.761Z</time></trkpt><trkpt lat="45.9924171" lon="10.3262599"><ele>435.0</ele><time>2026-04-25T07:47:09.759Z</time></trkpt><trkpt lat="45.9925431" lon="10.3263577"><ele>435.0</ele><time>2026-04-25T07:47:10.754Z</time></trkpt><trkpt lat="45.9926684" lon="10.3264468"><ele>435.0</ele><time>2026-04-25T07:47:11.752Z</time></trkpt><trkpt lat="45.9927957" lon="10.3265197"><ele>434.25</ele><time>2026-04-25T07:47:12.764Z</time></trkpt><trkpt lat="45.9929274" lon="10.3265872"><ele>433.5</ele><time>2026-04-25T07:47:13.759Z</time></trkpt><trkpt lat="45.9930653" lon="10.3266461"><ele>432.75</ele><time>2026-04-25T07:47:14.762Z</time></trkpt><trkpt lat="45.9931999" lon="10.3267217"><ele>432.0</ele><time>2026-04-25T07:47:15.762Z</time></trkpt><trkpt lat="45.9933281" lon="10.3268188"><ele>435.33333333333337</ele><time>2026-04-25T07:47:16.764Z</time></trkpt><trkpt lat="45.9934563" lon="10.3269342"><ele>438.6666666666667</ele><time>2026-04-25T07:47:17.758Z</time></trkpt><trkpt lat="45.9935907" lon="10.3270443"><ele>442.0</ele><time>2026-04-25T07:47:18.764Z</time></trkpt><trkpt lat="45.9937261" lon="10.3271422"><ele>440.5</ele><time>2026-04-25T07:47:19.757Z</time></trkpt><trkpt lat="45.9938511" lon="10.3272416"><ele>439.0</ele><time>2026-04-25T07:47:20.76Z</time></trkpt><trkpt lat="45.9939666" lon="10.3273502"><ele>437.5</ele><time>2026-04-25T07:47:21.757Z</time></trkpt><trkpt lat="45.9940849" lon="10.3274471"><ele>436.0</ele><time>2026-04-25T07:47:22.758Z</time></trkpt><trkpt lat="45.9942105" lon="10.3275192"><ele>436.0</ele><time>2026-04-25T07:47:23.76Z</time></trkpt><trkpt lat="45.9943418" lon="10.3275669"><ele>436.0</ele><time>2026-04-25T07:47:24.758Z</time></trkpt><trkpt lat="45.994474" lon="10.327611"><ele>436.0</ele><time>2026-04-25T07:47:25.762Z</time></trkpt><trkpt lat="45.9946004" lon="10.3276734"><ele>436.0</ele><time>2026-04-25T07:47:26.757Z</time></trkpt><trkpt lat="45.994724" lon="10.3277558"><ele>436.0</ele><time>2026-04-25T07:47:27.758Z</time></trkpt><trkpt lat="45.9948643" lon="10.3278331"><ele>436.0</ele><time>2026-04-25T07:47:28.757Z</time></trkpt><trkpt lat="45.9950146" lon="10.327896"><ele>436.0</ele><time>2026-04-25T07:47:29.76Z</time></trkpt><trkpt lat="45.9951646" lon="10.3279455"><ele>435.0</ele><time>2026-04-25T07:47:30.76Z</time></trkpt><trkpt lat="45.9953093" lon="10.327977"><ele>434.0</ele><time>2026-04-25T07:47:31.761Z</time></trkpt><trkpt lat="45.9954514" lon="10.3280126"><ele>433.0</ele><time>2026-04-25T07:47:32.763Z</time></trkpt><trkpt lat="45.9955843" lon="10.3280651"><ele>432.0</ele><time>2026-04-25T07:47:33.76Z</time></trkpt><trkpt lat="45.995699" lon="10.3281369"><ele>432.0</ele><time>2026-04-25T07:47:34.762Z</time></trkpt><trkpt lat="45.9957984" lon="10.3282105"><ele>432.0</ele><time>2026-04-25T07:47:35.761Z</time></trkpt><trkpt lat="45.9959084" lon="10.3282492"><ele>432.0</ele><time>2026-04-25T07:47:36.761Z</time></trkpt><trkpt lat="45.9960314" lon="10.3282482"><ele>432.0</ele><time>2026-04-25T07:47:37.765Z</time></trkpt><trkpt lat="45.9961578" lon="10.3282462"><ele>433.0</ele><time>2026-04-25T07:47:38.757Z</time></trkpt><trkpt lat="45.9962826" lon="10.3282795"><ele>434.0</ele><time>2026-04-25T07:47:39.758Z</time></trkpt><trkpt lat="45.9963999" lon="10.3283367"><ele>435.0</ele><time>2026-04-25T07:47:40.755Z</time></trkpt><trkpt lat="45.9965134" lon="10.3283855"><ele>436.0</ele><time>2026-04-25T07:47:41.759Z</time></trkpt><trkpt lat="45.9966222" lon="10.3284012"><ele>435.0</ele><time>2026-04-25T07:47:42.755Z</time></trkpt><trkpt lat="45.9967294" lon="10.328372"><ele>434.0</ele><time>2026-04-25T07:47:43.761Z</time></trkpt><trkpt lat="45.9968343" lon="10.3282905"><ele>433.0</ele><time>2026-04-25T07:47:44.761Z</time></trkpt><trkpt lat="45.996935" lon="10.3281619"><ele>432.0</ele><time>2026-04-25T07:47:45.758Z</time></trkpt><trkpt lat="45.9970424" lon="10.3280327"><ele>435.0</ele><time>2026-04-25T07:47:46.764Z</time></trkpt><trkpt lat="45.9971667" lon="10.3279191"><ele>438.0</ele><time>2026-04-25T07:47:47.757Z</time></trkpt><trkpt lat="45.9972954" lon="10.3278298"><ele>441.0</ele><time>2026-04-25T07:47:48.759Z</time></trkpt><trkpt lat="45.9974322" lon="10.3277594"><ele>444.0</ele><time>2026-04-25T07:47:49.762Z</time></trkpt><trkpt lat="45.9975726" lon="10.3276932"><ele>444.0</ele><time>2026-04-25T07:47:50.755Z</time></trkpt><trkpt lat="45.9977155" lon="10.3276289"><ele>444.0</ele><time>2026-04-25T07:47:51.76Z</time></trkpt><trkpt lat="45.9978585" lon="10.3275636"><ele>444.0</ele><time>2026-04-25T07:47:52.757Z</time></trkpt><trkpt lat="45.9979979" lon="10.3274976"><ele>444.0</ele><time>2026-04-25T07:47:53.761Z</time></trkpt><trkpt lat="45.9981331" lon="10.3274352"><ele>444.0</ele><time>2026-04-25T07:47:54.759Z</time></trkpt><trkpt lat="45.9982672" lon="10.3273831"><ele>444.0</ele><time>2026-04-25T07:47:55.757Z</time></trkpt><trkpt lat="45.9983998" lon="10.3273547"><ele>444.0</ele><time>2026-04-25T07:47:56.756Z</time></trkpt><trkpt lat="45.9985329" lon="10.3273516"><ele>444.0</ele><time>2026-04-25T07:47:57.759Z</time></trkpt><trkpt lat="45.9986675" lon="10.3273598"><ele>444.25</ele><time>2026-04-25T07:47:58.76Z</time></trkpt><trkpt lat="45.9988037" lon="10.3273727"><ele>444.5</ele><time>2026-04-25T07:47:59.762Z</time></trkpt><trkpt lat="45.9989375" lon="10.3274007"><ele>444.75</ele><time>2026-04-25T07:48:00.759Z</time></trkpt><trkpt lat="45.9990603" lon="10.3274443"><ele>445.0</ele><time>2026-04-25T07:48:01.759Z</time></trkpt><trkpt lat="45.999175" lon="10.3274915"><ele>445.0</ele><time>2026-04-25T07:48:02.765Z</time></trkpt><trkpt lat="45.9992864" lon="10.3275214"><ele>445.0</ele><time>2026-04-25T07:48:03.761Z</time></trkpt><trkpt lat="45.9993997" lon="10.3275145"><ele>445.0</ele><time>2026-04-25T07:48:04.76Z</time></trkpt><trkpt lat="45.999517" lon="10.3274783"><ele>445.0</ele><time>2026-04-25T07:48:05.758Z</time></trkpt><trkpt lat="45.9996296" lon="10.3274281"><ele>445.0</ele><time>2026-04-25T07:48:06.763Z</time></trkpt><trkpt lat="45.9997394" lon="10.327355"><ele>445.0</ele><time>2026-04-25T07:48:07.76Z</time></trkpt><trkpt lat="45.9998475" lon="10.3272391"><ele>445.0</ele><time>2026-04-25T07:48:08.759Z</time></trkpt><trkpt lat="45.9999461" lon="10.3270876"><ele>445.0</ele><time>2026-04-25T07:48:09.759Z</time></trkpt><trkpt lat="46.0000348" lon="10.3269191"><ele>447.75</ele><time>2026-04-25T07:48:10.761Z</time></trkpt><trkpt lat="46.0001187" lon="10.3267571"><ele>450.5</ele><time>2026-04-25T07:48:11.761Z</time></trkpt><trkpt lat="46.0001967" lon="10.326606"><ele>453.25</ele><time>2026-04-25T07:48:12.762Z</time></trkpt><trkpt lat="46.000289" lon="10.3264611"><ele>456.0</ele><time>2026-04-25T07:48:13.763Z</time></trkpt><trkpt lat="46.0003861" lon="10.3263281"><ele>457.6</ele><time>2026-04-25T07:48:14.761Z</time></trkpt><trkpt lat="46.000477" lon="10.3262062"><ele>459.20000000000005</ele><time>2026-04-25T07:48:15.759Z</time></trkpt><trkpt lat="46.0005561" lon="10.3261041"><ele>460.79999999999995</ele><time>2026-04-25T07:48:16.762Z</time></trkpt><trkpt lat="46.0006259" lon="10.3260167"><ele>462.4</ele><time>2026-04-25T07:48:17.757Z</time></trkpt><trkpt lat="46.0006802" lon="10.3259198"><ele>464.0</ele><time>2026-04-25T07:48:18.758Z</time></trkpt><trkpt lat="46.0007103" lon="10.3258112"><ele>464.0</ele><time>2026-04-25T07:48:19.761Z</time></trkpt><trkpt lat="46.0007388" lon="10.3257189"><ele>464.0</ele><time>2026-04-25T07:48:20.757Z</time></trkpt><trkpt lat="46.000788" lon="10.3256138"><ele>464.0</ele><time>2026-04-25T07:48:22.765Z</time></trkpt><trkpt lat="46.0008397" lon="10.3254249"><ele>464.0</ele><time>2026-04-25T07:48:24.762Z</time></trkpt><trkpt lat="46.0009083" lon="10.3252862"><ele>464.0</ele><time>2026-04-25T07:48:25.758Z</time></trkpt><trkpt lat="46.0010067" lon="10.3251232"><ele>465.0</ele><time>2026-04-25T07:48:26.759Z</time></trkpt><trkpt lat="46.0011243" lon="10.3249571"><ele>466.0</ele><time>2026-04-25T07:48:27.764Z</time></trkpt><trkpt lat="46.0012374" lon="10.3248063"><ele>467.0</ele><time>2026-04-25T07:48:28.763Z</time></trkpt><trkpt lat="46.0013651" lon="10.3247114"><ele>475.66666666666663</ele><time>2026-04-25T07:48:29.762Z</time></trkpt><trkpt lat="46.001509" lon="10.3246797"><ele>484.33333333333337</ele><time>2026-04-25T07:48:30.767Z</time></trkpt><trkpt lat="46.0016661" lon="10.3246929"><ele>493.0</ele><time>2026-04-25T07:48:31.767Z</time></trkpt><trkpt lat="46.0018463" lon="10.3247159"><ele>483.33333333333337</ele><time>2026-04-25T07:48:32.762Z</time></trkpt><trkpt lat="46.0020515" lon="10.3247572"><ele>473.66666666666663</ele><time>2026-04-25T07:48:33.771Z</time></trkpt><trkpt lat="46.0022518" lon="10.3248044"><ele>464.0</ele><time>2026-04-25T07:48:34.76Z</time></trkpt><trkpt lat="46.0024346" lon="10.3248479"><ele>467.66666666666663</ele><time>2026-04-25T07:48:35.759Z</time></trkpt><trkpt lat="46.0025988" lon="10.3249101"><ele>471.33333333333337</ele><time>2026-04-25T07:48:36.763Z</time></trkpt><trkpt lat="46.0027536" lon="10.3249491"><ele>475.0</ele><time>2026-04-25T07:48:37.763Z</time></trkpt><trkpt lat="46.0028849" lon="10.3249646"><ele>475.0</ele><time>2026-04-25T07:48:38.757Z</time></trkpt><trkpt lat="46.0029858" lon="10.3249501"><ele>475.0</ele><time>2026-04-25T07:48:39.756Z</time></trkpt><trkpt lat="46.0030653" lon="10.3249321"><ele>475.0</ele><time>2026-04-25T07:48:40.756Z</time></trkpt><trkpt lat="46.0031422" lon="10.3249027"><ele>475.0</ele><time>2026-04-25T07:48:41.758Z</time></trkpt><trkpt lat="46.003266" lon="10.3248694"><ele>475.0</ele><time>2026-04-25T07:48:43.767Z</time></trkpt><trkpt lat="46.0033284" lon="10.3247982"><ele>478.42857142857144</ele><time>2026-04-25T07:48:44.762Z</time></trkpt><trkpt lat="46.0033854" lon="10.3247138"><ele>481.8571428571429</ele><time>2026-04-25T07:48:45.76Z</time></trkpt><trkpt lat="46.0034361" lon="10.3246197"><ele>485.28571428571433</ele><time>2026-04-25T07:48:46.759Z</time></trkpt><trkpt lat="46.0034931" lon="10.324546"><ele>488.7142857142858</ele><time>2026-04-25T07:48:47.757Z</time></trkpt><trkpt lat="46.0035506" lon="10.3244854"><ele>492.14285714285717</ele><time>2026-04-25T07:48:48.753Z</time></trkpt><trkpt lat="46.0036054" lon="10.3244205"><ele>495.57142857142867</ele><time>2026-04-25T07:48:49.759Z</time></trkpt><trkpt lat="46.0036447" lon="10.3243458"><ele>499.00000000000006</ele><time>2026-04-25T07:48:50.759Z</time></trkpt><trkpt lat="46.0037055" lon="10.3242413"><ele>499.00000000000006</ele><time>2026-04-25T07:48:52.759Z</time></trkpt><trkpt lat="46.0037889" lon="10.3242555"><ele>499.0</ele><time>2026-04-25T07:48:54.758Z</time></trkpt><trkpt lat="46.0038407" lon="10.3241751"><ele>499.0</ele><time>2026-04-25T07:48:56.762Z</time></trkpt><trkpt lat="46.0038658" lon="10.3240886"><ele>499.0</ele><time>2026-04-25T07:48:57.761Z</time></trkpt><trkpt lat="46.0039395" lon="10.323993"><ele>499.00000000000006</ele><time>2026-04-25T07:48:59.76Z</time></trkpt><trkpt lat="46.0040027" lon="10.3240053"><ele>499.0</ele><time>2026-04-25T07:49:00.757Z</time></trkpt><trkpt lat="46.0040763" lon="10.324041"><ele>499.00000000000006</ele><time>2026-04-25T07:49:01.756Z</time></trkpt><trkpt lat="46.0041451" lon="10.3240794"><ele>499.0</ele><time>2026-04-25T07:49:02.759Z</time></trkpt><trkpt lat="46.0042163" lon="10.3241122"><ele>499.00000000000006</ele><time>2026-04-25T07:49:03.757Z</time></trkpt><trkpt lat="46.0042861" lon="10.3241398"><ele>499.00000000000006</ele><time>2026-04-25T07:49:04.754Z</time></trkpt><trkpt lat="46.0043589" lon="10.3241519"><ele>499.0</ele><time>2026-04-25T07:49:05.754Z</time></trkpt><trkpt lat="46.0044285" lon="10.324152"><ele>499.00000000000006</ele><time>2026-04-25T07:49:06.761Z</time></trkpt><trkpt lat="46.0044935" lon="10.3241527"><ele>499.00000000000006</ele><time>2026-04-25T07:49:07.757Z</time></trkpt><trkpt lat="46.0046007" lon="10.3241833"><ele>498.33333333333337</ele><time>2026-04-25T07:49:09.758Z</time></trkpt><trkpt lat="46.0047044" lon="10.3242025"><ele>497.6666666666667</ele><time>2026-04-25T07:49:11.758Z</time></trkpt><trkpt lat="46.0047678" lon="10.3241838"><ele>497.0</ele><time>2026-04-25T07:49:12.754Z</time></trkpt><trkpt lat="46.0048366" lon="10.3241657"><ele>496.33333333333337</ele><time>2026-04-25T07:49:13.759Z</time></trkpt><trkpt lat="46.0049116" lon="10.3241579"><ele>495.6666666666667</ele><time>2026-04-25T07:49:14.758Z</time></trkpt><trkpt lat="46.0049875" lon="10.3241649"><ele>495.0</ele><time>2026-04-25T07:49:15.757Z</time></trkpt><trkpt lat="46.0050583" lon="10.3241772"><ele>496.5</ele><time>2026-04-25T07:49:16.753Z</time></trkpt><trkpt lat="46.0051228" lon="10.3241892"><ele>498.0</ele><time>2026-04-25T07:49:17.754Z</time></trkpt><trkpt lat="46.0051979" lon="10.3241848"><ele>499.5</ele><time>2026-04-25T07:49:18.756Z</time></trkpt><trkpt lat="46.0052832" lon="10.3241752"><ele>501.0</ele><time>2026-04-25T07:49:19.757Z</time></trkpt><trkpt lat="46.0053708" lon="10.3241687"><ele>502.5</ele><time>2026-04-25T07:49:20.759Z</time></trkpt><trkpt lat="46.0054556" lon="10.3241817"><ele>504.0</ele><time>2026-04-25T07:49:21.755Z</time></trkpt><trkpt lat="46.005547" lon="10.3242208"><ele>504.0</ele><time>2026-04-25T07:49:22.755Z</time></trkpt><trkpt lat="46.0056374" lon="10.3242855"><ele>504.0</ele><time>2026-04-25T07:49:23.757Z</time></trkpt><trkpt lat="46.0057305" lon="10.3243651"><ele>504.0</ele><time>2026-04-25T07:49:24.757Z</time></trkpt><trkpt lat="46.0058179" lon="10.3244523"><ele>504.0</ele><time>2026-04-25T07:49:25.756Z</time></trkpt><trkpt lat="46.0058933" lon="10.3245484"><ele>504.0</ele><time>2026-04-25T07:49:26.758Z</time></trkpt><trkpt lat="46.0059641" lon="10.3246667"><ele>502.6</ele><time>2026-04-25T07:49:27.758Z</time></trkpt><trkpt lat="46.0060312" lon="10.3247957"><ele>501.2</ele><time>2026-04-25T07:49:28.752Z</time></trkpt><trkpt lat="46.0060985" lon="10.3249056"><ele>499.80000000000007</ele><time>2026-04-25T07:49:29.76Z</time></trkpt><trkpt lat="46.0061563" lon="10.3250135"><ele>498.40000000000003</ele><time>2026-04-25T07:49:30.76Z</time></trkpt><trkpt lat="46.0062088" lon="10.325109"><ele>497.0</ele><time>2026-04-25T07:49:31.76Z</time></trkpt><trkpt lat="46.0062578" lon="10.3251825"><ele>496.99999999999994</ele><time>2026-04-25T07:49:32.759Z</time></trkpt><trkpt lat="46.006333" lon="10.3252754"><ele>497.0</ele><time>2026-04-25T07:49:34.762Z</time></trkpt><trkpt lat="46.006397" lon="10.3252626"><ele>497.0</ele><time>2026-04-25T07:49:36.76Z</time></trkpt><trkpt lat="46.0064495" lon="10.3252098"><ele>497.0</ele><time>2026-04-25T07:49:37.761Z</time></trkpt><trkpt lat="46.0065208" lon="10.3251589"><ele>496.99999999999994</ele><time>2026-04-25T07:49:38.761Z</time></trkpt><trkpt lat="46.0066071" lon="10.3251248"><ele>497.0</ele><time>2026-04-25T07:49:39.759Z</time></trkpt><trkpt lat="46.0066916" lon="10.3250977"><ele>499.16666666666663</ele><time>2026-04-25T07:49:40.758Z</time></trkpt><trkpt lat="46.0067733" lon="10.3250635"><ele>501.3333333333333</ele><time>2026-04-25T07:49:41.76Z</time></trkpt><trkpt lat="46.0068468" lon="10.3250262"><ele>503.5</ele><time>2026-04-25T07:49:42.756Z</time></trkpt><trkpt lat="46.0069084" lon="10.3250005"><ele>505.66666666666663</ele><time>2026-04-25T07:49:43.76Z</time></trkpt><trkpt lat="46.0069978" lon="10.3250188"><ele>507.8333333333333</ele><time>2026-04-25T07:49:45.76Z</time></trkpt><trkpt lat="46.0070864" lon="10.3251016"><ele>510.0</ele><time>2026-04-25T07:49:47.756Z</time></trkpt><trkpt lat="46.0071612" lon="10.3251251"><ele>510.0</ele><time>2026-04-25T07:49:49.757Z</time></trkpt><trkpt lat="46.0072215" lon="10.3250976"><ele>510.0</ele><time>2026-04-25T07:49:50.76Z</time></trkpt><trkpt lat="46.0073168" lon="10.3250571"><ele>510.0</ele><time>2026-04-25T07:49:51.762Z</time></trkpt><trkpt lat="46.0074095" lon="10.3250304"><ele>510.0</ele><time>2026-04-25T07:49:52.758Z</time></trkpt><trkpt lat="46.0074871" lon="10.3250207"><ele>510.0</ele><time>2026-04-25T07:49:53.764Z</time></trkpt><trkpt lat="46.0075586" lon="10.3250408"><ele>510.0</ele><time>2026-04-25T07:49:54.758Z</time></trkpt><trkpt lat="46.0076201" lon="10.3251132"><ele>508.4</ele><time>2026-04-25T07:49:55.759Z</time></trkpt><trkpt lat="46.0076719" lon="10.3252429"><ele>506.8</ele><time>2026-04-25T07:49:56.76Z</time></trkpt><trkpt lat="46.0077168" lon="10.3253924"><ele>505.20000000000005</ele><time>2026-04-25T07:49:57.761Z</time></trkpt><trkpt lat="46.007757" lon="10.3255421"><ele>503.6</ele><time>2026-04-25T07:49:58.76Z</time></trkpt><trkpt lat="46.0077985" lon="10.3256715"><ele>502.0</ele><time>2026-04-25T07:49:59.754Z</time></trkpt><trkpt lat="46.0078384" lon="10.3257881"><ele>502.00000000000006</ele><time>2026-04-25T07:50:00.757Z</time></trkpt><trkpt lat="46.0078758" lon="10.3258823"><ele>502.0</ele><time>2026-04-25T07:50:01.757Z</time></trkpt><trkpt lat="46.0079264" lon="10.3259624"><ele>502.0</ele><time>2026-04-25T07:50:02.757Z</time></trkpt><trkpt lat="46.0079927" lon="10.3260305"><ele>502.0</ele><time>2026-04-25T07:50:03.761Z</time></trkpt><trkpt lat="46.0080663" lon="10.3260879"><ele>502.00000000000006</ele><time>2026-04-25T07:50:04.755Z</time></trkpt><trkpt lat="46.008142" lon="10.3261378"><ele>502.0</ele><time>2026-04-25T07:50:05.761Z</time></trkpt><trkpt lat="46.0082179" lon="10.3261751"><ele>502.0</ele><time>2026-04-25T07:50:06.761Z</time></trkpt><trkpt lat="46.0083038" lon="10.326193"><ele>502.00000000000006</ele><time>2026-04-25T07:50:07.756Z</time></trkpt><trkpt lat="46.0084123" lon="10.326194"><ele>502.00000000000006</ele><time>2026-04-25T07:50:08.76Z</time></trkpt><trkpt lat="46.0085288" lon="10.32619"><ele>502.0</ele><time>2026-04-25T07:50:09.759Z</time></trkpt><trkpt lat="46.0086344" lon="10.3261957"><ele>502.0</ele><time>2026-04-25T07:50:10.761Z</time></trkpt><trkpt lat="46.0087301" lon="10.3262112"><ele>505.6</ele><time>2026-04-25T07:50:11.76Z</time></trkpt><trkpt lat="46.008824" lon="10.3262338"><ele>509.20000000000005</ele><time>2026-04-25T07:50:12.764Z</time></trkpt><trkpt lat="46.0089161" lon="10.3262583"><ele>512.8</ele><time>2026-04-25T07:50:13.762Z</time></trkpt><trkpt lat="46.0090099" lon="10.3262757"><ele>516.4</ele><time>2026-04-25T07:50:14.756Z</time></trkpt><trkpt lat="46.0091114" lon="10.3262771"><ele>520.0</ele><time>2026-04-25T07:50:15.756Z</time></trkpt><trkpt lat="46.0092127" lon="10.3262704"><ele>522.2</ele><time>2026-04-25T07:50:16.756Z</time></trkpt><trkpt lat="46.0093104" lon="10.3262667"><ele>524.4</ele><time>2026-04-25T07:50:17.757Z</time></trkpt><trkpt lat="46.0094107" lon="10.3262591"><ele>526.6</ele><time>2026-04-25T07:50:18.76Z</time></trkpt><trkpt lat="46.0095109" lon="10.326244"><ele>528.8</ele><time>2026-04-25T07:50:19.757Z</time></trkpt><trkpt lat="46.0096109" lon="10.3262223"><ele>531.0</ele><time>2026-04-25T07:50:20.756Z</time></trkpt><trkpt lat="46.0097055" lon="10.326197"><ele>531.0</ele><time>2026-04-25T07:50:21.761Z</time></trkpt><trkpt lat="46.0097914" lon="10.3261667"><ele>531.0</ele><time>2026-04-25T07:50:22.763Z</time></trkpt><trkpt lat="46.0098685" lon="10.3261334"><ele>531.0</ele><time>2026-04-25T07:50:23.754Z</time></trkpt><trkpt lat="46.0099436" lon="10.3260846"><ele>531.0</ele><time>2026-04-25T07:50:24.757Z</time></trkpt><trkpt lat="46.0100213" lon="10.3260292"><ele>531.0</ele><time>2026-04-25T07:50:25.757Z</time></trkpt><trkpt lat="46.0101014" lon="10.3259696"><ele>531.0</ele><time>2026-04-25T07:50:26.757Z</time></trkpt><trkpt lat="46.0101857" lon="10.3258962"><ele>529.2</ele><time>2026-04-25T07:50:27.758Z</time></trkpt><trkpt lat="46.0102676" lon="10.3258062"><ele>527.4000000000001</ele><time>2026-04-25T07:50:28.754Z</time></trkpt><trkpt lat="46.0103447" lon="10.325704"><ele>525.6</ele><time>2026-04-25T07:50:29.758Z</time></trkpt><trkpt lat="46.0104197" lon="10.3256082"><ele>523.8000000000001</ele><time>2026-04-25T07:50:30.757Z</time></trkpt><trkpt lat="46.0104919" lon="10.3255145"><ele>522.0</ele><time>2026-04-25T07:50:31.757Z</time></trkpt><trkpt lat="46.0105602" lon="10.325429"><ele>521.3333333333334</ele><time>2026-04-25T07:50:32.756Z</time></trkpt><trkpt lat="46.0106275" lon="10.3253694"><ele>520.6666666666666</ele><time>2026-04-25T07:50:33.758Z</time></trkpt><trkpt lat="46.0106967" lon="10.3253363"><ele>520.0</ele><time>2026-04-25T07:50:34.761Z</time></trkpt><trkpt lat="46.0107643" lon="10.3253377"><ele>519.3333333333333</ele><time>2026-04-25T07:50:35.762Z</time></trkpt><trkpt lat="46.010825" lon="10.3253883"><ele>518.6666666666666</ele><time>2026-04-25T07:50:36.762Z</time></trkpt><trkpt lat="46.0108794" lon="10.3254782"><ele>518.0</ele><time>2026-04-25T07:50:37.764Z</time></trkpt><trkpt lat="46.0109392" lon="10.3255621"><ele>518.0</ele><time>2026-04-25T07:50:38.755Z</time></trkpt><trkpt lat="46.0110196" lon="10.325618"><ele>518.0</ele><time>2026-04-25T07:50:39.769Z</time></trkpt><trkpt lat="46.0111116" lon="10.3256598"><ele>518.0</ele><time>2026-04-25T07:50:40.759Z</time></trkpt><trkpt lat="46.0112021" lon="10.3257119"><ele>518.0</ele><time>2026-04-25T07:50:41.756Z</time></trkpt><trkpt lat="46.0112984" lon="10.3257878"><ele>518.0</ele><time>2026-04-25T07:50:42.756Z</time></trkpt><trkpt lat="46.0113876" lon="10.3258702"><ele>518.0</ele><time>2026-04-25T07:50:43.763Z</time></trkpt><trkpt lat="46.0114682" lon="10.3259471"><ele>518.0</ele><time>2026-04-25T07:50:44.76Z</time></trkpt><trkpt lat="46.0115494" lon="10.3259995"><ele>518.0</ele><time>2026-04-25T07:50:45.763Z</time></trkpt><trkpt lat="46.0116481" lon="10.3260398"><ele>518.0</ele><time>2026-04-25T07:50:46.759Z</time></trkpt><trkpt lat="46.0117571" lon="10.3260707"><ele>518.0</ele><time>2026-04-25T07:50:47.756Z</time></trkpt><trkpt lat="46.0118667" lon="10.3261077"><ele>520.0</ele><time>2026-04-25T07:50:48.755Z</time></trkpt><trkpt lat="46.011982" lon="10.3261378"><ele>522.0</ele><time>2026-04-25T07:50:49.756Z</time></trkpt><trkpt lat="46.0120998" lon="10.3261605"><ele>524.0</ele><time>2026-04-25T07:50:50.757Z</time></trkpt><trkpt lat="46.0122087" lon="10.3261797"><ele>526.0</ele><time>2026-04-25T07:50:51.764Z</time></trkpt><trkpt lat="46.0122985" lon="10.3261963"><ele>528.0</ele><time>2026-04-25T07:50:52.765Z</time></trkpt><trkpt lat="46.0123747" lon="10.326186"><ele>528.0</ele><time>2026-04-25T07:50:53.762Z</time></trkpt><trkpt lat="46.0124451" lon="10.3261373"><ele>528.0</ele><time>2026-04-25T07:50:54.762Z</time></trkpt><trkpt lat="46.0125128" lon="10.326065"><ele>528.0</ele><time>2026-04-25T07:50:55.764Z</time></trkpt><trkpt lat="46.0125762" lon="10.3260077"><ele>528.0</ele><time>2026-04-25T07:50:56.758Z</time></trkpt><trkpt lat="46.0126446" lon="10.3259821"><ele>528.0</ele><time>2026-04-25T07:50:57.76Z</time></trkpt><trkpt lat="46.0127142" lon="10.3259979"><ele>528.0</ele><time>2026-04-25T07:50:58.756Z</time></trkpt><trkpt lat="46.0127744" lon="10.3260702"><ele>528.1666666666666</ele><time>2026-04-25T07:50:59.767Z</time></trkpt><trkpt lat="46.0128283" lon="10.3261769"><ele>528.3333333333334</ele><time>2026-04-25T07:51:00.763Z</time></trkpt><trkpt lat="46.0128997" lon="10.3262541"><ele>528.5</ele><time>2026-04-25T07:51:01.765Z</time></trkpt><trkpt lat="46.0129856" lon="10.3263011"><ele>528.6666666666667</ele><time>2026-04-25T07:51:02.758Z</time></trkpt><trkpt lat="46.0130643" lon="10.326339"><ele>528.8333333333334</ele><time>2026-04-25T07:51:03.76Z</time></trkpt><trkpt lat="46.0131358" lon="10.3263636"><ele>529.0</ele><time>2026-04-25T07:51:04.762Z</time></trkpt><trkpt lat="46.0132477" lon="10.3264082"><ele>529.0</ele><time>2026-04-25T07:51:06.757Z</time></trkpt><trkpt lat="46.0133662" lon="10.3264104"><ele>529.0</ele><time>2026-04-25T07:51:08.755Z</time></trkpt><trkpt lat="46.0134646" lon="10.3263771"><ele>529.0</ele><time>2026-04-25T07:51:10.76Z</time></trkpt><trkpt lat="46.0135362" lon="10.3263286"><ele>529.0</ele><time>2026-04-25T07:51:12.756Z</time></trkpt><trkpt lat="46.0136173" lon="10.3262742"><ele>529.0</ele><time>2026-04-25T07:51:14.755Z</time></trkpt><trkpt lat="46.0137155" lon="10.3262321"><ele>532.0</ele><time>2026-04-25T07:51:16.762Z</time></trkpt><trkpt lat="46.013827" lon="10.3262121"><ele>535.0</ele><time>2026-04-25T07:51:18.758Z</time></trkpt><trkpt lat="46.0138968" lon="10.3262076"><ele>538.0</ele><time>2026-04-25T07:51:19.755Z</time></trkpt><trkpt lat="46.0139827" lon="10.3261947"><ele>541.0</ele><time>2026-04-25T07:51:20.758Z</time></trkpt><trkpt lat="46.0140799" lon="10.3261709"><ele>544.0</ele><time>2026-04-25T07:51:21.762Z</time></trkpt><trkpt lat="46.0141834" lon="10.326143"><ele>544.25</ele><time>2026-04-25T07:51:22.766Z</time></trkpt><trkpt lat="46.0142953" lon="10.3261173"><ele>544.5</ele><time>2026-04-25T07:51:23.755Z</time></trkpt><trkpt lat="46.0144079" lon="10.3261083"><ele>544.75</ele><time>2026-04-25T07:51:24.761Z</time></trkpt><trkpt lat="46.0145328" lon="10.3261212"><ele>545.0</ele><time>2026-04-25T07:51:25.758Z</time></trkpt><trkpt lat="46.0146769" lon="10.3261562"><ele>545.0</ele><time>2026-04-25T07:51:26.761Z</time></trkpt><trkpt lat="46.0148241" lon="10.3261962"><ele>545.0</ele><time>2026-04-25T07:51:27.759Z</time></trkpt><trkpt lat="46.0149443" lon="10.3262448"><ele>545.0</ele><time>2026-04-25T07:51:28.761Z</time></trkpt><trkpt lat="46.0150443" lon="10.3263183"><ele>545.0</ele><time>2026-04-25T07:51:29.76Z</time></trkpt><trkpt lat="46.0151271" lon="10.3263871"><ele>544.8333333333333</ele><time>2026-04-25T07:51:30.758Z</time></trkpt><trkpt lat="46.0151977" lon="10.3264421"><ele>544.6666666666666</ele><time>2026-04-25T07:51:31.763Z</time></trkpt><trkpt lat="46.0152652" lon="10.3264683"><ele>544.5</ele><time>2026-04-25T07:51:32.763Z</time></trkpt><trkpt lat="46.0153381" lon="10.3264736"><ele>544.3333333333334</ele><time>2026-04-25T07:51:33.761Z</time></trkpt><trkpt lat="46.0154163" lon="10.3264372"><ele>544.1666666666667</ele><time>2026-04-25T07:51:34.759Z</time></trkpt><trkpt lat="46.0155041" lon="10.3263521"><ele>544.0</ele><time>2026-04-25T07:51:35.762Z</time></trkpt><trkpt lat="46.0156106" lon="10.3262442"><ele>544.0</ele><time>2026-04-25T07:51:36.759Z</time></trkpt><trkpt lat="46.0157486" lon="10.3261475"><ele>544.0</ele><time>2026-04-25T07:51:37.759Z</time></trkpt><trkpt lat="46.0158947" lon="10.3260549"><ele>544.0</ele><time>2026-04-25T07:51:38.755Z</time></trkpt><trkpt lat="46.0160267" lon="10.3259641"><ele>541.5</ele><time>2026-04-25T07:51:39.764Z</time></trkpt><trkpt lat="46.0161439" lon="10.3258649"><ele>539.0</ele><time>2026-04-25T07:51:40.757Z</time></trkpt><trkpt lat="46.0162476" lon="10.3257787"><ele>536.5</ele><time>2026-04-25T07:51:41.758Z</time></trkpt><trkpt lat="46.0163502" lon="10.3257098"><ele>534.0</ele><time>2026-04-25T07:51:42.754Z</time></trkpt><trkpt lat="46.0164587" lon="10.3256545"><ele>534.0</ele><time>2026-04-25T07:51:43.759Z</time></trkpt><trkpt lat="46.0165736" lon="10.3255936"><ele>534.0</ele><time>2026-04-25T07:51:44.756Z</time></trkpt><trkpt lat="46.0166898" lon="10.3255318"><ele>534.0</ele><time>2026-04-25T07:51:45.757Z</time></trkpt><trkpt lat="46.0168026" lon="10.3254845"><ele>534.0</ele><time>2026-04-25T07:51:46.757Z</time></trkpt><trkpt lat="46.0169093" lon="10.3254617"><ele>533.8333333333334</ele><time>2026-04-25T07:51:47.752Z</time></trkpt><trkpt lat="46.0169983" lon="10.3254643"><ele>533.6666666666666</ele><time>2026-04-25T07:51:48.761Z</time></trkpt><trkpt lat="46.0170597" lon="10.3255047"><ele>533.5</ele><time>2026-04-25T07:51:49.761Z</time></trkpt><trkpt lat="46.0170887" lon="10.3255939"><ele>533.3333333333333</ele><time>2026-04-25T07:51:50.761Z</time></trkpt><trkpt lat="46.0170973" lon="10.3257077"><ele>533.1666666666666</ele><time>2026-04-25T07:51:51.757Z</time></trkpt><trkpt lat="46.0170939" lon="10.3258428"><ele>533.0</ele><time>2026-04-25T07:51:52.756Z</time></trkpt><trkpt lat="46.0170927" lon="10.3259847"><ele>532.0</ele><time>2026-04-25T07:51:53.754Z</time></trkpt><trkpt lat="46.0170933" lon="10.3261213"><ele>531.0</ele><time>2026-04-25T07:51:54.756Z</time></trkpt><trkpt lat="46.0171" lon="10.3262363"><ele>530.0</ele><time>2026-04-25T07:51:55.76Z</time></trkpt><trkpt lat="46.0170783" lon="10.3263814"><ele>529.0</ele><time>2026-04-25T07:51:57.759Z</time></trkpt><trkpt lat="46.017018" lon="10.3264506"><ele>528.0</ele><time>2026-04-25T07:51:58.758Z</time></trkpt><trkpt lat="46.0169468" lon="10.3265247"><ele>527.0</ele><time>2026-04-25T07:51:59.761Z</time></trkpt><trkpt lat="46.0168728" lon="10.3266105"><ele>525.6</ele><time>2026-04-25T07:52:00.757Z</time></trkpt><trkpt lat="46.0168081" lon="10.3267072"><ele>524.2</ele><time>2026-04-25T07:52:01.759Z</time></trkpt><trkpt lat="46.0167738" lon="10.3268141"><ele>522.8</ele><time>2026-04-25T07:52:02.754Z</time></trkpt><trkpt lat="46.0167851" lon="10.3269405"><ele>521.4</ele><time>2026-04-25T07:52:03.757Z</time></trkpt><trkpt lat="46.0168252" lon="10.3270727"><ele>520.0</ele><time>2026-04-25T07:52:04.759Z</time></trkpt><trkpt lat="46.0168685" lon="10.3272126"><ele>517.4</ele><time>2026-04-25T07:52:05.755Z</time></trkpt><trkpt lat="46.0169245" lon="10.3273416"><ele>514.8</ele><time>2026-04-25T07:52:06.764Z</time></trkpt><trkpt lat="46.0169946" lon="10.3274592"><ele>512.2</ele><time>2026-04-25T07:52:07.76Z</time></trkpt><trkpt lat="46.0170831" lon="10.327547"><ele>509.6</ele><time>2026-04-25T07:52:08.757Z</time></trkpt><trkpt lat="46.0171854" lon="10.3275935"><ele>507.0</ele><time>2026-04-25T07:52:09.764Z</time></trkpt><trkpt lat="46.0172733" lon="10.3276202"><ele>507.0</ele><time>2026-04-25T07:52:10.757Z</time></trkpt><trkpt lat="46.0173357" lon="10.3276663"><ele>507.00000000000006</ele><time>2026-04-25T07:52:11.764Z</time></trkpt><trkpt lat="46.0173516" lon="10.3278316"><ele>507.00000000000006</ele><time>2026-04-25T07:52:13.76Z</time></trkpt><trkpt lat="46.0173032" lon="10.3279158"><ele>507.0</ele><time>2026-04-25T07:52:14.756Z</time></trkpt><trkpt lat="46.0172227" lon="10.3280106"><ele>507.0</ele><time>2026-04-25T07:52:15.76Z</time></trkpt><trkpt lat="46.0171566" lon="10.3280932"><ele>505.6666666666667</ele><time>2026-04-25T07:52:16.758Z</time></trkpt><trkpt lat="46.0171112" lon="10.3281625"><ele>504.33333333333337</ele><time>2026-04-25T07:52:17.757Z</time></trkpt><trkpt lat="46.0170686" lon="10.3282371"><ele>503.0</ele><time>2026-04-25T07:52:18.76Z</time></trkpt><trkpt lat="46.0170103" lon="10.3283299"><ele>501.6666666666667</ele><time>2026-04-25T07:52:19.758Z</time></trkpt><trkpt lat="46.0169462" lon="10.3284277"><ele>500.33333333333337</ele><time>2026-04-25T07:52:20.762Z</time></trkpt><trkpt lat="46.0168914" lon="10.3285079"><ele>499.0</ele><time>2026-04-25T07:52:21.767Z</time></trkpt><trkpt lat="46.0168234" lon="10.3286288"><ele>499.0</ele><time>2026-04-25T07:52:23.76Z</time></trkpt><trkpt lat="46.0168712" lon="10.3288081"><ele>499.0</ele><time>2026-04-25T07:52:25.761Z</time></trkpt><trkpt lat="46.0169361" lon="10.3289822"><ele>499.0</ele><time>2026-04-25T07:52:26.756Z</time></trkpt><trkpt lat="46.0170092" lon="10.3291503"><ele>499.0</ele><time>2026-04-25T07:52:27.765Z</time></trkpt><trkpt lat="46.0170993" lon="10.3293275"><ele>497.25</ele><time>2026-04-25T07:52:28.763Z</time></trkpt><trkpt lat="46.0171833" lon="10.3295079"><ele>495.5</ele><time>2026-04-25T07:52:29.764Z</time></trkpt><trkpt lat="46.0172643" lon="10.3296781"><ele>493.75</ele><time>2026-04-25T07:52:30.762Z</time></trkpt><trkpt lat="46.0173451" lon="10.3298363"><ele>492.0</ele><time>2026-04-25T07:52:31.759Z</time></trkpt><trkpt lat="46.0174306" lon="10.3299817"><ele>488.25</ele><time>2026-04-25T07:52:32.762Z</time></trkpt><trkpt lat="46.0175162" lon="10.3301331"><ele>484.5</ele><time>2026-04-25T07:52:33.764Z</time></trkpt><trkpt lat="46.0175993" lon="10.3302875"><ele>480.75</ele><time>2026-04-25T07:52:34.757Z</time></trkpt><trkpt lat="46.0176764" lon="10.3304431"><ele>477.0</ele><time>2026-04-25T07:52:35.762Z</time></trkpt><trkpt lat="46.0177487" lon="10.3305958"><ele>475.0</ele><time>2026-04-25T07:52:36.764Z</time></trkpt><trkpt lat="46.017812" lon="10.3307456"><ele>473.0</ele><time>2026-04-25T07:52:37.757Z</time></trkpt><trkpt lat="46.0178558" lon="10.3308971"><ele>471.0</ele><time>2026-04-25T07:52:38.757Z</time></trkpt><trkpt lat="46.0178801" lon="10.3310556"><ele>469.0</ele><time>2026-04-25T07:52:39.762Z</time></trkpt><trkpt lat="46.017889" lon="10.3312093"><ele>469.0</ele><time>2026-04-25T07:52:40.761Z</time></trkpt><trkpt lat="46.0178889" lon="10.3313606"><ele>469.0</ele><time>2026-04-25T07:52:41.762Z</time></trkpt><trkpt lat="46.0178738" lon="10.3314888"><ele>469.0</ele><time>2026-04-25T07:52:42.765Z</time></trkpt><trkpt lat="46.0178549" lon="10.3316124"><ele>469.0</ele><time>2026-04-25T07:52:44.76Z</time></trkpt><trkpt lat="46.0179468" lon="10.3316564"><ele>469.0</ele><time>2026-04-25T07:52:54.756Z</time></trkpt><trkpt lat="46.0180235" lon="10.3316812"><ele>466.5</ele><time>2026-04-25T07:52:55.765Z</time></trkpt><trkpt lat="46.018119" lon="10.3316965"><ele>464.0</ele><time>2026-04-25T07:52:56.762Z</time></trkpt><trkpt lat="46.0182367" lon="10.3317063"><ele>461.5</ele><time>2026-04-25T07:52:57.762Z</time></trkpt><trkpt lat="46.0183699" lon="10.3317129"><ele>459.0</ele><time>2026-04-25T07:52:58.762Z</time></trkpt><trkpt lat="46.0185047" lon="10.3317004"><ele>458.0</ele><time>2026-04-25T07:52:59.762Z</time></trkpt><trkpt lat="46.0186414" lon="10.331684"><ele>457.0</ele><time>2026-04-25T07:53:00.761Z</time></trkpt><trkpt lat="46.0187782" lon="10.3316692"><ele>456.0</ele><time>2026-04-25T07:53:01.763Z</time></trkpt><trkpt lat="46.0189139" lon="10.3316505"><ele>455.0</ele><time>2026-04-25T07:53:02.762Z</time></trkpt><trkpt lat="46.0190397" lon="10.3316223"><ele>453.5</ele><time>2026-04-25T07:53:03.765Z</time></trkpt><trkpt lat="46.0191568" lon="10.3315761"><ele>452.0</ele><time>2026-04-25T07:53:04.762Z</time></trkpt><trkpt lat="46.0192664" lon="10.3315148"><ele>450.5</ele><time>2026-04-25T07:53:05.761Z</time></trkpt><trkpt lat="46.0193743" lon="10.3314539"><ele>449.0</ele><time>2026-04-25T07:53:06.764Z</time></trkpt><trkpt lat="46.0194854" lon="10.3314034"><ele>451.0</ele><time>2026-04-25T07:53:07.762Z</time></trkpt><trkpt lat="46.0195937" lon="10.3313617"><ele>453.0</ele><time>2026-04-25T07:53:08.764Z</time></trkpt><trkpt lat="46.0197104" lon="10.331341"><ele>455.0</ele><time>2026-04-25T07:53:09.761Z</time></trkpt><trkpt lat="46.0198339" lon="10.331351"><ele>457.0</ele><time>2026-04-25T07:53:10.762Z</time></trkpt><trkpt lat="46.0199659" lon="10.3313754"><ele>453.0</ele><time>2026-04-25T07:53:11.755Z</time></trkpt><trkpt lat="46.0201027" lon="10.3314029"><ele>449.0</ele><time>2026-04-25T07:53:12.761Z</time></trkpt><trkpt lat="46.0202419" lon="10.3314331"><ele>445.0</ele><time>2026-04-25T07:53:13.756Z</time></trkpt><trkpt lat="46.0203782" lon="10.3314519"><ele>441.0</ele><time>2026-04-25T07:53:14.759Z</time></trkpt><trkpt lat="46.0205168" lon="10.3314421"><ele>441.0</ele><time>2026-04-25T07:53:15.762Z</time></trkpt><trkpt lat="46.020658" lon="10.3314012"><ele>441.0</ele><time>2026-04-25T07:53:16.764Z</time></trkpt><trkpt lat="46.020804" lon="10.3313422"><ele>441.0</ele><time>2026-04-25T07:53:17.756Z</time></trkpt><trkpt lat="46.0209495" lon="10.3312875"><ele>441.0</ele><time>2026-04-25T07:53:18.765Z</time></trkpt><trkpt lat="46.021092" lon="10.3312373"><ele>444.25</ele><time>2026-04-25T07:53:19.755Z</time></trkpt><trkpt lat="46.0212287" lon="10.3311903"><ele>447.5</ele><time>2026-04-25T07:53:20.761Z</time></trkpt><trkpt lat="46.0213511" lon="10.3311558"><ele>450.75</ele><time>2026-04-25T07:53:21.758Z</time></trkpt><trkpt lat="46.021465" lon="10.3311362"><ele>454.0</ele><time>2026-04-25T07:53:22.757Z</time></trkpt><trkpt lat="46.0215785" lon="10.3311378"><ele>453.25</ele><time>2026-04-25T07:53:23.759Z</time></trkpt><trkpt lat="46.0216862" lon="10.3311695"><ele>452.5</ele><time>2026-04-25T07:53:24.761Z</time></trkpt><trkpt lat="46.0217922" lon="10.3312136"><ele>451.75</ele><time>2026-04-25T07:53:25.759Z</time></trkpt><trkpt lat="46.021913" lon="10.3312348"><ele>451.0</ele><time>2026-04-25T07:53:26.76Z</time></trkpt><trkpt lat="46.0220469" lon="10.3312283"><ele>451.0</ele><time>2026-04-25T07:53:27.762Z</time></trkpt><trkpt lat="46.0221814" lon="10.3312095"><ele>451.0</ele><time>2026-04-25T07:53:28.754Z</time></trkpt><trkpt lat="46.0223065" lon="10.3311875"><ele>451.0</ele><time>2026-04-25T07:53:29.758Z</time></trkpt><trkpt lat="46.0224206" lon="10.331176"><ele>451.0</ele><time>2026-04-25T07:53:30.757Z</time></trkpt><trkpt lat="46.0225288" lon="10.3311846"><ele>450.75</ele><time>2026-04-25T07:53:31.759Z</time></trkpt><trkpt lat="46.0226371" lon="10.3312125"><ele>450.5</ele><time>2026-04-25T07:53:32.758Z</time></trkpt><trkpt lat="46.0227461" lon="10.3312443"><ele>450.25</ele><time>2026-04-25T07:53:33.759Z</time></trkpt><trkpt lat="46.0228569" lon="10.3312708"><ele>450.0</ele><time>2026-04-25T07:53:34.76Z</time></trkpt><trkpt lat="46.0229734" lon="10.3312808"><ele>450.0</ele><time>2026-04-25T07:53:35.756Z</time></trkpt><trkpt lat="46.0231003" lon="10.3312773"><ele>450.0</ele><time>2026-04-25T07:53:36.76Z</time></trkpt><trkpt lat="46.0232349" lon="10.331262"><ele>450.0</ele><time>2026-04-25T07:53:37.757Z</time></trkpt><trkpt lat="46.0233711" lon="10.3312239"><ele>450.0</ele><time>2026-04-25T07:53:38.758Z</time></trkpt><trkpt lat="46.0235101" lon="10.3311709"><ele>449.6</ele><time>2026-04-25T07:53:39.76Z</time></trkpt><trkpt lat="46.0236375" lon="10.3311107"><ele>449.2</ele><time>2026-04-25T07:53:40.762Z</time></trkpt><trkpt lat="46.0237485" lon="10.3310717"><ele>448.79999999999995</ele><time>2026-04-25T07:53:41.76Z</time></trkpt><trkpt lat="46.0238473" lon="10.3310651"><ele>448.4</ele><time>2026-04-25T07:53:42.761Z</time></trkpt><trkpt lat="46.0239387" lon="10.3310992"><ele>448.0</ele><time>2026-04-25T07:53:43.761Z</time></trkpt><trkpt lat="46.0240273" lon="10.3311641"><ele>448.0</ele><time>2026-04-25T07:53:44.756Z</time></trkpt><trkpt lat="46.024123" lon="10.3312542"><ele>448.0</ele><time>2026-04-25T07:53:45.756Z</time></trkpt><trkpt lat="46.0242218" lon="10.331361"><ele>448.0</ele><time>2026-04-25T07:53:46.76Z</time></trkpt><trkpt lat="46.0243179" lon="10.3314663"><ele>448.0</ele><time>2026-04-25T07:53:47.759Z</time></trkpt><trkpt lat="46.0244139" lon="10.3315628"><ele>445.2</ele><time>2026-04-25T07:53:48.761Z</time></trkpt><trkpt lat="46.0245068" lon="10.3316467"><ele>442.4</ele><time>2026-04-25T07:53:49.762Z</time></trkpt><trkpt lat="46.0245995" lon="10.331726"><ele>439.59999999999997</ele><time>2026-04-25T07:53:50.76Z</time></trkpt><trkpt lat="46.0246985" lon="10.3317919"><ele>436.79999999999995</ele><time>2026-04-25T07:53:51.765Z</time></trkpt><trkpt lat="46.0247973" lon="10.3318386"><ele>434.0</ele><time>2026-04-25T07:53:52.762Z</time></trkpt><trkpt lat="46.0248936" lon="10.331875"><ele>435.4</ele><time>2026-04-25T07:53:53.762Z</time></trkpt><trkpt lat="46.0249887" lon="10.3319092"><ele>436.79999999999995</ele><time>2026-04-25T07:53:54.76Z</time></trkpt><trkpt lat="46.0250809" lon="10.3319542"><ele>438.20000000000005</ele><time>2026-04-25T07:53:55.756Z</time></trkpt><trkpt lat="46.0251607" lon="10.332012"><ele>439.6</ele><time>2026-04-25T07:53:56.753Z</time></trkpt><trkpt lat="46.0252379" lon="10.3320662"><ele>441.0</ele><time>2026-04-25T07:53:57.76Z</time></trkpt><trkpt lat="46.0253182" lon="10.3321066"><ele>441.0</ele><time>2026-04-25T07:53:58.757Z</time></trkpt><trkpt lat="46.0253915" lon="10.3321317"><ele>441.0</ele><time>2026-04-25T07:53:59.763Z</time></trkpt><trkpt lat="46.025468" lon="10.3321385"><ele>441.0</ele><time>2026-04-25T07:54:00.758Z</time></trkpt><trkpt lat="46.0255623" lon="10.3321222"><ele>441.0</ele><time>2026-04-25T07:54:01.763Z</time></trkpt><trkpt lat="46.025682" lon="10.3320747"><ele>441.0</ele><time>2026-04-25T07:54:02.761Z</time></trkpt><trkpt lat="46.0258317" lon="10.3320021"><ele>443.66666666666663</ele><time>2026-04-25T07:54:03.763Z</time></trkpt><trkpt lat="46.0259923" lon="10.3319262"><ele>446.3333333333333</ele><time>2026-04-25T07:54:04.759Z</time></trkpt><trkpt lat="46.0261482" lon="10.3318588"><ele>449.0</ele><time>2026-04-25T07:54:05.762Z</time></trkpt><trkpt lat="46.0262852" lon="10.3318218"><ele>449.0</ele><time>2026-04-25T07:54:06.759Z</time></trkpt><trkpt lat="46.0263997" lon="10.3318283"><ele>449.0</ele><time>2026-04-25T07:54:07.765Z</time></trkpt><trkpt lat="46.0264914" lon="10.3318663"><ele>449.0</ele><time>2026-04-25T07:54:08.764Z</time></trkpt><trkpt lat="46.026562" lon="10.3319297"><ele>449.0</ele><time>2026-04-25T07:54:09.764Z</time></trkpt><trkpt lat="46.0266065" lon="10.3320064"><ele>449.0</ele><time>2026-04-25T07:54:10.761Z</time></trkpt><trkpt lat="46.0266588" lon="10.3321704"><ele>445.0</ele><time>2026-04-25T07:54:12.758Z</time></trkpt><trkpt lat="46.0266788" lon="10.3323427"><ele>441.0</ele><time>2026-04-25T07:54:14.756Z</time></trkpt><trkpt lat="46.026665" lon="10.3325062"><ele>437.0</ele><time>2026-04-25T07:54:16.758Z</time></trkpt><trkpt lat="46.0266385" lon="10.3326314"><ele>433.0</ele><time>2026-04-25T07:54:18.758Z</time></trkpt><trkpt lat="46.0266266" lon="10.3327722"><ele>429.0</ele><time>2026-04-25T07:54:20.759Z</time></trkpt><trkpt lat="46.02667" lon="10.3328867"><ele>429.0</ele><time>2026-04-25T07:54:22.761Z</time></trkpt><trkpt lat="46.0267351" lon="10.3329008"><ele>429.0</ele><time>2026-04-25T07:54:23.756Z</time></trkpt><trkpt lat="46.026815" lon="10.3328954"><ele>429.0</ele><time>2026-04-25T07:54:24.764Z</time></trkpt><trkpt lat="46.0269004" lon="10.3328778"><ele>429.0</ele><time>2026-04-25T07:54:25.758Z</time></trkpt><trkpt lat="46.0269844" lon="10.3328583"><ele>429.0</ele><time>2026-04-25T07:54:26.759Z</time></trkpt><trkpt lat="46.0270644" lon="10.3328391"><ele>429.0</ele><time>2026-04-25T07:54:27.76Z</time></trkpt><trkpt lat="46.0271482" lon="10.3328356"><ele>429.0</ele><time>2026-04-25T07:54:28.764Z</time></trkpt><trkpt lat="46.0272352" lon="10.3328638"><ele>429.0</ele><time>2026-04-25T07:54:29.761Z</time></trkpt><trkpt lat="46.0273269" lon="10.332922"><ele>429.0</ele><time>2026-04-25T07:54:30.76Z</time></trkpt><trkpt lat="46.0274034" lon="10.3330032"><ele>429.0</ele><time>2026-04-25T07:54:31.767Z</time></trkpt><trkpt lat="46.0274536" lon="10.3330974"><ele>429.0</ele><time>2026-04-25T07:54:32.764Z</time></trkpt><trkpt lat="46.0274806" lon="10.3332329"><ele>428.5</ele><time>2026-04-25T07:54:33.759Z</time></trkpt><trkpt lat="46.0274915" lon="10.333423"><ele>428.0</ele><time>2026-04-25T07:54:34.762Z</time></trkpt><trkpt lat="46.0274957" lon="10.3336199"><ele>427.5</ele><time>2026-04-25T07:54:35.759Z</time></trkpt><trkpt lat="46.0274919" lon="10.3338018"><ele>427.0</ele><time>2026-04-25T07:54:36.762Z</time></trkpt><trkpt lat="46.0274808" lon="10.3339836"><ele>427.0</ele><time>2026-04-25T07:54:37.761Z</time></trkpt><trkpt lat="46.0274818" lon="10.3341393"><ele>427.00000000000006</ele><time>2026-04-25T07:54:38.766Z</time></trkpt><trkpt lat="46.0274881" lon="10.334268"><ele>427.00000000000006</ele><time>2026-04-25T07:54:39.757Z</time></trkpt><trkpt lat="46.0274965" lon="10.3343929"><ele>427.0</ele><time>2026-04-25T07:54:41.757Z</time></trkpt><trkpt lat="46.0274896" lon="10.3345374"><ele>427.0</ele><time>2026-04-25T07:54:44.759Z</time></trkpt><trkpt lat="46.0275661" lon="10.3346407"><ele>427.0</ele><time>2026-04-25T07:54:46.761Z</time></trkpt><trkpt lat="46.0276511" lon="10.3347037"><ele>427.00000000000006</ele><time>2026-04-25T07:54:47.757Z</time></trkpt><trkpt lat="46.0277551" lon="10.3347725"><ele>427.00000000000006</ele><time>2026-04-25T07:54:48.76Z</time></trkpt><trkpt lat="46.027853" lon="10.3348466"><ele>427.0</ele><time>2026-04-25T07:54:49.755Z</time></trkpt><trkpt lat="46.0279384" lon="10.3349226"><ele>427.0</ele><time>2026-04-25T07:54:50.76Z</time></trkpt><trkpt lat="46.0280211" lon="10.3349756"><ele>427.40000000000003</ele><time>2026-04-25T07:54:51.758Z</time></trkpt><trkpt lat="46.0281146" lon="10.3350072"><ele>427.80000000000007</ele><time>2026-04-25T07:54:52.761Z</time></trkpt><trkpt lat="46.0282073" lon="10.3350438"><ele>428.2</ele><time>2026-04-25T07:54:53.759Z</time></trkpt><trkpt lat="46.0283056" lon="10.3350646"><ele>428.6</ele><time>2026-04-25T07:54:54.757Z</time></trkpt><trkpt lat="46.0283957" lon="10.3350903"><ele>429.0</ele><time>2026-04-25T07:54:55.762Z</time></trkpt><trkpt lat="46.0284661" lon="10.3351223"><ele>429.0</ele><time>2026-04-25T07:54:56.764Z</time></trkpt><trkpt lat="46.0285399" lon="10.3351662"><ele>429.0</ele><time>2026-04-25T07:54:58.76Z</time></trkpt><trkpt lat="46.0286567" lon="10.3351465"><ele>429.0</ele><time>2026-04-25T07:55:02.758Z</time></trkpt><trkpt lat="46.0287452" lon="10.3351373"><ele>429.0</ele><time>2026-04-25T07:55:03.76Z</time></trkpt><trkpt lat="46.0288488" lon="10.3351425"><ele>429.0</ele><time>2026-04-25T07:55:04.759Z</time></trkpt><trkpt lat="46.028943" lon="10.3351584"><ele>429.0</ele><time>2026-04-25T07:55:05.757Z</time></trkpt><trkpt lat="46.0290226" lon="10.3351804"><ele>429.0</ele><time>2026-04-25T07:55:06.759Z</time></trkpt><trkpt lat="46.0290845" lon="10.3351996"><ele>429.0</ele><time>2026-04-25T07:55:07.756Z</time></trkpt><trkpt lat="46.0291969" lon="10.335274"><ele>429.0</ele><time>2026-04-25T07:55:09.759Z</time></trkpt><trkpt lat="46.0293033" lon="10.3353409"><ele>429.0</ele><time>2026-04-25T07:55:11.759Z</time></trkpt><trkpt lat="46.0293231" lon="10.3352522"><ele>429.0</ele><time>2026-04-25T07:55:15.765Z</time></trkpt><trkpt lat="46.0292417" lon="10.3352615"><ele>429.0</ele><time>2026-04-25T08:04:55.76Z</time></trkpt><trkpt lat="46.0291498" lon="10.3351231"><ele>429.0</ele><time>2026-04-25T08:04:57.757Z</time></trkpt><trkpt lat="46.0291261" lon="10.3350021"><ele>429.0</ele><time>2026-04-25T08:04:58.765Z</time></trkpt><trkpt lat="46.0291318" lon="10.3348618"><ele>429.0</ele><time>2026-04-25T08:04:59.757Z</time></trkpt><trkpt lat="46.0291506" lon="10.3347205"><ele>429.0</ele><time>2026-04-25T08:05:00.754Z</time></trkpt><trkpt lat="46.0291812" lon="10.3345934"><ele>431.0</ele><time>2026-04-25T08:05:01.768Z</time></trkpt><trkpt lat="46.0292348" lon="10.3344943"><ele>433.0</ele><time>2026-04-25T08:05:02.761Z</time></trkpt><trkpt lat="46.0293197" lon="10.3344493"><ele>435.0</ele><time>2026-04-25T08:05:03.76Z</time></trkpt><trkpt lat="46.0294186" lon="10.3344521"><ele>437.0</ele><time>2026-04-25T08:05:04.757Z</time></trkpt><trkpt lat="46.0295334" lon="10.3344811"><ele>439.0</ele><time>2026-04-25T08:05:05.756Z</time></trkpt><trkpt lat="46.0296459" lon="10.3345142"><ele>439.0</ele><time>2026-04-25T08:05:06.754Z</time></trkpt><trkpt lat="46.0297539" lon="10.3345314"><ele>439.0</ele><time>2026-04-25T08:05:07.765Z</time></trkpt><trkpt lat="46.0298606" lon="10.3345372"><ele>439.0</ele><time>2026-04-25T08:05:08.758Z</time></trkpt><trkpt lat="46.0299601" lon="10.3345318"><ele>439.0</ele><time>2026-04-25T08:05:09.759Z</time></trkpt><trkpt lat="46.0300614" lon="10.3345104"><ele>439.0</ele><time>2026-04-25T08:05:10.755Z</time></trkpt><trkpt lat="46.0301555" lon="10.3344947"><ele>437.33333333333337</ele><time>2026-04-25T08:05:11.761Z</time></trkpt><trkpt lat="46.0302424" lon="10.3345009"><ele>435.6666666666667</ele><time>2026-04-25T08:05:12.756Z</time></trkpt><trkpt lat="46.0303245" lon="10.334532"><ele>434.0</ele><time>2026-04-25T08:05:13.76Z</time></trkpt><trkpt lat="46.030405" lon="10.3345728"><ele>432.33333333333337</ele><time>2026-04-25T08:05:14.756Z</time></trkpt><trkpt lat="46.0304829" lon="10.3346166"><ele>430.6666666666667</ele><time>2026-04-25T08:05:15.758Z</time></trkpt><trkpt lat="46.0305568" lon="10.3346689"><ele>429.0</ele><time>2026-04-25T08:05:16.754Z</time></trkpt><trkpt lat="46.0306364" lon="10.3347333"><ele>429.0</ele><time>2026-04-25T08:05:17.755Z</time></trkpt><trkpt lat="46.0307235" lon="10.3348049"><ele>429.0</ele><time>2026-04-25T08:05:18.755Z</time></trkpt><trkpt lat="46.0308104" lon="10.3348739"><ele>429.0</ele><time>2026-04-25T08:05:19.757Z</time></trkpt><trkpt lat="46.0308902" lon="10.3349348"><ele>429.0</ele><time>2026-04-25T08:05:20.759Z</time></trkpt><trkpt lat="46.0309574" lon="10.3349819"><ele>429.0</ele><time>2026-04-25T08:05:21.758Z</time></trkpt><trkpt lat="46.0310182" lon="10.3350107"><ele>429.0</ele><time>2026-04-25T08:05:22.756Z</time></trkpt><trkpt lat="46.0310835" lon="10.3350149"><ele>433.1666666666667</ele><time>2026-04-25T08:05:23.761Z</time></trkpt><trkpt lat="46.0311676" lon="10.335022"><ele>437.33333333333337</ele><time>2026-04-25T08:05:24.758Z</time></trkpt><trkpt lat="46.0312614" lon="10.3350363"><ele>441.5</ele><time>2026-04-25T08:05:25.762Z</time></trkpt><trkpt lat="46.0313485" lon="10.3350489"><ele>445.6666666666667</ele><time>2026-04-25T08:05:26.761Z</time></trkpt><trkpt lat="46.0314367" lon="10.3350634"><ele>449.83333333333337</ele><time>2026-04-25T08:05:27.766Z</time></trkpt><trkpt lat="46.0315282" lon="10.3350869"><ele>454.0</ele><time>2026-04-25T08:05:28.758Z</time></trkpt><trkpt lat="46.0316127" lon="10.3351141"><ele>461.33333333333337</ele><time>2026-04-25T08:05:29.757Z</time></trkpt><trkpt lat="46.0316927" lon="10.3351549"><ele>468.6666666666667</ele><time>2026-04-25T08:05:30.765Z</time></trkpt><trkpt lat="46.031768" lon="10.3352091"><ele>476.0</ele><time>2026-04-25T08:05:31.758Z</time></trkpt><trkpt lat="46.0318381" lon="10.335266"><ele>483.33333333333337</ele><time>2026-04-25T08:05:32.76Z</time></trkpt><trkpt lat="46.0319071" lon="10.3353163"><ele>490.6666666666667</ele><time>2026-04-25T08:05:33.759Z</time></trkpt><trkpt lat="46.0319782" lon="10.3353588"><ele>498.0</ele><time>2026-04-25T08:05:34.759Z</time></trkpt><trkpt lat="46.0320614" lon="10.3353942"><ele>498.0</ele><time>2026-04-25T08:05:35.762Z</time></trkpt><trkpt lat="46.0321437" lon="10.3354302"><ele>498.0</ele><time>2026-04-25T08:05:36.754Z</time></trkpt><trkpt lat="46.0322136" lon="10.3354622"><ele>498.0</ele><time>2026-04-25T08:05:37.753Z</time></trkpt><trkpt lat="46.0323222" lon="10.3354722"><ele>498.0</ele><time>2026-04-25T08:05:39.76Z</time></trkpt><trkpt lat="46.0324006" lon="10.3354689"><ele>498.0</ele><time>2026-04-25T08:05:41.76Z</time></trkpt><trkpt lat="46.0324867" lon="10.335491"><ele>498.0</ele><time>2026-04-25T08:05:43.756Z</time></trkpt><trkpt lat="46.0325789" lon="10.3355308"><ele>494.79999999999995</ele><time>2026-04-25T08:05:45.759Z</time></trkpt><trkpt lat="46.0326929" lon="10.3355591"><ele>491.59999999999997</ele><time>2026-04-25T08:05:47.754Z</time></trkpt><trkpt lat="46.032763" lon="10.3355679"><ele>488.40000000000003</ele><time>2026-04-25T08:05:48.758Z</time></trkpt><trkpt lat="46.0328404" lon="10.3355762"><ele>485.20000000000005</ele><time>2026-04-25T08:05:49.762Z</time></trkpt><trkpt lat="46.0329362" lon="10.3355857"><ele>482.0</ele><time>2026-04-25T08:05:50.761Z</time></trkpt><trkpt lat="46.0330467" lon="10.3356066"><ele>482.0</ele><time>2026-04-25T08:05:51.757Z</time></trkpt><trkpt lat="46.0331613" lon="10.3356354"><ele>482.00000000000006</ele><time>2026-04-25T08:05:52.761Z</time></trkpt><trkpt lat="46.0332578" lon="10.3356658"><ele>482.00000000000006</ele><time>2026-04-25T08:05:53.758Z</time></trkpt><trkpt lat="46.0333322" lon="10.335695"><ele>482.0</ele><time>2026-04-25T08:05:54.756Z</time></trkpt><trkpt lat="46.0334236" lon="10.3357221"><ele>482.0</ele><time>2026-04-25T08:05:56.754Z</time></trkpt><trkpt lat="46.0334896" lon="10.3357674"><ele>489.8</ele><time>2026-04-25T08:05:58.754Z</time></trkpt><trkpt lat="46.0335971" lon="10.3358113"><ele>497.6</ele><time>2026-04-25T08:06:00.755Z</time></trkpt><trkpt lat="46.0337294" lon="10.3358301"><ele>505.40000000000003</ele><time>2026-04-25T08:06:02.758Z</time></trkpt><trkpt lat="46.0338052" lon="10.3358429"><ele>513.2</ele><time>2026-04-25T08:06:03.762Z</time></trkpt><trkpt lat="46.0338782" lon="10.3358575"><ele>521.0</ele><time>2026-04-25T08:06:04.759Z</time></trkpt><trkpt lat="46.0339419" lon="10.3358767"><ele>521.0</ele><time>2026-04-25T08:06:05.759Z</time></trkpt><trkpt lat="46.0340029" lon="10.3359018"><ele>521.0</ele><time>2026-04-25T08:06:06.761Z</time></trkpt><trkpt lat="46.0341058" lon="10.3359588"><ele>521.0</ele><time>2026-04-25T08:06:08.758Z</time></trkpt><trkpt lat="46.0341946" lon="10.3359991"><ele>521.0</ele><time>2026-04-25T08:06:10.758Z</time></trkpt><trkpt lat="46.0342872" lon="10.3360271"><ele>521.0</ele><time>2026-04-25T08:06:12.757Z</time></trkpt><trkpt lat="46.0343989" lon="10.3360232"><ele>519.5</ele><time>2026-04-25T08:06:14.756Z</time></trkpt><trkpt lat="46.0344642" lon="10.3360449"><ele>518.0</ele><time>2026-04-25T08:06:15.755Z</time></trkpt><trkpt lat="46.0345262" lon="10.3360996"><ele>516.5</ele><time>2026-04-25T08:06:16.754Z</time></trkpt><trkpt lat="46.0345969" lon="10.3361768"><ele>515.0</ele><time>2026-04-25T08:06:17.762Z</time></trkpt><trkpt lat="46.0346635" lon="10.3362514"><ele>513.5</ele><time>2026-04-25T08:06:18.756Z</time></trkpt><trkpt lat="46.0347239" lon="10.336362"><ele>512.0</ele><time>2026-04-25T08:06:20.754Z</time></trkpt><trkpt lat="46.0347134" lon="10.3364543"><ele>511.99999999999994</ele><time>2026-04-25T08:06:22.754Z</time></trkpt><trkpt lat="46.034787" lon="10.3364387"><ele>512.0</ele><time>2026-04-25T08:06:38.752Z</time></trkpt><trkpt lat="46.0348583" lon="10.3364779"><ele>512.0</ele><time>2026-04-25T08:06:40.757Z</time></trkpt><trkpt lat="46.0349161" lon="10.3365196"><ele>512.0</ele><time>2026-04-25T08:06:42.765Z</time></trkpt><trkpt lat="46.0350201" lon="10.3365306"><ele>511.99999999999994</ele><time>2026-04-25T08:06:50.758Z</time></trkpt><trkpt lat="46.0351034" lon="10.336543"><ele>512.0</ele><time>2026-04-25T08:06:52.755Z</time></trkpt><trkpt lat="46.0351711" lon="10.3365612"><ele>521.0</ele><time>2026-04-25T08:06:54.756Z</time></trkpt><trkpt lat="46.0352502" lon="10.3366287"><ele>530.0</ele><time>2026-04-25T08:06:56.756Z</time></trkpt><trkpt lat="46.035336" lon="10.3367509"><ele>539.0</ele><time>2026-04-25T08:06:58.756Z</time></trkpt><trkpt lat="46.035396" lon="10.3368025"><ele>548.0</ele><time>2026-04-25T08:06:59.756Z</time></trkpt><trkpt lat="46.0354664" lon="10.3368373"><ele>557.0</ele><time>2026-04-25T08:07:00.757Z</time></trkpt><trkpt lat="46.0355436" lon="10.3368675"><ele>566.0</ele><time>2026-04-25T08:07:01.754Z</time></trkpt><trkpt lat="46.0356218" lon="10.3368915"><ele>566.0</ele><time>2026-04-25T08:07:02.758Z</time></trkpt><trkpt lat="46.0356999" lon="10.336911"><ele>566.0</ele><time>2026-04-25T08:07:03.753Z</time></trkpt><trkpt lat="46.0357751" lon="10.3369344"><ele>566.0</ele><time>2026-04-25T08:07:04.757Z</time></trkpt><trkpt lat="46.0358477" lon="10.3369566"><ele>566.0</ele><time>2026-04-25T08:07:05.756Z</time></trkpt><trkpt lat="46.0359172" lon="10.3369703"><ele>566.0</ele><time>2026-04-25T08:07:06.754Z</time></trkpt><trkpt lat="46.0359868" lon="10.3369755"><ele>566.0</ele><time>2026-04-25T08:07:07.757Z</time></trkpt><trkpt lat="46.0360562" lon="10.3369771"><ele>566.0</ele><time>2026-04-25T08:07:08.754Z</time></trkpt><trkpt lat="46.0361269" lon="10.3369736"><ele>572.5</ele><time>2026-04-25T08:07:09.753Z</time></trkpt><trkpt lat="46.0361945" lon="10.336966"><ele>579.0</ele><time>2026-04-25T08:07:10.756Z</time></trkpt><trkpt lat="46.0363144" lon="10.3369521"><ele>585.5</ele><time>2026-04-25T08:07:12.758Z</time></trkpt><trkpt lat="46.0364392" lon="10.3369497"><ele>592.0</ele><time>2026-04-25T08:07:14.754Z</time></trkpt><trkpt lat="46.0365056" lon="10.336954"><ele>598.5</ele><time>2026-04-25T08:07:15.756Z</time></trkpt><trkpt lat="46.0365718" lon="10.3369683"><ele>605.0</ele><time>2026-04-25T08:07:16.756Z</time></trkpt><trkpt lat="46.0366376" lon="10.3369924"><ele>608.5</ele><time>2026-04-25T08:07:17.757Z</time></trkpt><trkpt lat="46.0367054" lon="10.3370308"><ele>612.0</ele><time>2026-04-25T08:07:18.755Z</time></trkpt><trkpt lat="46.0367706" lon="10.3370738"><ele>615.5</ele><time>2026-04-25T08:07:19.754Z</time></trkpt><trkpt lat="46.0368339" lon="10.3371097"><ele>619.0</ele><time>2026-04-25T08:07:20.763Z</time></trkpt><trkpt lat="46.0369294" lon="10.3371336"><ele>622.5</ele><time>2026-04-25T08:07:22.756Z</time></trkpt><trkpt lat="46.037019" lon="10.3371456"><ele>626.0</ele><time>2026-04-25T08:07:26.754Z</time></trkpt><trkpt lat="46.0371313" lon="10.337215"><ele>622.0</ele><time>2026-04-25T08:07:28.756Z</time></trkpt><trkpt lat="46.0372673" lon="10.3372454"><ele>618.0</ele><time>2026-04-25T08:07:30.754Z</time></trkpt><trkpt lat="46.0373694" lon="10.3372477"><ele>614.0</ele><time>2026-04-25T08:07:31.754Z</time></trkpt><trkpt lat="46.0374871" lon="10.3372495"><ele>610.0</ele><time>2026-04-25T08:07:32.758Z</time></trkpt><trkpt lat="46.0375965" lon="10.3372635"><ele>610.0</ele><time>2026-04-25T08:07:33.757Z</time></trkpt><trkpt lat="46.0376892" lon="10.3372927"><ele>610.0</ele><time>2026-04-25T08:07:34.759Z</time></trkpt><trkpt lat="46.0377827" lon="10.3373539"><ele>610.0</ele><time>2026-04-25T08:07:35.756Z</time></trkpt><trkpt lat="46.0379026" lon="10.3374395"><ele>610.0</ele><time>2026-04-25T08:07:36.755Z</time></trkpt><trkpt lat="46.038033" lon="10.3375339"><ele>610.0</ele><time>2026-04-25T08:07:37.757Z</time></trkpt><trkpt lat="46.0381408" lon="10.3376388"><ele>610.0</ele><time>2026-04-25T08:07:38.757Z</time></trkpt><trkpt lat="46.03822" lon="10.3377306"><ele>610.0</ele><time>2026-04-25T08:07:39.756Z</time></trkpt><trkpt lat="46.0382565" lon="10.3378283"><ele>610.0</ele><time>2026-04-25T08:07:40.757Z</time></trkpt><trkpt lat="46.0382482" lon="10.3379319"><ele>610.0</ele><time>2026-04-25T08:07:41.753Z</time></trkpt><trkpt lat="46.0382093" lon="10.3380298"><ele>608.6666666666667</ele><time>2026-04-25T08:07:42.759Z</time></trkpt><trkpt lat="46.0381701" lon="10.3381133"><ele>607.3333333333334</ele><time>2026-04-25T08:07:43.76Z</time></trkpt><trkpt lat="46.0381384" lon="10.3381964"><ele>606.0</ele><time>2026-04-25T08:07:44.759Z</time></trkpt><trkpt lat="46.0381272" lon="10.338289"><ele>604.6666666666666</ele><time>2026-04-25T08:07:45.76Z</time></trkpt><trkpt lat="46.0381573" lon="10.3384468"><ele>603.3333333333333</ele><time>2026-04-25T08:07:47.761Z</time></trkpt><trkpt lat="46.0381637" lon="10.3385876"><ele>602.0</ele><time>2026-04-25T08:07:49.766Z</time></trkpt><trkpt lat="46.0381702" lon="10.3386976"><ele>602.0</ele><time>2026-04-25T08:07:51.756Z</time></trkpt><trkpt lat="46.0382513" lon="10.3387435"><ele>602.0</ele><time>2026-04-25T08:07:53.762Z</time></trkpt><trkpt lat="46.0383467" lon="10.3387934"><ele>602.0</ele><time>2026-04-25T08:07:55.758Z</time></trkpt><trkpt lat="46.0384206" lon="10.3388803"><ele>602.0</ele><time>2026-04-25T08:07:57.754Z</time></trkpt><trkpt lat="46.0384992" lon="10.3389684"><ele>602.0</ele><time>2026-04-25T08:07:59.752Z</time></trkpt><trkpt lat="46.0385503" lon="10.339022"><ele>602.0</ele><time>2026-04-25T08:08:00.761Z</time></trkpt><trkpt lat="46.0386058" lon="10.3390762"><ele>606.6</ele><time>2026-04-25T08:08:01.759Z</time></trkpt><trkpt lat="46.0387197" lon="10.3391514"><ele>611.2</ele><time>2026-04-25T08:08:03.759Z</time></trkpt><trkpt lat="46.0387903" lon="10.3391775"><ele>615.8</ele><time>2026-04-25T08:08:04.76Z</time></trkpt><trkpt lat="46.0388734" lon="10.3392028"><ele>620.4</ele><time>2026-04-25T08:08:05.757Z</time></trkpt><trkpt lat="46.0389659" lon="10.3392275"><ele>625.0</ele><time>2026-04-25T08:08:06.758Z</time></trkpt><trkpt lat="46.0390579" lon="10.3392585"><ele>625.6</ele><time>2026-04-25T08:08:07.756Z</time></trkpt><trkpt lat="46.0391464" lon="10.3392902"><ele>626.2</ele><time>2026-04-25T08:08:08.762Z</time></trkpt><trkpt lat="46.0392354" lon="10.3393037"><ele>626.8</ele><time>2026-04-25T08:08:09.756Z</time></trkpt><trkpt lat="46.0393236" lon="10.3392889"><ele>627.4</ele><time>2026-04-25T08:08:10.757Z</time></trkpt><trkpt lat="46.0394329" lon="10.3392478"><ele>628.0</ele><time>2026-04-25T08:08:11.758Z</time></trkpt><trkpt lat="46.0395468" lon="10.3391978"><ele>628.0</ele><time>2026-04-25T08:08:12.762Z</time></trkpt><trkpt lat="46.0396604" lon="10.3391532"><ele>628.0</ele><time>2026-04-25T08:08:13.769Z</time></trkpt><trkpt lat="46.0397599" lon="10.3391362"><ele>628.0</ele><time>2026-04-25T08:08:14.762Z</time></trkpt><trkpt lat="46.0398553" lon="10.3391566"><ele>628.0</ele><time>2026-04-25T08:08:15.758Z</time></trkpt><trkpt lat="46.0399478" lon="10.3392403"><ele>628.0</ele><time>2026-04-25T08:08:16.763Z</time></trkpt><trkpt lat="46.0400322" lon="10.3393439"><ele>627.8333333333334</ele><time>2026-04-25T08:08:17.758Z</time></trkpt><trkpt lat="46.0401063" lon="10.3394112"><ele>627.6666666666667</ele><time>2026-04-25T08:08:18.755Z</time></trkpt><trkpt lat="46.0401766" lon="10.3394499"><ele>627.5</ele><time>2026-04-25T08:08:19.769Z</time></trkpt><trkpt lat="46.0402665" lon="10.3394531"><ele>627.3333333333334</ele><time>2026-04-25T08:08:20.758Z</time></trkpt><trkpt lat="46.0403627" lon="10.3394399"><ele>627.1666666666666</ele><time>2026-04-25T08:08:21.761Z</time></trkpt><trkpt lat="46.040452" lon="10.3394254"><ele>627.0</ele><time>2026-04-25T08:08:22.759Z</time></trkpt><trkpt lat="46.0405228" lon="10.3394096"><ele>627.0</ele><time>2026-04-25T08:08:23.756Z</time></trkpt><trkpt lat="46.0406152" lon="10.3392886"><ele>627.0</ele><time>2026-04-25T08:08:25.753Z</time></trkpt><trkpt lat="46.0406295" lon="10.3391802"><ele>627.0</ele><time>2026-04-25T08:08:26.757Z</time></trkpt><trkpt lat="46.0406273" lon="10.3390325"><ele>627.0</ele><time>2026-04-25T08:08:27.753Z</time></trkpt><trkpt lat="46.0406206" lon="10.3388433"><ele>627.0</ele><time>2026-04-25T08:08:28.764Z</time></trkpt><trkpt lat="46.0406272" lon="10.3386552"><ele>629.75</ele><time>2026-04-25T08:08:29.756Z</time></trkpt><trkpt lat="46.040655" lon="10.3384678"><ele>632.5</ele><time>2026-04-25T08:08:30.754Z</time></trkpt><trkpt lat="46.0406929" lon="10.3383023"><ele>635.25</ele><time>2026-04-25T08:08:31.758Z</time></trkpt><trkpt lat="46.0407382" lon="10.3381605"><ele>638.0</ele><time>2026-04-25T08:08:32.757Z</time></trkpt><trkpt lat="46.040795" lon="10.3380383"><ele>639.5</ele><time>2026-04-25T08:08:33.754Z</time></trkpt><trkpt lat="46.0408581" lon="10.3379281"><ele>641.0</ele><time>2026-04-25T08:08:34.761Z</time></trkpt><trkpt lat="46.0409233" lon="10.33784"><ele>642.5</ele><time>2026-04-25T08:08:35.756Z</time></trkpt><trkpt lat="46.0409849" lon="10.3377686"><ele>644.0</ele><time>2026-04-25T08:08:36.758Z</time></trkpt><trkpt lat="46.0410575" lon="10.3377066"><ele>645.5</ele><time>2026-04-25T08:08:37.756Z</time></trkpt><trkpt lat="46.0411415" lon="10.337669"><ele>647.0</ele><time>2026-04-25T08:08:38.758Z</time></trkpt><trkpt lat="46.0412243" lon="10.3376569"><ele>647.0</ele><time>2026-04-25T08:08:39.752Z</time></trkpt><trkpt lat="46.0412978" lon="10.3376605"><ele>647.0</ele><time>2026-04-25T08:08:40.753Z</time></trkpt><trkpt lat="46.0413996" lon="10.3376729"><ele>647.0</ele><time>2026-04-25T08:08:42.758Z</time></trkpt><trkpt lat="46.0414953" lon="10.3376833"><ele>647.0</ele><time>2026-04-25T08:08:44.759Z</time></trkpt><trkpt lat="46.0416186" lon="10.3377342"><ele>647.0</ele><time>2026-04-25T08:08:46.757Z</time></trkpt><trkpt lat="46.0416775" lon="10.337781"><ele>647.1666666666666</ele><time>2026-04-25T08:08:47.759Z</time></trkpt><trkpt lat="46.0417464" lon="10.3378149"><ele>647.3333333333333</ele><time>2026-04-25T08:08:48.754Z</time></trkpt><trkpt lat="46.0418186" lon="10.337821"><ele>647.5</ele><time>2026-04-25T08:08:49.758Z</time></trkpt><trkpt lat="46.0418931" lon="10.3378208"><ele>647.6666666666666</ele><time>2026-04-25T08:08:50.757Z</time></trkpt><trkpt lat="46.0419588" lon="10.3378369"><ele>647.8333333333334</ele><time>2026-04-25T08:08:51.756Z</time></trkpt><trkpt lat="46.042062" lon="10.3379545"><ele>648.0</ele><time>2026-04-25T08:08:53.753Z</time></trkpt><trkpt lat="46.0421137" lon="10.3380396"><ele>647.5</ele><time>2026-04-25T08:08:54.753Z</time></trkpt><trkpt lat="46.0421714" lon="10.33813"><ele>647.0</ele><time>2026-04-25T08:08:55.754Z</time></trkpt><trkpt lat="46.0422301" lon="10.3382258"><ele>646.5</ele><time>2026-04-25T08:08:56.758Z</time></trkpt><trkpt lat="46.0422905" lon="10.3383186"><ele>646.0</ele><time>2026-04-25T08:08:57.755Z</time></trkpt><trkpt lat="46.0423539" lon="10.3383977"><ele>645.5</ele><time>2026-04-25T08:08:58.757Z</time></trkpt><trkpt lat="46.0424188" lon="10.3384601"><ele>645.0</ele><time>2026-04-25T08:08:59.756Z</time></trkpt><trkpt lat="46.0424886" lon="10.3385081"><ele>645.0</ele><time>2026-04-25T08:09:00.754Z</time></trkpt><trkpt lat="46.0425535" lon="10.3385596"><ele>645.0</ele><time>2026-04-25T08:09:01.756Z</time></trkpt><trkpt lat="46.0426144" lon="10.3386171"><ele>645.0</ele><time>2026-04-25T08:09:02.758Z</time></trkpt><trkpt lat="46.0426766" lon="10.3386659"><ele>645.0</ele><time>2026-04-25T08:09:03.763Z</time></trkpt><trkpt lat="46.0427414" lon="10.3387027"><ele>645.0</ele><time>2026-04-25T08:09:04.761Z</time></trkpt><trkpt lat="46.0428054" lon="10.3387371"><ele>645.0</ele><time>2026-04-25T08:09:05.754Z</time></trkpt><trkpt lat="46.0428736" lon="10.3387555"><ele>645.0</ele><time>2026-04-25T08:09:06.757Z</time></trkpt><trkpt lat="46.0429563" lon="10.3387689"><ele>645.0</ele><time>2026-04-25T08:09:07.762Z</time></trkpt><trkpt lat="46.0430566" lon="10.3387629"><ele>645.0</ele><time>2026-04-25T08:09:08.756Z</time></trkpt><trkpt lat="46.0431729" lon="10.33875"><ele>645.0</ele><time>2026-04-25T08:09:09.758Z</time></trkpt><trkpt lat="46.0432908" lon="10.3387518"><ele>645.0</ele><time>2026-04-25T08:09:10.756Z</time></trkpt><trkpt lat="46.0434008" lon="10.33877"><ele>645.0</ele><time>2026-04-25T08:09:11.756Z</time></trkpt><trkpt lat="46.0435056" lon="10.3387989"><ele>647.2</ele><time>2026-04-25T08:09:12.755Z</time></trkpt><trkpt lat="46.0436085" lon="10.3388235"><ele>649.4</ele><time>2026-04-25T08:09:13.757Z</time></trkpt><trkpt lat="46.0437048" lon="10.3388402"><ele>651.5999999999999</ele><time>2026-04-25T08:09:14.758Z</time></trkpt><trkpt lat="46.0438" lon="10.3388477"><ele>653.8</ele><time>2026-04-25T08:09:15.754Z</time></trkpt><trkpt lat="46.0438951" lon="10.3388457"><ele>656.0</ele><time>2026-04-25T08:09:16.76Z</time></trkpt><trkpt lat="46.0439809" lon="10.338837"><ele>656.0</ele><time>2026-04-25T08:09:17.76Z</time></trkpt><trkpt lat="46.0440512" lon="10.3388346"><ele>656.0</ele><time>2026-04-25T08:09:18.755Z</time></trkpt><trkpt lat="46.0441515" lon="10.3388316"><ele>656.0</ele><time>2026-04-25T08:09:20.757Z</time></trkpt><trkpt lat="46.0442284" lon="10.3387661"><ele>656.0</ele><time>2026-04-25T08:09:22.758Z</time></trkpt><trkpt lat="46.0443094" lon="10.3386617"><ele>656.0</ele><time>2026-04-25T08:09:24.765Z</time></trkpt><trkpt lat="46.0444315" lon="10.3386036"><ele>656.1666666666666</ele><time>2026-04-25T08:09:26.757Z</time></trkpt><trkpt lat="46.0445047" lon="10.3385976"><ele>656.3333333333333</ele><time>2026-04-25T08:09:27.755Z</time></trkpt><trkpt lat="46.0445729" lon="10.33861"><ele>656.5</ele><time>2026-04-25T08:09:28.759Z</time></trkpt><trkpt lat="46.044668" lon="10.3386641"><ele>656.6666666666666</ele><time>2026-04-25T08:09:30.756Z</time></trkpt><trkpt lat="46.0447644" lon="10.3387331"><ele>656.8333333333334</ele><time>2026-04-25T08:09:32.755Z</time></trkpt><trkpt lat="46.044825" lon="10.3387715"><ele>657.0</ele><time>2026-04-25T08:09:33.763Z</time></trkpt><trkpt lat="46.0448929" lon="10.3388001"><ele>658.8</ele><time>2026-04-25T08:09:34.758Z</time></trkpt><trkpt lat="46.0449665" lon="10.3388131"><ele>660.6</ele><time>2026-04-25T08:09:35.753Z</time></trkpt><trkpt lat="46.0450767" lon="10.3387997"><ele>662.4</ele><time>2026-04-25T08:09:37.759Z</time></trkpt><trkpt lat="46.0451683" lon="10.338782"><ele>664.1999999999999</ele><time>2026-04-25T08:09:39.758Z</time></trkpt><trkpt lat="46.0452569" lon="10.3387888"><ele>666.0</ele><time>2026-04-25T08:09:41.754Z</time></trkpt><trkpt lat="46.0453535" lon="10.3388031"><ele>666.0</ele><time>2026-04-25T08:09:43.753Z</time></trkpt><trkpt lat="46.0454277" lon="10.3388307"><ele>666.0</ele><time>2026-04-25T08:09:45.753Z</time></trkpt><trkpt lat="46.0455008" lon="10.338865"><ele>666.0</ele><time>2026-04-25T08:09:47.759Z</time></trkpt><trkpt lat="46.045556" lon="10.3389228"><ele>666.0</ele><time>2026-04-25T08:09:49.753Z</time></trkpt><trkpt lat="46.045648" lon="10.3389683"><ele>666.0</ele><time>2026-04-25T08:09:52.752Z</time></trkpt><trkpt lat="46.0457422" lon="10.3389812"><ele>666.0</ele><time>2026-04-25T08:09:54.757Z</time></trkpt><trkpt lat="46.0458396" lon="10.3389927"><ele>661.6666666666666</ele><time>2026-04-25T08:09:56.756Z</time></trkpt><trkpt lat="46.0459186" lon="10.3389985"><ele>657.3333333333334</ele><time>2026-04-25T08:09:58.754Z</time></trkpt><trkpt lat="46.0459974" lon="10.3390069"><ele>653.0</ele><time>2026-04-25T08:10:00.754Z</time></trkpt><trkpt lat="46.0460875" lon="10.339016"><ele>648.6666666666667</ele><time>2026-04-25T08:10:02.753Z</time></trkpt><trkpt lat="46.0461791" lon="10.3390269"><ele>644.3333333333334</ele><time>2026-04-25T08:10:04.75Z</time></trkpt><trkpt lat="46.0462655" lon="10.3390296"><ele>640.0</ele><time>2026-04-25T08:10:06.757Z</time></trkpt><trkpt lat="46.0463611" lon="10.3390158"><ele>640.0</ele><time>2026-04-25T08:10:08.752Z</time></trkpt><trkpt lat="46.046452" lon="10.3390036"><ele>640.0</ele><time>2026-04-25T08:10:10.752Z</time></trkpt><trkpt lat="46.0465228" lon="10.3390175"><ele>640.0</ele><time>2026-04-25T08:10:12.752Z</time></trkpt><trkpt lat="46.0466144" lon="10.339041"><ele>640.0</ele><time>2026-04-25T08:10:14.755Z</time></trkpt><trkpt lat="46.0467114" lon="10.3390829"><ele>640.0</ele><time>2026-04-25T08:10:16.754Z</time></trkpt><trkpt lat="46.0467882" lon="10.3391064"><ele>640.0</ele><time>2026-04-25T08:10:18.753Z</time></trkpt><trkpt lat="46.0468597" lon="10.3391082"><ele>643.1666666666667</ele><time>2026-04-25T08:10:20.755Z</time></trkpt><trkpt lat="46.046933" lon="10.3390913"><ele>646.3333333333334</ele><time>2026-04-25T08:10:22.754Z</time></trkpt><trkpt lat="46.0470145" lon="10.3390976"><ele>649.5</ele><time>2026-04-25T08:10:24.752Z</time></trkpt><trkpt lat="46.0470974" lon="10.3391008"><ele>652.6666666666666</ele><time>2026-04-25T08:10:26.755Z</time></trkpt><trkpt lat="46.0471749" lon="10.3390909"><ele>655.8333333333333</ele><time>2026-04-25T08:10:28.752Z</time></trkpt><trkpt lat="46.0472442" lon="10.3390773"><ele>659.0</ele><time>2026-04-25T08:10:30.752Z</time></trkpt><trkpt lat="46.0473204" lon="10.3390379"><ele>659.0</ele><time>2026-04-25T08:10:33.754Z</time></trkpt><trkpt lat="46.0473862" lon="10.3390177"><ele>659.0</ele><time>2026-04-25T08:10:35.762Z</time></trkpt><trkpt lat="46.0474826" lon="10.3389934"><ele>659.0</ele><time>2026-04-25T08:10:38.758Z</time></trkpt><trkpt lat="46.0475692" lon="10.3389762"><ele>659.0</ele><time>2026-04-25T08:10:40.754Z</time></trkpt><trkpt lat="46.0476647" lon="10.33897"><ele>659.0</ele><time>2026-04-25T08:10:42.758Z</time></trkpt><trkpt lat="46.0477575" lon="10.3389466"><ele>659.0</ele><time>2026-04-25T08:10:44.755Z</time></trkpt><trkpt lat="46.0478403" lon="10.3389164"><ele>661.8333333333333</ele><time>2026-04-25T08:10:46.753Z</time></trkpt><trkpt lat="46.0479211" lon="10.3388884"><ele>664.6666666666666</ele><time>2026-04-25T08:10:48.75Z</time></trkpt><trkpt lat="46.0480133" lon="10.3388806"><ele>667.5</ele><time>2026-04-25T08:10:50.755Z</time></trkpt><trkpt lat="46.0480839" lon="10.3388762"><ele>670.3333333333334</ele><time>2026-04-25T08:10:52.757Z</time></trkpt><trkpt lat="46.048158" lon="10.3388642"><ele>673.1666666666667</ele><time>2026-04-25T08:10:59.754Z</time></trkpt><trkpt lat="46.048237" lon="10.338832"><ele>676.0</ele><time>2026-04-25T08:11:01.753Z</time></trkpt><trkpt lat="46.048297" lon="10.3388009"><ele>682.4285714285714</ele><time>2026-04-25T08:11:03.753Z</time></trkpt><trkpt lat="46.0483501" lon="10.3387187"><ele>688.8571428571429</ele><time>2026-04-25T08:11:07.753Z</time></trkpt><trkpt lat="46.0484161" lon="10.3386962"><ele>695.2857142857142</ele><time>2026-04-25T08:11:19.754Z</time></trkpt><trkpt lat="46.0484956" lon="10.3386767"><ele>701.7142857142858</ele><time>2026-04-25T08:11:23.754Z</time></trkpt><trkpt lat="46.0485326" lon="10.3386014"><ele>708.1428571428571</ele><time>2026-04-25T08:16:16.757Z</time></trkpt><trkpt lat="46.0484669" lon="10.338559"><ele>714.5714285714286</ele><time>2026-04-25T08:16:21.757Z</time></trkpt><trkpt lat="46.0484139" lon="10.3384966"><ele>721.0</ele><time>2026-04-25T08:16:30.759Z</time></trkpt><trkpt lat="46.0483496" lon="10.3384519"><ele>721.0</ele><time>2026-04-25T08:17:22.755Z</time></trkpt><trkpt lat="46.0483993" lon="10.3383905"><ele>721.0</ele><time>2026-04-25T08:17:44.761Z</time></trkpt><trkpt lat="46.0484324" lon="10.3383127"><ele>721.0</ele><time>2026-04-25T08:18:19.758Z</time></trkpt><trkpt lat="46.0484782" lon="10.3382451"><ele>721.0</ele><time>2026-04-25T08:19:16.75Z</time></trkpt><trkpt lat="46.0484461" lon="10.338331"><ele>721.0</ele><time>2026-04-25T08:22:58.763Z</time></trkpt><trkpt lat="46.0484114" lon="10.3384106"><ele>721.0</ele><time>2026-04-25T08:23:17.761Z</time></trkpt><trkpt lat="46.0484723" lon="10.3384446"><ele>721.0</ele><time>2026-04-25T08:23:34.76Z</time></trkpt><trkpt lat="46.0485373" lon="10.3384724"><ele>721.0</ele><time>2026-04-25T08:23:42.751Z</time></trkpt><trkpt lat="46.0485433" lon="10.3385943"><ele>721.0</ele><time>2026-04-25T08:24:00.754Z</time></trkpt><trkpt lat="46.048485" lon="10.3386294"><ele>721.0</ele><time>2026-04-25T08:24:10.768Z</time></trkpt><trkpt lat="46.048447" lon="10.3387194"><ele>721.0</ele><time>2026-04-25T08:24:26.757Z</time></trkpt><trkpt lat="46.0483938" lon="10.338829"><ele>721.0</ele><time>2026-04-25T08:24:29.755Z</time></trkpt><trkpt lat="46.0483198" lon="10.3388641"><ele>721.0</ele><time>2026-04-25T08:24:31.763Z</time></trkpt><trkpt lat="46.0482257" lon="10.3388987"><ele>713.5</ele><time>2026-04-25T08:24:33.766Z</time></trkpt><trkpt lat="46.0481624" lon="10.3389089"><ele>706.0</ele><time>2026-04-25T08:24:34.756Z</time></trkpt><trkpt lat="46.0480989" lon="10.3389129"><ele>698.5</ele><time>2026-04-25T08:24:35.758Z</time></trkpt><trkpt lat="46.0479992" lon="10.3389196"><ele>691.0</ele><time>2026-04-25T08:24:37.757Z</time></trkpt><trkpt lat="46.0479112" lon="10.3389714"><ele>683.5</ele><time>2026-04-25T08:24:39.759Z</time></trkpt><trkpt lat="46.047798" lon="10.338981"><ele>676.0</ele><time>2026-04-25T08:24:41.76Z</time></trkpt><trkpt lat="46.0476677" lon="10.3389882"><ele>676.0</ele><time>2026-04-25T08:24:43.759Z</time></trkpt><trkpt lat="46.0476036" lon="10.3389996"><ele>676.0</ele><time>2026-04-25T08:24:44.752Z</time></trkpt><trkpt lat="46.0475209" lon="10.3390132"><ele>676.0</ele><time>2026-04-25T08:24:46.764Z</time></trkpt><trkpt lat="46.0474566" lon="10.3390414"><ele>676.0</ele><time>2026-04-25T08:24:49.765Z</time></trkpt><trkpt lat="46.0473879" lon="10.3390758"><ele>676.0</ele><time>2026-04-25T08:24:52.764Z</time></trkpt><trkpt lat="46.0472521" lon="10.3390993"><ele>676.0</ele><time>2026-04-25T08:24:55.759Z</time></trkpt><trkpt lat="46.0471807" lon="10.339094"><ele>673.1666666666667</ele><time>2026-04-25T08:24:58.752Z</time></trkpt><trkpt lat="46.0470976" lon="10.3391259"><ele>670.3333333333334</ele><time>2026-04-25T08:25:01.764Z</time></trkpt><trkpt lat="46.0470327" lon="10.3391231"><ele>667.5</ele><time>2026-04-25T08:25:04.766Z</time></trkpt><trkpt lat="46.0469688" lon="10.3391598"><ele>664.6666666666666</ele><time>2026-04-25T08:25:07.752Z</time></trkpt><trkpt lat="46.0468328" lon="10.3391633"><ele>661.8333333333333</ele><time>2026-04-25T08:25:10.757Z</time></trkpt><trkpt lat="46.0467696" lon="10.3391329"><ele>659.0</ele><time>2026-04-25T08:25:12.761Z</time></trkpt><trkpt lat="46.0466839" lon="10.3390911"><ele>655.8333333333333</ele><time>2026-04-25T08:25:15.752Z</time></trkpt><trkpt lat="46.0466167" lon="10.3390717"><ele>652.6666666666666</ele><time>2026-04-25T08:25:17.753Z</time></trkpt><trkpt lat="46.0465521" lon="10.3390624"><ele>649.5</ele><time>2026-04-25T08:25:19.76Z</time></trkpt><trkpt lat="46.0464745" lon="10.3390756"><ele>646.3333333333334</ele><time>2026-04-25T08:25:21.757Z</time></trkpt><trkpt lat="46.0463751" lon="10.3390788"><ele>643.1666666666667</ele><time>2026-04-25T08:25:23.753Z</time></trkpt><trkpt lat="46.0462746" lon="10.3390805"><ele>640.0</ele><time>2026-04-25T08:25:25.763Z</time></trkpt><trkpt lat="46.0461681" lon="10.3390656"><ele>640.0</ele><time>2026-04-25T08:25:27.762Z</time></trkpt><trkpt lat="46.046079" lon="10.339067"><ele>640.0</ele><time>2026-04-25T08:25:29.766Z</time></trkpt><trkpt lat="46.0460096" lon="10.339052"><ele>640.0</ele><time>2026-04-25T08:25:31.748Z</time></trkpt><trkpt lat="46.0459411" lon="10.339043"><ele>640.0</ele><time>2026-04-25T08:25:34.755Z</time></trkpt><trkpt lat="46.0458612" lon="10.3390184"><ele>640.0</ele><time>2026-04-25T08:25:43.757Z</time></trkpt><trkpt lat="46.0457945" lon="10.3390131"><ele>640.0</ele><time>2026-04-25T08:25:45.759Z</time></trkpt><trkpt lat="46.0457108" lon="10.3390057"><ele>637.7142857142857</ele><time>2026-04-25T08:25:47.753Z</time></trkpt><trkpt lat="46.0456428" lon="10.3389937"><ele>635.4285714285714</ele><time>2026-04-25T08:25:49.756Z</time></trkpt><trkpt lat="46.0455811" lon="10.3389363"><ele>633.1428571428571</ele><time>2026-04-25T08:25:51.76Z</time></trkpt><trkpt lat="46.045533" lon="10.338867"><ele>630.8571428571429</ele><time>2026-04-25T08:25:53.755Z</time></trkpt><trkpt lat="46.045472" lon="10.3388366"><ele>628.5714285714286</ele><time>2026-04-25T08:25:55.755Z</time></trkpt><trkpt lat="46.0454079" lon="10.3388097"><ele>626.2857142857143</ele><time>2026-04-25T08:25:57.751Z</time></trkpt><trkpt lat="46.0453272" lon="10.3388029"><ele>624.0</ele><time>2026-04-25T08:25:59.755Z</time></trkpt><trkpt lat="46.0452615" lon="10.338793"><ele>629.5</ele><time>2026-04-25T08:26:01.76Z</time></trkpt><trkpt lat="46.0451878" lon="10.3387721"><ele>635.0</ele><time>2026-04-25T08:26:15.75Z</time></trkpt><trkpt lat="46.0450834" lon="10.3387911"><ele>640.5</ele><time>2026-04-25T08:26:17.749Z</time></trkpt><trkpt lat="46.0449599" lon="10.3388271"><ele>646.0</ele><time>2026-04-25T08:26:19.758Z</time></trkpt><trkpt lat="46.0448933" lon="10.3388186"><ele>651.5</ele><time>2026-04-25T08:26:20.757Z</time></trkpt><trkpt lat="46.0448234" lon="10.3387829"><ele>657.0</ele><time>2026-04-25T08:26:21.755Z</time></trkpt><trkpt lat="46.0447545" lon="10.3387329"><ele>657.0</ele><time>2026-04-25T08:26:22.757Z</time></trkpt><trkpt lat="46.0446886" lon="10.3386904"><ele>657.0</ele><time>2026-04-25T08:26:23.748Z</time></trkpt><trkpt lat="46.0446301" lon="10.3386543"><ele>657.0</ele><time>2026-04-25T08:26:24.755Z</time></trkpt><trkpt lat="46.0445235" lon="10.3386204"><ele>657.0</ele><time>2026-04-25T08:26:26.755Z</time></trkpt><trkpt lat="46.0444026" lon="10.3386565"><ele>657.0</ele><time>2026-04-25T08:26:28.753Z</time></trkpt><trkpt lat="46.044298" lon="10.3386958"><ele>657.0</ele><time>2026-04-25T08:26:30.753Z</time></trkpt><trkpt lat="46.0442477" lon="10.3387547"><ele>657.0</ele><time>2026-04-25T08:26:32.751Z</time></trkpt><trkpt lat="46.0441915" lon="10.3387971"><ele>657.0</ele><time>2026-04-25T08:26:59.758Z</time></trkpt><trkpt lat="46.0441099" lon="10.3388587"><ele>657.0</ele><time>2026-04-25T08:27:01.759Z</time></trkpt><trkpt lat="46.0439861" lon="10.3388715"><ele>657.0</ele><time>2026-04-25T08:27:03.754Z</time></trkpt><trkpt lat="46.0439218" lon="10.3388731"><ele>657.0</ele><time>2026-04-25T08:27:04.756Z</time></trkpt><trkpt lat="46.0438534" lon="10.3388746"><ele>656.8</ele><time>2026-04-25T08:27:05.756Z</time></trkpt><trkpt lat="46.0437703" lon="10.3388864"><ele>656.6</ele><time>2026-04-25T08:27:06.747Z</time></trkpt><trkpt lat="46.043682" lon="10.3389014"><ele>656.4</ele><time>2026-04-25T08:27:07.757Z</time></trkpt><trkpt lat="46.043583" lon="10.3388919"><ele>656.1999999999999</ele><time>2026-04-25T08:27:08.754Z</time></trkpt><trkpt lat="46.0434787" lon="10.3388694"><ele>656.0</ele><time>2026-04-25T08:27:09.757Z</time></trkpt><trkpt lat="46.0433778" lon="10.3388489"><ele>654.1666666666666</ele><time>2026-04-25T08:27:10.757Z</time></trkpt><trkpt lat="46.04328" lon="10.3388268"><ele>652.3333333333333</ele><time>2026-04-25T08:27:11.757Z</time></trkpt><trkpt lat="46.0431875" lon="10.3388167"><ele>650.5</ele><time>2026-04-25T08:27:12.757Z</time></trkpt><trkpt lat="46.0430978" lon="10.3388222"><ele>648.6666666666666</ele><time>2026-04-25T08:27:13.753Z</time></trkpt><trkpt lat="46.0430141" lon="10.3388372"><ele>646.8333333333334</ele><time>2026-04-25T08:27:14.748Z</time></trkpt><trkpt lat="46.0429339" lon="10.3388494"><ele>645.0</ele><time>2026-04-25T08:27:15.757Z</time></trkpt><trkpt lat="46.0428485" lon="10.3388362"><ele>645.0</ele><time>2026-04-25T08:27:16.751Z</time></trkpt><trkpt lat="46.0427641" lon="10.3388011"><ele>645.0</ele><time>2026-04-25T08:27:17.757Z</time></trkpt><trkpt lat="46.0426883" lon="10.3387486"><ele>645.0</ele><time>2026-04-25T08:27:18.755Z</time></trkpt><trkpt lat="46.0426265" lon="10.3386922"><ele>645.0</ele><time>2026-04-25T08:27:19.756Z</time></trkpt><trkpt lat="46.0425718" lon="10.3386355"><ele>645.0</ele><time>2026-04-25T08:27:20.754Z</time></trkpt><trkpt lat="46.0425147" lon="10.3385746"><ele>645.0</ele><time>2026-04-25T08:27:21.756Z</time></trkpt><trkpt lat="46.0424503" lon="10.3385138"><ele>640.0</ele><time>2026-04-25T08:27:22.757Z</time></trkpt><trkpt lat="46.0423815" lon="10.3384471"><ele>635.0</ele><time>2026-04-25T08:27:23.759Z</time></trkpt><trkpt lat="46.0423097" lon="10.3383669"><ele>630.0</ele><time>2026-04-25T08:27:24.757Z</time></trkpt><trkpt lat="46.0422421" lon="10.3382804"><ele>625.0</ele><time>2026-04-25T08:27:25.749Z</time></trkpt><trkpt lat="46.0421736" lon="10.3381849"><ele>620.0</ele><time>2026-04-25T08:27:26.757Z</time></trkpt><trkpt lat="46.0421125" lon="10.3380889"><ele>624.6666666666666</ele><time>2026-04-25T08:27:27.756Z</time></trkpt><trkpt lat="46.0420532" lon="10.3379979"><ele>629.3333333333333</ele><time>2026-04-25T08:27:28.751Z</time></trkpt><trkpt lat="46.0420076" lon="10.3379213"><ele>634.0</ele><time>2026-04-25T08:27:29.753Z</time></trkpt><trkpt lat="46.0419644" lon="10.337855"><ele>638.6666666666666</ele><time>2026-04-25T08:27:30.755Z</time></trkpt><trkpt lat="46.0418813" lon="10.3377921"><ele>643.3333333333334</ele><time>2026-04-25T08:27:32.757Z</time></trkpt><trkpt lat="46.0417757" lon="10.3378124"><ele>648.0</ele><time>2026-04-25T08:27:34.753Z</time></trkpt><trkpt lat="46.0416674" lon="10.3377993"><ele>647.8</ele><time>2026-04-25T08:27:36.76Z</time></trkpt><trkpt lat="46.0415863" lon="10.3377274"><ele>647.5999999999999</ele><time>2026-04-25T08:27:38.761Z</time></trkpt><trkpt lat="46.0414909" lon="10.3376819"><ele>647.4000000000001</ele><time>2026-04-25T08:27:40.76Z</time></trkpt><trkpt lat="46.0414103" lon="10.3376701"><ele>647.2</ele><time>2026-04-25T08:27:42.761Z</time></trkpt><trkpt lat="46.0413232" lon="10.3376153"><ele>647.0</ele><time>2026-04-25T08:27:52.755Z</time></trkpt><trkpt lat="46.0412205" lon="10.3375719"><ele>647.0</ele><time>2026-04-25T08:27:54.754Z</time></trkpt><trkpt lat="46.0411095" lon="10.3375295"><ele>647.0</ele><time>2026-04-25T08:27:56.757Z</time></trkpt><trkpt lat="46.0410468" lon="10.3375168"><ele>647.0</ele><time>2026-04-25T08:27:57.749Z</time></trkpt><trkpt lat="46.0409797" lon="10.3375079"><ele>647.0</ele><time>2026-04-25T08:27:58.752Z</time></trkpt><trkpt lat="46.0409081" lon="10.3375161"><ele>647.0</ele><time>2026-04-25T08:27:59.754Z</time></trkpt><trkpt lat="46.0408328" lon="10.3375422"><ele>647.0</ele><time>2026-04-25T08:28:00.757Z</time></trkpt><trkpt lat="46.0407621" lon="10.3375817"><ele>648.1666666666666</ele><time>2026-04-25T08:28:01.753Z</time></trkpt><trkpt lat="46.0406976" lon="10.3376178"><ele>649.3333333333333</ele><time>2026-04-25T08:28:02.75Z</time></trkpt><trkpt lat="46.0406307" lon="10.3376478"><ele>650.5</ele><time>2026-04-25T08:28:03.755Z</time></trkpt><trkpt lat="46.0405682" lon="10.3376686"><ele>651.6666666666666</ele><time>2026-04-25T08:28:04.75Z</time></trkpt><trkpt lat="46.0404587" lon="10.3376935"><ele>652.8333333333334</ele><time>2026-04-25T08:28:06.756Z</time></trkpt><trkpt lat="46.0403422" lon="10.3376735"><ele>654.0</ele><time>2026-04-25T08:28:08.753Z</time></trkpt><trkpt lat="46.0402686" lon="10.337659"><ele>654.0</ele><time>2026-04-25T08:28:09.755Z</time></trkpt><trkpt lat="46.0401911" lon="10.3376524"><ele>654.0</ele><time>2026-04-25T08:28:10.755Z</time></trkpt><trkpt lat="46.040124" lon="10.3376547"><ele>654.0</ele><time>2026-04-25T08:28:11.754Z</time></trkpt><trkpt lat="46.0400175" lon="10.3376918"><ele>654.0</ele><time>2026-04-25T08:28:13.758Z</time></trkpt><trkpt lat="46.0399226" lon="10.3376817"><ele>654.0</ele><time>2026-04-25T08:28:15.756Z</time></trkpt><trkpt lat="46.0398133" lon="10.337609"><ele>653.1666666666666</ele><time>2026-04-25T08:28:17.757Z</time></trkpt><trkpt lat="46.0397572" lon="10.3375631"><ele>652.3333333333334</ele><time>2026-04-25T08:28:18.758Z</time></trkpt><trkpt lat="46.0396899" lon="10.3375256"><ele>651.5</ele><time>2026-04-25T08:28:19.751Z</time></trkpt><trkpt lat="46.0396271" lon="10.3375066"><ele>650.6666666666667</ele><time>2026-04-25T08:28:20.749Z</time></trkpt><trkpt lat="46.0395707" lon="10.3374627"><ele>649.8333333333334</ele><time>2026-04-25T08:28:22.752Z</time></trkpt><trkpt lat="46.0396554" lon="10.3374349"><ele>649.0</ele><time>2026-04-25T08:28:25.757Z</time></trkpt><trkpt lat="46.0397674" lon="10.337432"><ele>649.0</ele><time>2026-04-25T08:28:27.758Z</time></trkpt><trkpt lat="46.0398696" lon="10.3373963"><ele>649.0</ele><time>2026-04-25T08:28:29.757Z</time></trkpt><trkpt lat="46.0399814" lon="10.3372875"><ele>649.0</ele><time>2026-04-25T08:28:31.754Z</time></trkpt><trkpt lat="46.0400382" lon="10.3372216"><ele>649.0</ele><time>2026-04-25T08:28:32.754Z</time></trkpt><trkpt lat="46.0400971" lon="10.337154"><ele>649.0</ele><time>2026-04-25T08:28:33.757Z</time></trkpt><trkpt lat="46.0401645" lon="10.3370887"><ele>656.8000000000001</ele><time>2026-04-25T08:28:34.757Z</time></trkpt><trkpt lat="46.04024" lon="10.3370295"><ele>664.6</ele><time>2026-04-25T08:28:35.757Z</time></trkpt><trkpt lat="46.0403191" lon="10.3369823"><ele>672.4</ele><time>2026-04-25T08:28:36.753Z</time></trkpt><trkpt lat="46.0404094" lon="10.3369338"><ele>680.2</ele><time>2026-04-25T08:28:37.755Z</time></trkpt><trkpt lat="46.0405088" lon="10.3368774"><ele>688.0</ele><time>2026-04-25T08:28:38.759Z</time></trkpt><trkpt lat="46.0406188" lon="10.3368021"><ele>688.0</ele><time>2026-04-25T08:28:39.754Z</time></trkpt><trkpt lat="46.0407285" lon="10.3367182"><ele>688.0</ele><time>2026-04-25T08:28:40.756Z</time></trkpt><trkpt lat="46.0408237" lon="10.3366501"><ele>688.0</ele><time>2026-04-25T08:28:41.758Z</time></trkpt><trkpt lat="46.0409175" lon="10.3366031"><ele>688.0</ele><time>2026-04-25T08:28:42.756Z</time></trkpt><trkpt lat="46.0410079" lon="10.3365745"><ele>688.0</ele><time>2026-04-25T08:28:43.757Z</time></trkpt><trkpt lat="46.0410836" lon="10.3365592"><ele>688.5</ele><time>2026-04-25T08:28:44.758Z</time></trkpt><trkpt lat="46.0411991" lon="10.3365456"><ele>689.0</ele><time>2026-04-25T08:28:46.754Z</time></trkpt><trkpt lat="46.0412908" lon="10.3365194"><ele>689.5</ele><time>2026-04-25T08:28:48.753Z</time></trkpt><trkpt lat="46.0412748" lon="10.3364291"><ele>690.0</ele><time>2026-04-25T08:28:54.755Z</time></trkpt><trkpt lat="46.0413434" lon="10.3363932"><ele>690.5</ele><time>2026-04-25T08:28:56.749Z</time></trkpt><trkpt lat="46.0414365" lon="10.3363669"><ele>691.0</ele><time>2026-04-25T08:28:58.753Z</time></trkpt><trkpt lat="46.0415064" lon="10.3363564"><ele>692.8333333333334</ele><time>2026-04-25T08:29:00.749Z</time></trkpt><trkpt lat="46.0415719" lon="10.3363762"><ele>694.6666666666667</ele><time>2026-04-25T08:29:16.748Z</time></trkpt><trkpt lat="46.041638" lon="10.3363839"><ele>696.5</ele><time>2026-04-25T08:29:19.752Z</time></trkpt><trkpt lat="46.0417434" lon="10.3363691"><ele>698.3333333333334</ele><time>2026-04-25T08:29:22.75Z</time></trkpt><trkpt lat="46.0418435" lon="10.3363861"><ele>700.1666666666666</ele><time>2026-04-25T08:29:24.752Z</time></trkpt><trkpt lat="46.0419424" lon="10.336424"><ele>702.0</ele><time>2026-04-25T08:29:26.748Z</time></trkpt><trkpt lat="46.0420271" lon="10.336451"><ele>702.0</ele><time>2026-04-25T08:29:28.752Z</time></trkpt><trkpt lat="46.0420923" lon="10.3364443"><ele>702.0</ele><time>2026-04-25T08:29:30.755Z</time></trkpt><trkpt lat="46.0421534" lon="10.3364695"><ele>702.0</ele><time>2026-04-25T08:29:38.751Z</time></trkpt><trkpt lat="46.0422036" lon="10.3365336"><ele>702.0</ele><time>2026-04-25T08:39:25.754Z</time></trkpt><trkpt lat="46.0422794" lon="10.3365744"><ele>702.0</ele><time>2026-04-25T08:39:35.754Z</time></trkpt><trkpt lat="46.0423602" lon="10.3366004"><ele>702.0</ele><time>2026-04-25T08:39:37.752Z</time></trkpt><trkpt lat="46.0424857" lon="10.336613"><ele>706.1666666666666</ele><time>2026-04-25T08:39:39.754Z</time></trkpt><trkpt lat="46.0425565" lon="10.3366355"><ele>710.3333333333334</ele><time>2026-04-25T08:39:40.751Z</time></trkpt><trkpt lat="46.0426245" lon="10.3366527"><ele>714.5</ele><time>2026-04-25T08:39:41.756Z</time></trkpt><trkpt lat="46.0426904" lon="10.3366705"><ele>718.6666666666667</ele><time>2026-04-25T08:39:42.755Z</time></trkpt><trkpt lat="46.0427529" lon="10.3366858"><ele>722.8333333333334</ele><time>2026-04-25T08:39:43.754Z</time></trkpt><trkpt lat="46.04288" lon="10.3366991"><ele>727.0</ele><time>2026-04-25T08:39:45.752Z</time></trkpt><trkpt lat="46.0429429" lon="10.3367063"><ele>727.0</ele><time>2026-04-25T08:39:46.748Z</time></trkpt><trkpt lat="46.0430556" lon="10.3367025"><ele>727.0</ele><time>2026-04-25T08:39:48.752Z</time></trkpt><trkpt lat="46.0431608" lon="10.3366741"><ele>727.0</ele><time>2026-04-25T08:39:50.757Z</time></trkpt><trkpt lat="46.0432262" lon="10.3366898"><ele>727.0</ele><time>2026-04-25T08:39:51.757Z</time></trkpt><trkpt lat="46.0433115" lon="10.3367142"><ele>727.0</ele><time>2026-04-25T08:39:52.753Z</time></trkpt><trkpt lat="46.0433968" lon="10.336728"><ele>728.5</ele><time>2026-04-25T08:39:53.753Z</time></trkpt><trkpt lat="46.0434705" lon="10.3367351"><ele>730.0</ele><time>2026-04-25T08:39:54.753Z</time></trkpt><trkpt lat="46.0435335" lon="10.3367431"><ele>731.5</ele><time>2026-04-25T08:39:55.754Z</time></trkpt><trkpt lat="46.0435993" lon="10.3367354"><ele>733.0</ele><time>2026-04-25T08:39:56.76Z</time></trkpt><trkpt lat="46.0436856" lon="10.3367293"><ele>734.5</ele><time>2026-04-25T08:39:57.761Z</time></trkpt><trkpt lat="46.0437808" lon="10.3367389"><ele>736.0</ele><time>2026-04-25T08:39:58.756Z</time></trkpt><trkpt lat="46.0438851" lon="10.3367435"><ele>736.0</ele><time>2026-04-25T08:39:59.756Z</time></trkpt><trkpt lat="46.0440108" lon="10.3367513"><ele>736.0</ele><time>2026-04-25T08:40:00.756Z</time></trkpt><trkpt lat="46.0441396" lon="10.3367683"><ele>736.0</ele><time>2026-04-25T08:40:01.761Z</time></trkpt><trkpt lat="46.0442486" lon="10.3367862"><ele>736.0</ele><time>2026-04-25T08:40:02.763Z</time></trkpt><trkpt lat="46.0443281" lon="10.3368055"><ele>736.0</ele><time>2026-04-25T08:40:03.757Z</time></trkpt><trkpt lat="46.0444138" lon="10.3368431"><ele>738.0</ele><time>2026-04-25T08:40:05.749Z</time></trkpt><trkpt lat="46.0444748" lon="10.3368984"><ele>740.0</ele><time>2026-04-25T08:40:07.755Z</time></trkpt><trkpt lat="46.0445359" lon="10.3369392"><ele>742.0</ele><time>2026-04-25T08:40:08.756Z</time></trkpt><trkpt lat="46.0446197" lon="10.3369751"><ele>744.0</ele><time>2026-04-25T08:40:09.754Z</time></trkpt><trkpt lat="46.0447104" lon="10.3370074"><ele>746.0</ele><time>2026-04-25T08:40:10.751Z</time></trkpt><trkpt lat="46.0447983" lon="10.3370273"><ele>748.0</ele><time>2026-04-25T08:40:11.76Z</time></trkpt><trkpt lat="46.0448785" lon="10.3370417"><ele>748.0</ele><time>2026-04-25T08:40:12.759Z</time></trkpt><trkpt lat="46.0449483" lon="10.3370487"><ele>748.0</ele><time>2026-04-25T08:40:13.761Z</time></trkpt><trkpt lat="46.0450142" lon="10.3370469"><ele>748.0</ele><time>2026-04-25T08:40:14.762Z</time></trkpt><trkpt lat="46.0450791" lon="10.3370286"><ele>748.0</ele><time>2026-04-25T08:40:15.755Z</time></trkpt><trkpt lat="46.0451431" lon="10.3369903"><ele>748.0</ele><time>2026-04-25T08:40:16.76Z</time></trkpt><trkpt lat="46.0452081" lon="10.3369411"><ele>748.0</ele><time>2026-04-25T08:40:17.766Z</time></trkpt><trkpt lat="46.0452657" lon="10.336903"><ele>748.0</ele><time>2026-04-25T08:40:18.756Z</time></trkpt><trkpt lat="46.0453898" lon="10.3369054"><ele>748.0</ele><time>2026-04-25T08:40:20.759Z</time></trkpt><trkpt lat="46.0454668" lon="10.3369529"><ele>748.0</ele><time>2026-04-25T08:40:21.756Z</time></trkpt><trkpt lat="46.0455511" lon="10.3370237"><ele>748.0</ele><time>2026-04-25T08:40:22.752Z</time></trkpt><trkpt lat="46.0456302" lon="10.3370997"><ele>748.0</ele><time>2026-04-25T08:40:23.754Z</time></trkpt><trkpt lat="46.0457004" lon="10.3371704"><ele>748.0</ele><time>2026-04-25T08:40:24.753Z</time></trkpt><trkpt lat="46.0457565" lon="10.3372289"><ele>748.0</ele><time>2026-04-25T08:40:25.755Z</time></trkpt><trkpt lat="46.0458084" lon="10.3373392"><ele>745.3333333333334</ele><time>2026-04-25T08:40:27.753Z</time></trkpt><trkpt lat="46.0458147" lon="10.3374325"><ele>742.6666666666667</ele><time>2026-04-25T08:40:30.749Z</time></trkpt><trkpt lat="46.0458457" lon="10.3375492"><ele>740.0</ele><time>2026-04-25T08:40:41.758Z</time></trkpt><trkpt lat="46.0458856" lon="10.3376586"><ele>737.3333333333334</ele><time>2026-04-25T08:40:49.749Z</time></trkpt><trkpt lat="46.0459456" lon="10.337725"><ele>734.6666666666666</ele><time>2026-04-25T08:40:53.749Z</time></trkpt><trkpt lat="46.0460009" lon="10.3377824"><ele>732.0</ele><time>2026-04-25T08:40:55.755Z</time></trkpt><trkpt lat="46.0460665" lon="10.3378406"><ele>732.0</ele><time>2026-04-25T08:40:57.758Z</time></trkpt><trkpt lat="46.0461237" lon="10.3379026"><ele>732.0</ele><time>2026-04-25T08:40:59.753Z</time></trkpt><trkpt lat="46.0461794" lon="10.3379487"><ele>732.0</ele><time>2026-04-25T08:41:01.752Z</time></trkpt><trkpt lat="46.0462525" lon="10.3379669"><ele>732.0</ele><time>2026-04-25T08:41:04.744Z</time></trkpt><trkpt lat="46.0463331" lon="10.3379445"><ele>732.0</ele><time>2026-04-25T08:41:09.756Z</time></trkpt><trkpt lat="46.0464117" lon="10.3379829"><ele>732.0</ele><time>2026-04-25T08:41:14.751Z</time></trkpt><trkpt lat="46.0464667" lon="10.3380341"><ele>732.0</ele><time>2026-04-25T08:41:22.759Z</time></trkpt><trkpt lat="46.0465309" lon="10.3380592"><ele>736.5</ele><time>2026-04-25T08:41:31.767Z</time></trkpt><trkpt lat="46.0466017" lon="10.338068"><ele>741.0</ele><time>2026-04-25T08:41:35.756Z</time></trkpt><trkpt lat="46.0466669" lon="10.3379985"><ele>745.5</ele><time>2026-04-25T08:48:42.751Z</time></trkpt><trkpt lat="46.0467429" lon="10.3379395"><ele>750.0</ele><time>2026-04-25T08:48:45.745Z</time></trkpt><trkpt lat="46.0468295" lon="10.3379389"><ele>754.5</ele><time>2026-04-25T08:48:48.753Z</time></trkpt><trkpt lat="46.0468971" lon="10.3379428"><ele>759.0</ele><time>2026-04-25T08:48:50.749Z</time></trkpt><trkpt lat="46.0469736" lon="10.3379763"><ele>759.0</ele><time>2026-04-25T08:48:53.751Z</time></trkpt><trkpt lat="46.0470444" lon="10.3379627"><ele>759.0</ele><time>2026-04-25T08:48:56.753Z</time></trkpt><trkpt lat="46.0471217" lon="10.3379513"><ele>759.0</ele><time>2026-04-25T08:48:58.751Z</time></trkpt><trkpt lat="46.0472101" lon="10.3379412"><ele>759.0</ele><time>2026-04-25T08:49:00.746Z</time></trkpt><trkpt lat="46.0472904" lon="10.3379508"><ele>759.0</ele><time>2026-04-25T08:49:02.751Z</time></trkpt><trkpt lat="46.0473677" lon="10.3379775"><ele>759.0</ele><time>2026-04-25T08:49:04.778Z</time></trkpt><trkpt lat="46.0474435" lon="10.3380327"><ele>753.8571428571429</ele><time>2026-04-25T08:49:06.751Z</time></trkpt><trkpt lat="46.04751" lon="10.3380795"><ele>748.7142857142857</ele><time>2026-04-25T08:49:08.745Z</time></trkpt><trkpt lat="46.0475813" lon="10.3380564"><ele>743.5714285714287</ele><time>2026-04-25T08:49:11.752Z</time></trkpt><trkpt lat="46.0476675" lon="10.3380887"><ele>738.4285714285714</ele><time>2026-04-25T08:49:16.758Z</time></trkpt><trkpt lat="46.0477305" lon="10.3381136"><ele>733.2857142857143</ele><time>2026-04-25T08:49:18.67Z</time></trkpt><trkpt lat="46.047813" lon="10.338105"><ele>728.1428571428572</ele><time>2026-04-25T08:49:20.756Z</time></trkpt><trkpt lat="46.0478735" lon="10.3380768"><ele>723.0</ele><time>2026-04-25T08:49:21.75Z</time></trkpt><trkpt lat="46.0479576" lon="10.3380616"><ele>723.0</ele><time>2026-04-25T08:49:23.754Z</time></trkpt><trkpt lat="46.0480631" lon="10.3380456"><ele>723.0</ele><time>2026-04-25T08:49:25.75Z</time></trkpt><trkpt lat="46.0481325" lon="10.3380542"><ele>723.0</ele><time>2026-04-25T08:49:27.746Z</time></trkpt><trkpt lat="46.0482173" lon="10.3380742"><ele>723.0</ele><time>2026-04-25T08:49:30.696Z</time></trkpt><trkpt lat="46.0483075" lon="10.338065"><ele>723.0</ele><time>2026-04-25T08:49:34.752Z</time></trkpt><trkpt lat="46.0483977" lon="10.3380086"><ele>728.4285714285714</ele><time>2026-04-25T08:49:37.748Z</time></trkpt><trkpt lat="46.0484661" lon="10.3379923"><ele>733.8571428571429</ele><time>2026-04-25T08:49:39.753Z</time></trkpt><trkpt lat="46.0485484" lon="10.3379793"><ele>739.2857142857142</ele><time>2026-04-25T08:49:42.755Z</time></trkpt><trkpt lat="46.0486336" lon="10.3379708"><ele>744.7142857142858</ele><time>2026-04-25T08:49:45.753Z</time></trkpt><trkpt lat="46.0486966" lon="10.3379667"><ele>750.1428571428571</ele><time>2026-04-25T08:50:00.746Z</time></trkpt><trkpt lat="46.0487612" lon="10.3379491"><ele>755.5714285714286</ele><time>2026-04-25T08:50:06.75Z</time></trkpt><trkpt lat="46.0488299" lon="10.3379399"><ele>761.0</ele><time>2026-04-25T08:50:09.749Z</time></trkpt><trkpt lat="46.0489204" lon="10.3379097"><ele>761.0</ele><time>2026-04-25T08:50:12.751Z</time></trkpt><trkpt lat="46.0489953" lon="10.3379107"><ele>761.0</ele><time>2026-04-25T08:50:15.751Z</time></trkpt><trkpt lat="46.0490746" lon="10.3378869"><ele>761.0</ele><time>2026-04-25T08:50:19.753Z</time></trkpt><trkpt lat="46.0491489" lon="10.337872"><ele>761.0</ele><time>2026-04-25T08:50:21.751Z</time></trkpt><trkpt lat="46.0492114" lon="10.3378528"><ele>761.0</ele><time>2026-04-25T08:50:23.754Z</time></trkpt><trkpt lat="46.0492823" lon="10.3377971"><ele>761.0</ele><time>2026-04-25T08:50:32.747Z</time></trkpt><trkpt lat="46.0493435" lon="10.3377372"><ele>761.1666666666666</ele><time>2026-04-25T08:50:35.747Z</time></trkpt><trkpt lat="46.0494136" lon="10.3376789"><ele>761.3333333333333</ele><time>2026-04-25T08:50:38.747Z</time></trkpt><trkpt lat="46.049472" lon="10.3376306"><ele>761.5</ele><time>2026-04-25T08:50:41.756Z</time></trkpt><trkpt lat="46.0495448" lon="10.3375937"><ele>761.6666666666666</ele><time>2026-04-25T08:50:45.753Z</time></trkpt><trkpt lat="46.0496036" lon="10.337507"><ele>761.8333333333334</ele><time>2026-04-25T08:50:48.745Z</time></trkpt><trkpt lat="46.0496666" lon="10.337461"><ele>762.0</ele><time>2026-04-25T08:50:52.755Z</time></trkpt><trkpt lat="46.0497382" lon="10.337402"><ele>762.0</ele><time>2026-04-25T08:50:56.75Z</time></trkpt><trkpt lat="46.0497939" lon="10.3373504"><ele>762.0</ele><time>2026-04-25T08:51:01.748Z</time></trkpt><trkpt lat="46.0498649" lon="10.3373129"><ele>762.0</ele><time>2026-04-25T08:51:05.756Z</time></trkpt><trkpt lat="46.0499321" lon="10.3373049"><ele>762.0</ele><time>2026-04-25T08:51:09.755Z</time></trkpt><trkpt lat="46.0500156" lon="10.3372838"><ele>762.0</ele><time>2026-04-25T08:51:13.748Z</time></trkpt><trkpt lat="46.0500872" lon="10.3372414"><ele>762.0</ele><time>2026-04-25T08:51:16.753Z</time></trkpt><trkpt lat="46.0501697" lon="10.3371956"><ele>766.6666666666666</ele><time>2026-04-25T08:51:20.751Z</time></trkpt><trkpt lat="46.0502328" lon="10.3371607"><ele>771.3333333333333</ele><time>2026-04-25T08:51:22.753Z</time></trkpt><trkpt lat="46.0503143" lon="10.3371469"><ele>776.0</ele><time>2026-04-25T08:51:24.75Z</time></trkpt><trkpt lat="46.0504049" lon="10.3371184"><ele>780.6666666666666</ele><time>2026-04-25T08:51:26.743Z</time></trkpt><trkpt lat="46.0504939" lon="10.3370878"><ele>785.3333333333333</ele><time>2026-04-25T08:51:28.752Z</time></trkpt><trkpt lat="46.0505792" lon="10.3370545"><ele>790.0</ele><time>2026-04-25T08:51:30.75Z</time></trkpt><trkpt lat="46.0506555" lon="10.3370129"><ele>789.9999999999999</ele><time>2026-04-25T08:51:32.749Z</time></trkpt><trkpt lat="46.0507297" lon="10.3369631"><ele>790.0</ele><time>2026-04-25T08:51:34.749Z</time></trkpt><trkpt lat="46.0508012" lon="10.3369158"><ele>790.0</ele><time>2026-04-25T08:51:36.75Z</time></trkpt><trkpt lat="46.0508685" lon="10.3368547"><ele>790.0</ele><time>2026-04-25T08:51:38.748Z</time></trkpt><trkpt lat="46.0509225" lon="10.3367982"><ele>789.9999999999999</ele><time>2026-04-25T08:51:40.751Z</time></trkpt><trkpt lat="46.0509993" lon="10.3367547"><ele>790.0</ele><time>2026-04-25T08:52:02.749Z</time></trkpt><trkpt lat="46.0511381" lon="10.3366874"><ele>791.6</ele><time>2026-04-25T08:52:04.746Z</time></trkpt><trkpt lat="46.0512407" lon="10.3366403"><ele>793.2</ele><time>2026-04-25T08:52:05.747Z</time></trkpt><trkpt lat="46.0513368" lon="10.3365893"><ele>794.8</ele><time>2026-04-25T08:52:06.746Z</time></trkpt><trkpt lat="46.0514373" lon="10.3365311"><ele>796.4</ele><time>2026-04-25T08:52:07.742Z</time></trkpt><trkpt lat="46.051536" lon="10.3364845"><ele>798.0</ele><time>2026-04-25T08:52:08.747Z</time></trkpt><trkpt lat="46.0516389" lon="10.336451"><ele>799.4</ele><time>2026-04-25T08:52:09.748Z</time></trkpt><trkpt lat="46.0517417" lon="10.3364166"><ele>800.8</ele><time>2026-04-25T08:52:10.744Z</time></trkpt><trkpt lat="46.051843" lon="10.3363705"><ele>802.2</ele><time>2026-04-25T08:52:11.746Z</time></trkpt><trkpt lat="46.0519395" lon="10.3363141"><ele>803.6</ele><time>2026-04-25T08:52:12.749Z</time></trkpt><trkpt lat="46.0520323" lon="10.3362616"><ele>805.0</ele><time>2026-04-25T08:52:13.749Z</time></trkpt><trkpt lat="46.0521249" lon="10.3362232"><ele>805.0</ele><time>2026-04-25T08:52:14.749Z</time></trkpt><trkpt lat="46.0522177" lon="10.3361923"><ele>805.0</ele><time>2026-04-25T08:52:15.749Z</time></trkpt><trkpt lat="46.0523154" lon="10.3361599"><ele>805.0</ele><time>2026-04-25T08:52:16.749Z</time></trkpt><trkpt lat="46.0524164" lon="10.3361257"><ele>805.0</ele><time>2026-04-25T08:52:17.747Z</time></trkpt><trkpt lat="46.0525135" lon="10.3360922"><ele>805.0</ele><time>2026-04-25T08:52:18.751Z</time></trkpt><trkpt lat="46.0525994" lon="10.3360604"><ele>800.6666666666666</ele><time>2026-04-25T08:52:19.751Z</time></trkpt><trkpt lat="46.0526729" lon="10.3360284"><ele>796.3333333333333</ele><time>2026-04-25T08:52:20.748Z</time></trkpt><trkpt lat="46.0527322" lon="10.3359845"><ele>792.0</ele><time>2026-04-25T08:52:21.748Z</time></trkpt><trkpt lat="46.052785" lon="10.3359213"><ele>787.6666666666667</ele><time>2026-04-25T08:52:22.75Z</time></trkpt><trkpt lat="46.0528457" lon="10.3358381"><ele>783.3333333333334</ele><time>2026-04-25T08:52:23.752Z</time></trkpt><trkpt lat="46.0529144" lon="10.3357445"><ele>779.0</ele><time>2026-04-25T08:52:24.748Z</time></trkpt><trkpt lat="46.0529808" lon="10.3356435"><ele>781.3333333333334</ele><time>2026-04-25T08:52:25.747Z</time></trkpt><trkpt lat="46.0530432" lon="10.3355373"><ele>783.6666666666667</ele><time>2026-04-25T08:52:26.75Z</time></trkpt><trkpt lat="46.0531025" lon="10.3354319"><ele>786.0</ele><time>2026-04-25T08:52:27.749Z</time></trkpt><trkpt lat="46.0531517" lon="10.3353389"><ele>788.3333333333333</ele><time>2026-04-25T08:52:28.744Z</time></trkpt><trkpt lat="46.0531872" lon="10.3352619"><ele>790.6666666666666</ele><time>2026-04-25T08:52:30.749Z</time></trkpt><trkpt lat="46.0532829" lon="10.3351862"><ele>793.0</ele><time>2026-04-25T08:52:33.75Z</time></trkpt><trkpt lat="46.0533975" lon="10.3351143"><ele>793.0000000000001</ele><time>2026-04-25T08:52:35.748Z</time></trkpt><trkpt lat="46.0534637" lon="10.3350983"><ele>793.0</ele><time>2026-04-25T08:52:36.75Z</time></trkpt><trkpt lat="46.0535284" lon="10.3350926"><ele>793.0</ele><time>2026-04-25T08:52:37.748Z</time></trkpt><trkpt lat="46.0535909" lon="10.3350787"><ele>793.0</ele><time>2026-04-25T08:52:38.746Z</time></trkpt><trkpt lat="46.0536518" lon="10.3350372"><ele>793.0</ele><time>2026-04-25T08:52:39.745Z</time></trkpt><trkpt lat="46.0537115" lon="10.3349713"><ele>793.0000000000001</ele><time>2026-04-25T08:52:40.748Z</time></trkpt><trkpt lat="46.053768" lon="10.3348896"><ele>793.0</ele><time>2026-04-25T08:52:41.749Z</time></trkpt><trkpt lat="46.0538259" lon="10.3348048"><ele>792.9999999999999</ele><time>2026-04-25T08:52:42.745Z</time></trkpt><trkpt lat="46.0538812" lon="10.3347238"><ele>793.0</ele><time>2026-04-25T08:52:43.746Z</time></trkpt><trkpt lat="46.0539248" lon="10.3346464"><ele>793.0</ele><time>2026-04-25T08:52:44.749Z</time></trkpt><trkpt lat="46.0539594" lon="10.3345598"><ele>793.0</ele><time>2026-04-25T08:52:45.748Z</time></trkpt><trkpt lat="46.053998" lon="10.33446"><ele>792.9999999999999</ele><time>2026-04-25T08:52:46.75Z</time></trkpt><trkpt lat="46.0540508" lon="10.3343582"><ele>793.0</ele><time>2026-04-25T08:52:47.748Z</time></trkpt><trkpt lat="46.0541159" lon="10.3342666"><ele>795.1666666666666</ele><time>2026-04-25T08:52:48.748Z</time></trkpt><trkpt lat="46.0541831" lon="10.3341719"><ele>797.3333333333333</ele><time>2026-04-25T08:52:49.747Z</time></trkpt><trkpt lat="46.0542485" lon="10.3340723"><ele>799.5</ele><time>2026-04-25T08:52:50.75Z</time></trkpt><trkpt lat="46.0543138" lon="10.3339863"><ele>801.6666666666667</ele><time>2026-04-25T08:52:51.75Z</time></trkpt><trkpt lat="46.0543814" lon="10.3339292"><ele>803.8333333333334</ele><time>2026-04-25T08:52:52.747Z</time></trkpt><trkpt lat="46.0544444" lon="10.3338926"><ele>806.0</ele><time>2026-04-25T08:52:53.751Z</time></trkpt><trkpt lat="46.0545289" lon="10.3338209"><ele>810.8</ele><time>2026-04-25T08:52:55.752Z</time></trkpt><trkpt lat="46.0545817" lon="10.33371"><ele>815.5999999999999</ele><time>2026-04-25T08:52:57.748Z</time></trkpt><trkpt lat="46.0546094" lon="10.3336178"><ele>820.4</ele><time>2026-04-25T08:52:59.743Z</time></trkpt><trkpt lat="46.0546231" lon="10.3335255"><ele>825.2</ele><time>2026-04-25T08:53:03.746Z</time></trkpt><trkpt lat="46.0547022" lon="10.3333515"><ele>830.0</ele><time>2026-04-25T08:53:05.746Z</time></trkpt><trkpt lat="46.0547407" lon="10.3332448"><ele>830.0</ele><time>2026-04-25T08:53:06.74Z</time></trkpt><trkpt lat="46.0547745" lon="10.3331381"><ele>830.0</ele><time>2026-04-25T08:53:07.747Z</time></trkpt><trkpt lat="46.0548108" lon="10.3330535"><ele>830.0</ele><time>2026-04-25T08:53:08.749Z</time></trkpt><trkpt lat="46.0548606" lon="10.3329942"><ele>830.0</ele><time>2026-04-25T08:53:09.746Z</time></trkpt><trkpt lat="46.0549239" lon="10.3329393"><ele>830.0</ele><time>2026-04-25T08:53:10.746Z</time></trkpt><trkpt lat="46.0549854" lon="10.3328834"><ele>830.0</ele><time>2026-04-25T08:53:11.742Z</time></trkpt><trkpt lat="46.0550453" lon="10.332822"><ele>830.0</ele><time>2026-04-25T08:53:12.749Z</time></trkpt><trkpt lat="46.0551033" lon="10.3327543"><ele>831.1428571428571</ele><time>2026-04-25T08:53:13.747Z</time></trkpt><trkpt lat="46.0551571" lon="10.332678"><ele>832.2857142857143</ele><time>2026-04-25T08:53:14.746Z</time></trkpt><trkpt lat="46.055202" lon="10.3326015"><ele>833.4285714285713</ele><time>2026-04-25T08:53:15.748Z</time></trkpt><trkpt lat="46.0552473" lon="10.3325363"><ele>834.5714285714286</ele><time>2026-04-25T08:53:16.746Z</time></trkpt><trkpt lat="46.0553014" lon="10.3324883"><ele>835.7142857142857</ele><time>2026-04-25T08:53:17.748Z</time></trkpt><trkpt lat="46.0553675" lon="10.332458"><ele>836.8571428571428</ele><time>2026-04-25T08:53:18.749Z</time></trkpt><trkpt lat="46.0554485" lon="10.3324385"><ele>838.0</ele><time>2026-04-25T08:53:19.751Z</time></trkpt><trkpt lat="46.0555417" lon="10.3324241"><ele>837.9999999999999</ele><time>2026-04-25T08:53:20.75Z</time></trkpt><trkpt lat="46.0556303" lon="10.3324192"><ele>838.0</ele><time>2026-04-25T08:53:21.75Z</time></trkpt><trkpt lat="46.055711" lon="10.3324196"><ele>838.0</ele><time>2026-04-25T08:53:22.753Z</time></trkpt><trkpt lat="46.0557767" lon="10.3324328"><ele>838.0</ele><time>2026-04-25T08:53:23.752Z</time></trkpt><trkpt lat="46.0558393" lon="10.3324515"><ele>837.9999999999999</ele><time>2026-04-25T08:53:24.749Z</time></trkpt><trkpt lat="46.0559116" lon="10.3324515"><ele>838.0</ele><time>2026-04-25T08:53:25.75Z</time></trkpt><trkpt lat="46.0559881" lon="10.3324309"><ele>836.9999999999999</ele><time>2026-04-25T08:53:26.743Z</time></trkpt><trkpt lat="46.0560673" lon="10.3324018"><ele>836.0</ele><time>2026-04-25T08:53:27.751Z</time></trkpt><trkpt lat="46.05614" lon="10.3323826"><ele>835.0</ele><time>2026-04-25T08:53:28.746Z</time></trkpt><trkpt lat="46.0562051" lon="10.3323641"><ele>834.0</ele><time>2026-04-25T08:53:29.753Z</time></trkpt><trkpt lat="46.0562626" lon="10.3323258"><ele>832.9999999999999</ele><time>2026-04-25T08:53:30.749Z</time></trkpt><trkpt lat="46.0563366" lon="10.3322209"><ele>832.0</ele><time>2026-04-25T08:53:32.744Z</time></trkpt><trkpt lat="46.0563417" lon="10.3321276"><ele>837.8333333333333</ele><time>2026-04-25T08:53:34.746Z</time></trkpt><trkpt lat="46.0563177" lon="10.3319686"><ele>843.6666666666666</ele><time>2026-04-25T08:53:37.748Z</time></trkpt><trkpt lat="46.0563173" lon="10.3318663"><ele>849.5</ele><time>2026-04-25T08:53:38.743Z</time></trkpt><trkpt lat="46.056319" lon="10.3317521"><ele>855.3333333333333</ele><time>2026-04-25T08:53:39.744Z</time></trkpt><trkpt lat="46.0563058" lon="10.3316387"><ele>861.1666666666666</ele><time>2026-04-25T08:53:40.745Z</time></trkpt><trkpt lat="46.0562797" lon="10.3315247"><ele>867.0</ele><time>2026-04-25T08:53:41.747Z</time></trkpt><trkpt lat="46.0562553" lon="10.3314132"><ele>871.0</ele><time>2026-04-25T08:53:42.745Z</time></trkpt><trkpt lat="46.0562452" lon="10.3313076"><ele>875.0</ele><time>2026-04-25T08:53:43.745Z</time></trkpt><trkpt lat="46.0562525" lon="10.3312153"><ele>879.0</ele><time>2026-04-25T08:53:44.742Z</time></trkpt><trkpt lat="46.0562779" lon="10.3310368"><ele>883.0</ele><time>2026-04-25T08:53:46.75Z</time></trkpt><trkpt lat="46.0562856" lon="10.3309309"><ele>887.0</ele><time>2026-04-25T08:53:47.746Z</time></trkpt><trkpt lat="46.0563067" lon="10.3308154"><ele>891.0</ele><time>2026-04-25T08:53:48.747Z</time></trkpt><trkpt lat="46.0563341" lon="10.3307098"><ele>889.5999999999999</ele><time>2026-04-25T08:53:49.745Z</time></trkpt><trkpt lat="46.05634" lon="10.330541"><ele>888.1999999999999</ele><time>2026-04-25T08:53:51.745Z</time></trkpt><trkpt lat="46.0563494" lon="10.3303967"><ele>886.8000000000001</ele><time>2026-04-25T08:53:53.747Z</time></trkpt><trkpt lat="46.0564198" lon="10.3303041"><ele>885.4000000000001</ele><time>2026-04-25T08:53:56.751Z</time></trkpt><trkpt lat="46.0565088" lon="10.330257"><ele>884.0</ele><time>2026-04-25T08:53:58.744Z</time></trkpt><trkpt lat="46.0566236" lon="10.3302739"><ele>884.0000000000001</ele><time>2026-04-25T08:54:00.746Z</time></trkpt><trkpt lat="46.0566869" lon="10.330304"><ele>884.0</ele><time>2026-04-25T08:54:01.749Z</time></trkpt><trkpt lat="46.0567532" lon="10.330348"><ele>884.0</ele><time>2026-04-25T08:54:02.745Z</time></trkpt><trkpt lat="46.0568143" lon="10.3304152"><ele>884.0</ele><time>2026-04-25T08:54:03.748Z</time></trkpt><trkpt lat="46.0568709" lon="10.3304985"><ele>884.0000000000001</ele><time>2026-04-25T08:54:04.747Z</time></trkpt><trkpt lat="46.0569175" lon="10.3305934"><ele>884.0</ele><time>2026-04-25T08:54:05.751Z</time></trkpt><trkpt lat="46.0569541" lon="10.3306921"><ele>879.7142857142858</ele><time>2026-04-25T08:54:06.744Z</time></trkpt><trkpt lat="46.0569932" lon="10.3307833"><ele>875.4285714285714</ele><time>2026-04-25T08:54:07.748Z</time></trkpt><trkpt lat="46.0570308" lon="10.3308733"><ele>871.1428571428571</ele><time>2026-04-25T08:54:08.746Z</time></trkpt><trkpt lat="46.0570599" lon="10.3309541"><ele>866.8571428571429</ele><time>2026-04-25T08:54:09.752Z</time></trkpt><trkpt lat="46.0571205" lon="10.3310632"><ele>862.5714285714286</ele><time>2026-04-25T08:54:11.75Z</time></trkpt><trkpt lat="46.0571809" lon="10.3310927"><ele>858.2857142857143</ele><time>2026-04-25T08:54:12.756Z</time></trkpt><trkpt lat="46.0572464" lon="10.3311431"><ele>854.0</ele><time>2026-04-25T08:54:13.749Z</time></trkpt><trkpt lat="46.0573062" lon="10.3312319"><ele>854.0000000000001</ele><time>2026-04-25T08:54:14.752Z</time></trkpt><trkpt lat="46.057349" lon="10.3313516"><ele>854.0</ele><time>2026-04-25T08:54:15.748Z</time></trkpt><trkpt lat="46.0573851" lon="10.3314649"><ele>854.0</ele><time>2026-04-25T08:54:16.744Z</time></trkpt><trkpt lat="46.0574293" lon="10.3315565"><ele>854.0</ele><time>2026-04-25T08:54:17.744Z</time></trkpt><trkpt lat="46.0574928" lon="10.3316339"><ele>854.0000000000001</ele><time>2026-04-25T08:54:18.749Z</time></trkpt><trkpt lat="46.0575666" lon="10.3316961"><ele>854.0</ele><time>2026-04-25T08:54:19.746Z</time></trkpt><trkpt lat="46.0576376" lon="10.3317369"><ele>854.0000000000001</ele><time>2026-04-25T08:54:20.749Z</time></trkpt><trkpt lat="46.0577104" lon="10.3317734"><ele>854.0</ele><time>2026-04-25T08:54:21.747Z</time></trkpt><trkpt lat="46.0577768" lon="10.3318009"><ele>854.0</ele><time>2026-04-25T08:54:22.747Z</time></trkpt><trkpt lat="46.0578764" lon="10.3318487"><ele>854.0</ele><time>2026-04-25T08:54:24.749Z</time></trkpt><trkpt lat="46.0579353" lon="10.3318841"><ele>854.0000000000001</ele><time>2026-04-25T08:54:26.746Z</time></trkpt><trkpt lat="46.0580447" lon="10.3318762"><ele>854.0</ele><time>2026-04-25T08:54:33.751Z</time></trkpt><trkpt lat="46.0581135" lon="10.331869"><ele>854.0000000000001</ele><time>2026-04-25T08:54:34.745Z</time></trkpt><trkpt lat="46.0581918" lon="10.3318727"><ele>854.0</ele><time>2026-04-25T08:54:35.746Z</time></trkpt><trkpt lat="46.0582666" lon="10.3318835"><ele>854.0</ele><time>2026-04-25T08:54:36.75Z</time></trkpt><trkpt lat="46.0583337" lon="10.3318814"><ele>854.0</ele><time>2026-04-25T08:54:37.75Z</time></trkpt><trkpt lat="46.0583656" lon="10.3317856"><ele>854.0000000000001</ele><time>2026-04-25T08:54:39.744Z</time></trkpt><trkpt lat="46.058274" lon="10.3316323"><ele>854.0</ele><time>2026-04-25T08:54:41.746Z</time></trkpt><trkpt lat="46.0581985" lon="10.3315505"><ele>854.0000000000001</ele><time>2026-04-25T08:54:42.746Z</time></trkpt><trkpt lat="46.0581282" lon="10.3314909"><ele>854.0</ele><time>2026-04-25T08:54:43.747Z</time></trkpt><trkpt lat="46.0580615" lon="10.3314381"><ele>854.0</ele><time>2026-04-25T08:54:44.749Z</time></trkpt><trkpt lat="46.0579965" lon="10.3313897"><ele>854.0</ele><time>2026-04-25T08:54:45.75Z</time></trkpt><trkpt lat="46.0579361" lon="10.3313403"><ele>854.0000000000001</ele><time>2026-04-25T08:54:46.748Z</time></trkpt><trkpt lat="46.0579047" lon="10.3312367"><ele>854.0</ele><time>2026-04-25T08:54:48.74Z</time></trkpt><trkpt lat="46.058029" lon="10.3311545"><ele>861.2</ele><time>2026-04-25T08:54:50.748Z</time></trkpt><trkpt lat="46.0581296" lon="10.3311242"><ele>868.4000000000001</ele><time>2026-04-25T08:54:51.748Z</time></trkpt><trkpt lat="46.0582328" lon="10.3311048"><ele>875.6</ele><time>2026-04-25T08:54:52.744Z</time></trkpt><trkpt lat="46.0583368" lon="10.3311047"><ele>882.8</ele><time>2026-04-25T08:54:53.752Z</time></trkpt><trkpt lat="46.0584418" lon="10.3311147"><ele>890.0</ele><time>2026-04-25T08:54:54.747Z</time></trkpt><trkpt lat="46.0585416" lon="10.3311379"><ele>892.8571428571429</ele><time>2026-04-25T08:54:55.748Z</time></trkpt><trkpt lat="46.0586252" lon="10.3311711"><ele>895.7142857142857</ele><time>2026-04-25T08:54:56.743Z</time></trkpt><trkpt lat="46.0586952" lon="10.3311954"><ele>898.5714285714286</ele><time>2026-04-25T08:54:57.746Z</time></trkpt><trkpt lat="46.0587606" lon="10.3312132"><ele>901.4285714285714</ele><time>2026-04-25T08:54:58.746Z</time></trkpt><trkpt lat="46.0588252" lon="10.3312177"><ele>904.2857142857142</ele><time>2026-04-25T08:54:59.747Z</time></trkpt><trkpt lat="46.058897" lon="10.3312053"><ele>907.1428571428571</ele><time>2026-04-25T08:55:00.747Z</time></trkpt><trkpt lat="46.058979" lon="10.331179"><ele>910.0</ele><time>2026-04-25T08:55:01.75Z</time></trkpt><trkpt lat="46.0590616" lon="10.331149"><ele>909.9999999999999</ele><time>2026-04-25T08:55:02.745Z</time></trkpt><trkpt lat="46.0591317" lon="10.3311203"><ele>910.0</ele><time>2026-04-25T08:55:03.748Z</time></trkpt><trkpt lat="46.0591797" lon="10.3310228"><ele>910.0</ele><time>2026-04-25T08:55:05.749Z</time></trkpt><trkpt lat="46.0590563" lon="10.3309307"><ele>910.0</ele><time>2026-04-25T08:55:07.754Z</time></trkpt><trkpt lat="46.0589726" lon="10.3308954"><ele>909.9999999999999</ele><time>2026-04-25T08:55:08.75Z</time></trkpt><trkpt lat="46.0589174" lon="10.3308485"><ele>910.0</ele><time>2026-04-25T08:55:09.746Z</time></trkpt><trkpt lat="46.0589125" lon="10.3307418"><ele>909.9999999999999</ele><time>2026-04-25T08:55:12.749Z</time></trkpt><trkpt lat="46.0590247" lon="10.3306947"><ele>910.0</ele><time>2026-04-25T08:55:14.749Z</time></trkpt><trkpt lat="46.0590971" lon="10.330672"><ele>910.0</ele><time>2026-04-25T08:55:15.748Z</time></trkpt><trkpt lat="46.0591687" lon="10.3306479"><ele>910.0</ele><time>2026-04-25T08:55:16.748Z</time></trkpt><trkpt lat="46.0592459" lon="10.3306154"><ele>909.9999999999999</ele><time>2026-04-25T08:55:17.749Z</time></trkpt><trkpt lat="46.0593213" lon="10.3305833"><ele>910.0</ele><time>2026-04-25T08:55:18.746Z</time></trkpt><trkpt lat="46.0593933" lon="10.3305518"><ele>918.1666666666666</ele><time>2026-04-25T08:55:19.749Z</time></trkpt><trkpt lat="46.0594646" lon="10.3305175"><ele>926.3333333333333</ele><time>2026-04-25T08:55:20.747Z</time></trkpt><trkpt lat="46.0595287" lon="10.330469"><ele>934.5</ele><time>2026-04-25T08:55:21.747Z</time></trkpt><trkpt lat="46.0595813" lon="10.3303865"><ele>942.6666666666667</ele><time>2026-04-25T08:55:22.749Z</time></trkpt><trkpt lat="46.0596274" lon="10.3302882"><ele>950.8333333333334</ele><time>2026-04-25T08:55:23.75Z</time></trkpt><trkpt lat="46.0596726" lon="10.3301982"><ele>959.0</ele><time>2026-04-25T08:55:24.748Z</time></trkpt><trkpt lat="46.0597294" lon="10.3301391"><ele>959.0</ele><time>2026-04-25T08:55:25.745Z</time></trkpt><trkpt lat="46.0597979" lon="10.3300972"><ele>959.0000000000001</ele><time>2026-04-25T08:55:26.75Z</time></trkpt><trkpt lat="46.0598847" lon="10.3300563"><ele>959.0000000000001</ele><time>2026-04-25T08:55:27.749Z</time></trkpt><trkpt lat="46.0599875" lon="10.3300125"><ele>959.0</ele><time>2026-04-25T08:55:28.749Z</time></trkpt><trkpt lat="46.0601008" lon="10.3299785"><ele>959.0</ele><time>2026-04-25T08:55:29.751Z</time></trkpt><trkpt lat="46.0602041" lon="10.3299727"><ele>961.0000000000001</ele><time>2026-04-25T08:55:30.747Z</time></trkpt><trkpt lat="46.060291" lon="10.3299957"><ele>963.0</ele><time>2026-04-25T08:55:31.75Z</time></trkpt><trkpt lat="46.0603755" lon="10.3300303"><ele>965.0</ele><time>2026-04-25T08:55:32.752Z</time></trkpt><trkpt lat="46.0604421" lon="10.3300621"><ele>967.0</ele><time>2026-04-25T08:55:33.75Z</time></trkpt><trkpt lat="46.0605237" lon="10.3300398"><ele>969.0000000000001</ele><time>2026-04-25T08:55:35.748Z</time></trkpt><trkpt lat="46.0604797" lon="10.3299172"><ele>971.0</ele><time>2026-04-25T08:55:37.746Z</time></trkpt><trkpt lat="46.0604229" lon="10.3298406"><ele>971.0000000000001</ele><time>2026-04-25T08:55:38.744Z</time></trkpt><trkpt lat="46.0603637" lon="10.3297663"><ele>971.0</ele><time>2026-04-25T08:55:39.744Z</time></trkpt><trkpt lat="46.0603621" lon="10.3296146"><ele>971.0</ele><time>2026-04-25T08:55:41.75Z</time></trkpt><trkpt lat="46.0604147" lon="10.3295441"><ele>971.0</ele><time>2026-04-25T08:55:42.749Z</time></trkpt><trkpt lat="46.0604995" lon="10.3295019"><ele>971.0000000000001</ele><time>2026-04-25T08:55:43.745Z</time></trkpt><trkpt lat="46.0606022" lon="10.329497"><ele>971.0</ele><time>2026-04-25T08:55:44.748Z</time></trkpt><trkpt lat="46.0606926" lon="10.3295217"><ele>977.0</ele><time>2026-04-25T08:55:45.745Z</time></trkpt><trkpt lat="46.0607675" lon="10.3295752"><ele>983.0000000000001</ele><time>2026-04-25T08:55:46.749Z</time></trkpt><trkpt lat="46.0608361" lon="10.3296283"><ele>989.0</ele><time>2026-04-25T08:55:47.748Z</time></trkpt><trkpt lat="46.0609082" lon="10.329652"><ele>995.0</ele><time>2026-04-25T08:55:48.748Z</time></trkpt><trkpt lat="46.0609776" lon="10.3296464"><ele>1001.0000000000001</ele><time>2026-04-25T08:55:49.752Z</time></trkpt><trkpt lat="46.0610431" lon="10.3296171"><ele>1007.0</ele><time>2026-04-25T08:55:50.75Z</time></trkpt><trkpt lat="46.0611042" lon="10.3295582"><ele>1013.0</ele><time>2026-04-25T08:55:51.741Z</time></trkpt><trkpt lat="46.0611543" lon="10.3294773"><ele>1013.1666666666667</ele><time>2026-04-25T08:55:52.751Z</time></trkpt><trkpt lat="46.0611837" lon="10.329379"><ele>1013.3333333333334</ele><time>2026-04-25T08:55:53.747Z</time></trkpt><trkpt lat="46.061183" lon="10.3292761"><ele>1013.5</ele><time>2026-04-25T08:55:54.747Z</time></trkpt><trkpt lat="46.0611468" lon="10.3291821"><ele>1013.6666666666667</ele><time>2026-04-25T08:55:55.752Z</time></trkpt><trkpt lat="46.0610965" lon="10.3291002"><ele>1013.8333333333334</ele><time>2026-04-25T08:55:56.747Z</time></trkpt><trkpt lat="46.0610633" lon="10.3290202"><ele>1014.0</ele><time>2026-04-25T08:55:57.745Z</time></trkpt><trkpt lat="46.061084" lon="10.3288581"><ele>1018.6666666666666</ele><time>2026-04-25T08:55:59.749Z</time></trkpt><trkpt lat="46.0611302" lon="10.3287737"><ele>1023.3333333333333</ele><time>2026-04-25T08:56:00.747Z</time></trkpt><trkpt lat="46.061186" lon="10.3286932"><ele>1028.0</ele><time>2026-04-25T08:56:01.745Z</time></trkpt><trkpt lat="46.0612429" lon="10.328628"><ele>1032.6666666666665</ele><time>2026-04-25T08:56:02.747Z</time></trkpt><trkpt lat="46.0612976" lon="10.3285749"><ele>1037.3333333333333</ele><time>2026-04-25T08:56:03.748Z</time></trkpt><trkpt lat="46.0613897" lon="10.3284637"><ele>1042.0</ele><time>2026-04-25T08:56:05.75Z</time></trkpt><trkpt lat="46.0614598" lon="10.328352"><ele>1042.0</ele><time>2026-04-25T08:56:07.749Z</time></trkpt><trkpt lat="46.0615069" lon="10.3282818"><ele>1042.0</ele><time>2026-04-25T08:56:08.748Z</time></trkpt><trkpt lat="46.0615675" lon="10.3282164"><ele>1042.0</ele><time>2026-04-25T08:56:09.746Z</time></trkpt><trkpt lat="46.0616398" lon="10.3281649"><ele>1042.0</ele><time>2026-04-25T08:56:10.748Z</time></trkpt><trkpt lat="46.0617193" lon="10.3281327"><ele>1042.0</ele><time>2026-04-25T08:56:11.749Z</time></trkpt><trkpt lat="46.0617896" lon="10.3281108"><ele>1042.0</ele><time>2026-04-25T08:56:12.749Z</time></trkpt><trkpt lat="46.0618539" lon="10.3280875"><ele>1042.0</ele><time>2026-04-25T08:56:13.747Z</time></trkpt><trkpt lat="46.0619144" lon="10.3280565"><ele>1045.8333333333333</ele><time>2026-04-25T08:56:14.751Z</time></trkpt><trkpt lat="46.0620141" lon="10.3279827"><ele>1049.6666666666665</ele><time>2026-04-25T08:56:16.755Z</time></trkpt><trkpt lat="46.0619921" lon="10.3278733"><ele>1053.5</ele><time>2026-04-25T08:56:18.747Z</time></trkpt><trkpt lat="46.0619351" lon="10.3278331"><ele>1057.3333333333333</ele><time>2026-04-25T08:56:19.749Z</time></trkpt><trkpt lat="46.0618627" lon="10.3278127"><ele>1061.1666666666667</ele><time>2026-04-25T08:56:20.748Z</time></trkpt><trkpt lat="46.061781" lon="10.3277875"><ele>1065.0</ele><time>2026-04-25T08:56:21.75Z</time></trkpt><trkpt lat="46.0616796" lon="10.3277369"><ele>1068.25</ele><time>2026-04-25T08:56:22.753Z</time></trkpt><trkpt lat="46.0615545" lon="10.3276553"><ele>1071.5</ele><time>2026-04-25T08:56:23.752Z</time></trkpt><trkpt lat="46.0614182" lon="10.3275454"><ele>1074.75</ele><time>2026-04-25T08:56:24.746Z</time></trkpt><trkpt lat="46.0612918" lon="10.3274252"><ele>1078.0</ele><time>2026-04-25T08:56:25.75Z</time></trkpt><trkpt lat="46.0611856" lon="10.3273097"><ele>1085.5</ele><time>2026-04-25T08:56:26.75Z</time></trkpt><trkpt lat="46.0610788" lon="10.3272002"><ele>1093.0</ele><time>2026-04-25T08:56:27.744Z</time></trkpt><trkpt lat="46.0609655" lon="10.3271136"><ele>1100.5</ele><time>2026-04-25T08:56:28.744Z</time></trkpt><trkpt lat="46.0608525" lon="10.3270555"><ele>1108.0</ele><time>2026-04-25T08:56:29.748Z</time></trkpt><trkpt lat="46.0607779" lon="10.3270304"><ele>1108.1666666666665</ele><time>2026-04-25T08:56:30.744Z</time></trkpt><trkpt lat="46.0607137" lon="10.3270599"><ele>1108.3333333333333</ele><time>2026-04-25T08:56:32.743Z</time></trkpt><trkpt lat="46.0606419" lon="10.327188"><ele>1108.5</ele><time>2026-04-25T08:56:34.745Z</time></trkpt><trkpt lat="46.0605834" lon="10.3272614"><ele>1108.6666666666667</ele><time>2026-04-25T08:56:35.753Z</time></trkpt><trkpt lat="46.0605241" lon="10.3273099"><ele>1108.8333333333335</ele><time>2026-04-25T08:56:36.744Z</time></trkpt><trkpt lat="46.0604032" lon="10.3272935"><ele>1109.0</ele><time>2026-04-25T08:56:38.749Z</time></trkpt><trkpt lat="46.0603415" lon="10.3272273"><ele>1109.0</ele><time>2026-04-25T08:56:39.748Z</time></trkpt><trkpt lat="46.0602914" lon="10.3271491"><ele>1109.0</ele><time>2026-04-25T08:56:40.745Z</time></trkpt><trkpt lat="46.0602495" lon="10.3270759"><ele>1109.0</ele><time>2026-04-25T08:56:41.749Z</time></trkpt><trkpt lat="46.0601895" lon="10.3269768"><ele>1109.0</ele><time>2026-04-25T08:56:43.754Z</time></trkpt><trkpt lat="46.0601455" lon="10.3269064"><ele>1109.0</ele><time>2026-04-25T08:56:52.745Z</time></trkpt><trkpt lat="46.0600685" lon="10.3268507"><ele>1109.0</ele><time>2026-04-25T08:56:54.748Z</time></trkpt><trkpt lat="46.0599941" lon="10.3267887"><ele>1106.8333333333335</ele><time>2026-04-25T08:56:56.745Z</time></trkpt><trkpt lat="46.0599324" lon="10.3267005"><ele>1104.6666666666667</ele><time>2026-04-25T08:56:58.746Z</time></trkpt><trkpt lat="46.0598616" lon="10.3266284"><ele>1102.5</ele><time>2026-04-25T08:57:00.748Z</time></trkpt><trkpt lat="46.0597679" lon="10.3265496"><ele>1100.3333333333333</ele><time>2026-04-25T08:57:02.755Z</time></trkpt><trkpt lat="46.0597097" lon="10.3265034"><ele>1098.1666666666665</ele><time>2026-04-25T08:57:03.747Z</time></trkpt><trkpt lat="46.0596287" lon="10.3264432"><ele>1096.0</ele><time>2026-04-25T08:57:05.748Z</time></trkpt><trkpt lat="46.0595614" lon="10.3264378"><ele>1096.0</ele><time>2026-04-25T08:57:14.745Z</time></trkpt><trkpt lat="46.0596397" lon="10.3264623"><ele>1096.0</ele><time>2026-04-25T08:58:13.752Z</time></trkpt><trkpt lat="46.0597237" lon="10.3265214"><ele>1096.0</ele><time>2026-04-25T08:58:15.757Z</time></trkpt><trkpt lat="46.0598246" lon="10.3266051"><ele>1096.0</ele><time>2026-04-25T08:58:17.757Z</time></trkpt><trkpt lat="46.0599211" lon="10.3266966"><ele>1096.0</ele><time>2026-04-25T08:58:19.744Z</time></trkpt><trkpt lat="46.0600054" lon="10.3267887"><ele>1098.1666666666665</ele><time>2026-04-25T08:58:21.762Z</time></trkpt><trkpt lat="46.0600684" lon="10.326836"><ele>1100.3333333333333</ele><time>2026-04-25T08:58:23.751Z</time></trkpt><trkpt lat="46.0601511" lon="10.3268491"><ele>1102.5</ele><time>2026-04-25T08:58:37.744Z</time></trkpt><trkpt lat="46.060219" lon="10.3267576"><ele>1104.6666666666667</ele><time>2026-04-25T08:58:39.747Z</time></trkpt><trkpt lat="46.0602663" lon="10.3266689"><ele>1106.8333333333335</ele><time>2026-04-25T08:58:40.746Z</time></trkpt><trkpt lat="46.0603201" lon="10.3265641"><ele>1109.0</ele><time>2026-04-25T08:58:41.744Z</time></trkpt><trkpt lat="46.0603794" lon="10.326446"><ele>1116.4</ele><time>2026-04-25T08:58:42.751Z</time></trkpt><trkpt lat="46.0604455" lon="10.3263296"><ele>1123.8000000000002</ele><time>2026-04-25T08:58:43.746Z</time></trkpt><trkpt lat="46.0605166" lon="10.3262263"><ele>1131.1999999999998</ele><time>2026-04-25T08:58:44.755Z</time></trkpt><trkpt lat="46.0605862" lon="10.3261318"><ele>1138.6</ele><time>2026-04-25T08:58:45.75Z</time></trkpt><trkpt lat="46.0606522" lon="10.3260404"><ele>1146.0</ele><time>2026-04-25T08:58:46.746Z</time></trkpt><trkpt lat="46.0607167" lon="10.3259558"><ele>1144.5</ele><time>2026-04-25T08:58:47.746Z</time></trkpt><trkpt lat="46.0607836" lon="10.3258859"><ele>1143.0</ele><time>2026-04-25T08:58:48.75Z</time></trkpt><trkpt lat="46.0608613" lon="10.3258468"><ele>1141.5</ele><time>2026-04-25T08:58:49.748Z</time></trkpt><trkpt lat="46.0609438" lon="10.3258484"><ele>1140.0</ele><time>2026-04-25T08:58:50.748Z</time></trkpt><trkpt lat="46.0610272" lon="10.3258633"><ele>1138.5</ele><time>2026-04-25T08:58:51.746Z</time></trkpt><trkpt lat="46.0611039" lon="10.3258714"><ele>1137.0</ele><time>2026-04-25T08:58:52.747Z</time></trkpt><trkpt lat="46.061172" lon="10.3258499"><ele>1137.0</ele><time>2026-04-25T08:58:53.746Z</time></trkpt><trkpt lat="46.0612351" lon="10.3257233"><ele>1137.0</ele><time>2026-04-25T08:58:55.743Z</time></trkpt><trkpt lat="46.0612261" lon="10.3256274"><ele>1137.0</ele><time>2026-04-25T08:58:56.747Z</time></trkpt><trkpt lat="46.0611922" lon="10.3255307"><ele>1137.0</ele><time>2026-04-25T08:58:57.751Z</time></trkpt><trkpt lat="46.0611414" lon="10.325447"><ele>1137.0</ele><time>2026-04-25T08:58:58.749Z</time></trkpt><trkpt lat="46.061078" lon="10.3253752"><ele>1137.0</ele><time>2026-04-25T08:58:59.749Z</time></trkpt><trkpt lat="46.0610072" lon="10.3253207"><ele>1142.8333333333333</ele><time>2026-04-25T08:59:00.747Z</time></trkpt><trkpt lat="46.0609288" lon="10.3252834"><ele>1148.6666666666667</ele><time>2026-04-25T08:59:01.743Z</time></trkpt><trkpt lat="46.0608564" lon="10.3252487"><ele>1154.5</ele><time>2026-04-25T08:59:02.746Z</time></trkpt><trkpt lat="46.0607944" lon="10.3252046"><ele>1160.3333333333335</ele><time>2026-04-25T08:59:03.747Z</time></trkpt><trkpt lat="46.060785" lon="10.3250851"><ele>1166.1666666666667</ele><time>2026-04-25T08:59:05.743Z</time></trkpt><trkpt lat="46.0608991" lon="10.3250089"><ele>1172.0</ele><time>2026-04-25T08:59:07.745Z</time></trkpt><trkpt lat="46.0609718" lon="10.3249535"><ele>1172.0</ele><time>2026-04-25T08:59:08.747Z</time></trkpt><trkpt lat="46.0610214" lon="10.3248723"><ele>1172.0</ele><time>2026-04-25T08:59:09.746Z</time></trkpt><trkpt lat="46.0610694" lon="10.3247723"><ele>1172.0</ele><time>2026-04-25T08:59:10.744Z</time></trkpt><trkpt lat="46.0611259" lon="10.324663"><ele>1172.0</ele><time>2026-04-25T08:59:11.747Z</time></trkpt><trkpt lat="46.0612057" lon="10.324581"><ele>1172.0</ele><time>2026-04-25T08:59:12.747Z</time></trkpt><trkpt lat="46.0612951" lon="10.3245298"><ele>1172.0</ele><time>2026-04-25T08:59:13.751Z</time></trkpt><trkpt lat="46.0613813" lon="10.3244886"><ele>1177.8333333333335</ele><time>2026-04-25T08:59:14.748Z</time></trkpt><trkpt lat="46.0614576" lon="10.3244696"><ele>1183.6666666666667</ele><time>2026-04-25T08:59:15.748Z</time></trkpt><trkpt lat="46.0615271" lon="10.3244679"><ele>1189.5</ele><time>2026-04-25T08:59:16.747Z</time></trkpt><trkpt lat="46.0616367" lon="10.3244025"><ele>1195.3333333333333</ele><time>2026-04-25T08:59:18.748Z</time></trkpt><trkpt lat="46.0616893" lon="10.3243321"><ele>1201.1666666666665</ele><time>2026-04-25T08:59:19.746Z</time></trkpt><trkpt lat="46.0617512" lon="10.3242529"><ele>1207.0</ele><time>2026-04-25T08:59:20.751Z</time></trkpt><trkpt lat="46.0618297" lon="10.324166"><ele>1207.1666666666665</ele><time>2026-04-25T08:59:21.749Z</time></trkpt><trkpt lat="46.0619079" lon="10.3240848"><ele>1207.3333333333333</ele><time>2026-04-25T08:59:22.743Z</time></trkpt><trkpt lat="46.06198" lon="10.3240089"><ele>1207.5</ele><time>2026-04-25T08:59:23.747Z</time></trkpt><trkpt lat="46.062049" lon="10.3239374"><ele>1207.6666666666667</ele><time>2026-04-25T08:59:24.748Z</time></trkpt><trkpt lat="46.0621251" lon="10.3238807"><ele>1207.8333333333335</ele><time>2026-04-25T08:59:25.748Z</time></trkpt><trkpt lat="46.0622024" lon="10.3238384"><ele>1208.0</ele><time>2026-04-25T08:59:26.746Z</time></trkpt><trkpt lat="46.0622797" lon="10.323804"><ele>1209.857142857143</ele><time>2026-04-25T08:59:27.75Z</time></trkpt><trkpt lat="46.0623472" lon="10.323768"><ele>1211.7142857142858</ele><time>2026-04-25T08:59:28.743Z</time></trkpt><trkpt lat="46.0623998" lon="10.3237172"><ele>1213.5714285714284</ele><time>2026-04-25T08:59:29.744Z</time></trkpt><trkpt lat="46.0624411" lon="10.3236483"><ele>1215.4285714285716</ele><time>2026-04-25T08:59:30.746Z</time></trkpt><trkpt lat="46.0624682" lon="10.3235531"><ele>1217.2857142857142</ele><time>2026-04-25T08:59:31.743Z</time></trkpt><trkpt lat="46.0624936" lon="10.3234446"><ele>1219.142857142857</ele><time>2026-04-25T08:59:32.742Z</time></trkpt><trkpt lat="46.0625303" lon="10.3233422"><ele>1221.0</ele><time>2026-04-25T08:59:33.746Z</time></trkpt><trkpt lat="46.0625772" lon="10.3232473"><ele>1221.0</ele><time>2026-04-25T08:59:34.748Z</time></trkpt><trkpt lat="46.062635" lon="10.3231688"><ele>1221.0</ele><time>2026-04-25T08:59:35.742Z</time></trkpt><trkpt lat="46.0626954" lon="10.3231004"><ele>1221.0</ele><time>2026-04-25T08:59:36.748Z</time></trkpt><trkpt lat="46.0627535" lon="10.3230428"><ele>1221.0</ele><time>2026-04-25T08:59:37.75Z</time></trkpt><trkpt lat="46.062807" lon="10.3229881"><ele>1221.0</ele><time>2026-04-25T08:59:38.747Z</time></trkpt><trkpt lat="46.062904" lon="10.3228823"><ele>1221.0</ele><time>2026-04-25T08:59:40.747Z</time></trkpt><trkpt lat="46.0629571" lon="10.3228081"><ele>1221.8</ele><time>2026-04-25T08:59:41.746Z</time></trkpt><trkpt lat="46.0630106" lon="10.3227132"><ele>1222.6</ele><time>2026-04-25T08:59:42.752Z</time></trkpt><trkpt lat="46.0630631" lon="10.322598"><ele>1223.4</ele><time>2026-04-25T08:59:43.751Z</time></trkpt><trkpt lat="46.0631263" lon="10.3224808"><ele>1224.2</ele><time>2026-04-25T08:59:44.746Z</time></trkpt><trkpt lat="46.0632089" lon="10.3223666"><ele>1225.0</ele><time>2026-04-25T08:59:45.749Z</time></trkpt><trkpt lat="46.0632981" lon="10.3222616"><ele>1230.0</ele><time>2026-04-25T08:59:46.744Z</time></trkpt><trkpt lat="46.0633824" lon="10.3221663"><ele>1235.0</ele><time>2026-04-25T08:59:47.748Z</time></trkpt><trkpt lat="46.0634639" lon="10.3220784"><ele>1240.0</ele><time>2026-04-25T08:59:48.749Z</time></trkpt><trkpt lat="46.0635399" lon="10.321995"><ele>1245.0</ele><time>2026-04-25T08:59:49.744Z</time></trkpt><trkpt lat="46.0636118" lon="10.321909"><ele>1250.0</ele><time>2026-04-25T08:59:50.748Z</time></trkpt><trkpt lat="46.0636801" lon="10.3218192"><ele>1250.0</ele><time>2026-04-25T08:59:51.748Z</time></trkpt><trkpt lat="46.0637377" lon="10.3217162"><ele>1250.0</ele><time>2026-04-25T08:59:52.749Z</time></trkpt><trkpt lat="46.0637856" lon="10.3215989"><ele>1250.0</ele><time>2026-04-25T08:59:53.747Z</time></trkpt><trkpt lat="46.0638186" lon="10.3214744"><ele>1250.0</ele><time>2026-04-25T08:59:54.748Z</time></trkpt><trkpt lat="46.0638385" lon="10.321343"><ele>1250.0</ele><time>2026-04-25T08:59:55.747Z</time></trkpt><trkpt lat="46.0638587" lon="10.3212034"><ele>1256.0</ele><time>2026-04-25T08:59:56.749Z</time></trkpt><trkpt lat="46.0638912" lon="10.321065"><ele>1262.0</ele><time>2026-04-25T08:59:57.746Z</time></trkpt><trkpt lat="46.0639318" lon="10.3209286"><ele>1268.0</ele><time>2026-04-25T08:59:58.748Z</time></trkpt><trkpt lat="46.0639678" lon="10.320788"><ele>1274.0</ele><time>2026-04-25T08:59:59.746Z</time></trkpt><trkpt lat="46.0639952" lon="10.3206484"><ele>1280.0</ele><time>2026-04-25T09:00:00.742Z</time></trkpt><trkpt lat="46.0640127" lon="10.3205261"><ele>1279.0</ele><time>2026-04-25T09:00:01.748Z</time></trkpt><trkpt lat="46.0640397" lon="10.3203717"><ele>1278.0</ele><time>2026-04-25T09:00:03.744Z</time></trkpt><trkpt lat="46.0640997" lon="10.320193"><ele>1277.0</ele><time>2026-04-25T09:00:05.738Z</time></trkpt><trkpt lat="46.0641385" lon="10.3200519"><ele>1276.0</ele><time>2026-04-25T09:00:06.737Z</time></trkpt><trkpt lat="46.064177" lon="10.3198919"><ele>1276.0</ele><time>2026-04-25T09:00:07.745Z</time></trkpt><trkpt lat="46.0642184" lon="10.3197554"><ele>1276.0</ele><time>2026-04-25T09:00:08.743Z</time></trkpt><trkpt lat="46.064244" lon="10.3196532"><ele>1276.0</ele><time>2026-04-25T09:00:09.743Z</time></trkpt><trkpt lat="46.0643026" lon="10.3195705"><ele>1276.0</ele><time>2026-04-25T09:00:16.746Z</time></trkpt><trkpt lat="46.0643496" lon="10.3194994"><ele>1276.0</ele><time>2026-04-25T09:00:17.748Z</time></trkpt><trkpt lat="46.0643998" lon="10.3194084"><ele>1276.0</ele><time>2026-04-25T09:00:18.743Z</time></trkpt><trkpt lat="46.064446" lon="10.3193049"><ele>1283.0</ele><time>2026-04-25T09:00:19.741Z</time></trkpt><trkpt lat="46.0644924" lon="10.3191982"><ele>1290.0</ele><time>2026-04-25T09:00:20.745Z</time></trkpt><trkpt lat="46.0645366" lon="10.3190922"><ele>1297.0</ele><time>2026-04-25T09:00:21.746Z</time></trkpt><trkpt lat="46.0645778" lon="10.3189831"><ele>1304.0</ele><time>2026-04-25T09:00:22.748Z</time></trkpt><trkpt lat="46.0646269" lon="10.3188711"><ele>1311.0</ele><time>2026-04-25T09:00:23.747Z</time></trkpt><trkpt lat="46.0646827" lon="10.318754"><ele>1308.5</ele><time>2026-04-25T09:00:24.747Z</time></trkpt><trkpt lat="46.0647529" lon="10.3186283"><ele>1306.0</ele><time>2026-04-25T09:00:25.746Z</time></trkpt><trkpt lat="46.0648353" lon="10.3184904"><ele>1303.5</ele><time>2026-04-25T09:00:26.743Z</time></trkpt><trkpt lat="46.0649306" lon="10.3183347"><ele>1301.0</ele><time>2026-04-25T09:00:27.745Z</time></trkpt><trkpt lat="46.065019" lon="10.3181821"><ele>1309.75</ele><time>2026-04-25T09:00:28.75Z</time></trkpt><trkpt lat="46.0650969" lon="10.3180375"><ele>1318.5</ele><time>2026-04-25T09:00:29.746Z</time></trkpt><trkpt lat="46.0651702" lon="10.3179014"><ele>1327.25</ele><time>2026-04-25T09:00:30.741Z</time></trkpt><trkpt lat="46.0652536" lon="10.317781"><ele>1336.0</ele><time>2026-04-25T09:00:31.741Z</time></trkpt><trkpt lat="46.065351" lon="10.317669"><ele>1336.0</ele><time>2026-04-25T09:00:32.742Z</time></trkpt><trkpt lat="46.0654514" lon="10.3175648"><ele>1336.0</ele><time>2026-04-25T09:00:33.748Z</time></trkpt><trkpt lat="46.065548" lon="10.3174681"><ele>1336.0</ele><time>2026-04-25T09:00:34.75Z</time></trkpt><trkpt lat="46.0656382" lon="10.3173659"><ele>1336.0</ele><time>2026-04-25T09:00:35.748Z</time></trkpt><trkpt lat="46.0657226" lon="10.3172607"><ele>1334.4</ele><time>2026-04-25T09:00:36.749Z</time></trkpt><trkpt lat="46.0657951" lon="10.3171679"><ele>1332.8</ele><time>2026-04-25T09:00:37.749Z</time></trkpt><trkpt lat="46.0658557" lon="10.3170853"><ele>1331.2</ele><time>2026-04-25T09:00:38.751Z</time></trkpt><trkpt lat="46.0659145" lon="10.317001"><ele>1329.6000000000001</ele><time>2026-04-25T09:00:39.751Z</time></trkpt><trkpt lat="46.0659767" lon="10.3169068"><ele>1328.0</ele><time>2026-04-25T09:00:40.751Z</time></trkpt><trkpt lat="46.0660328" lon="10.3167876"><ele>1328.0</ele><time>2026-04-25T09:00:41.75Z</time></trkpt><trkpt lat="46.0660842" lon="10.3166648"><ele>1328.0</ele><time>2026-04-25T09:00:42.755Z</time></trkpt><trkpt lat="46.0661182" lon="10.3165871"><ele>1328.0</ele><time>2026-04-25T09:00:43.752Z</time></trkpt><trkpt lat="46.0662047" lon="10.316531"><ele>1328.0</ele><time>2026-04-25T09:00:45.749Z</time></trkpt><trkpt lat="46.066331" lon="10.3165448"><ele>1328.0</ele><time>2026-04-25T09:00:47.745Z</time></trkpt><trkpt lat="46.0664038" lon="10.3165478"><ele>1328.0</ele><time>2026-04-25T09:00:48.743Z</time></trkpt><trkpt lat="46.0664723" lon="10.3165111"><ele>1328.0</ele><time>2026-04-25T09:00:49.752Z</time></trkpt><trkpt lat="46.066541" lon="10.3164387"><ele>1328.0</ele><time>2026-04-25T09:00:50.747Z</time></trkpt><trkpt lat="46.0666166" lon="10.3163577"><ele>1328.0</ele><time>2026-04-25T09:00:51.746Z</time></trkpt><trkpt lat="46.0666939" lon="10.316291"><ele>1328.0</ele><time>2026-04-25T09:00:52.747Z</time></trkpt><trkpt lat="46.0667677" lon="10.3162673"><ele>1328.0</ele><time>2026-04-25T09:00:53.742Z</time></trkpt><trkpt lat="46.0668406" lon="10.3163039"><ele>1326.8333333333335</ele><time>2026-04-25T09:00:54.747Z</time></trkpt><trkpt lat="46.0669038" lon="10.3163776"><ele>1325.6666666666667</ele><time>2026-04-25T09:00:55.744Z</time></trkpt><trkpt lat="46.0669559" lon="10.3164636"><ele>1324.5</ele><time>2026-04-25T09:00:56.744Z</time></trkpt><trkpt lat="46.0670099" lon="10.3165589"><ele>1323.3333333333333</ele><time>2026-04-25T09:00:57.747Z</time></trkpt><trkpt lat="46.06708" lon="10.3166264"><ele>1322.1666666666665</ele><time>2026-04-25T09:00:58.749Z</time></trkpt><trkpt lat="46.0671506" lon="10.3166852"><ele>1321.0</ele><time>2026-04-25T09:00:59.746Z</time></trkpt><trkpt lat="46.0672165" lon="10.3167464"><ele>1321.0</ele><time>2026-04-25T09:01:00.745Z</time></trkpt><trkpt lat="46.0672913" lon="10.3168037"><ele>1321.0</ele><time>2026-04-25T09:01:01.746Z</time></trkpt><trkpt lat="46.0673651" lon="10.3168424"><ele>1321.0</ele><time>2026-04-25T09:01:02.743Z</time></trkpt><trkpt lat="46.0674389" lon="10.3168674"><ele>1321.0</ele><time>2026-04-25T09:01:03.745Z</time></trkpt><trkpt lat="46.0675131" lon="10.3168716"><ele>1321.0</ele><time>2026-04-25T09:01:04.747Z</time></trkpt><trkpt lat="46.0675852" lon="10.316849"><ele>1321.0</ele><time>2026-04-25T09:01:05.753Z</time></trkpt><trkpt lat="46.0676615" lon="10.3168211"><ele>1324.5</ele><time>2026-04-25T09:01:06.753Z</time></trkpt><trkpt lat="46.0677424" lon="10.3167988"><ele>1328.0</ele><time>2026-04-25T09:01:07.747Z</time></trkpt><trkpt lat="46.0678237" lon="10.3167871"><ele>1331.5</ele><time>2026-04-25T09:01:08.742Z</time></trkpt><trkpt lat="46.0679032" lon="10.3167788"><ele>1335.0</ele><time>2026-04-25T09:01:09.745Z</time></trkpt><trkpt lat="46.0679793" lon="10.3167846"><ele>1338.5</ele><time>2026-04-25T09:01:10.749Z</time></trkpt><trkpt lat="46.0680597" lon="10.3168003"><ele>1342.0</ele><time>2026-04-25T09:01:11.75Z</time></trkpt><trkpt lat="46.0681401" lon="10.3168407"><ele>1342.0</ele><time>2026-04-25T09:01:12.748Z</time></trkpt><trkpt lat="46.0682165" lon="10.3168909"><ele>1342.0</ele><time>2026-04-25T09:01:13.749Z</time></trkpt><trkpt lat="46.0682895" lon="10.3169248"><ele>1342.0</ele><time>2026-04-25T09:01:14.749Z</time></trkpt><trkpt lat="46.0683657" lon="10.3169634"><ele>1342.0</ele><time>2026-04-25T09:01:15.747Z</time></trkpt><trkpt lat="46.0684456" lon="10.3169915"><ele>1342.0</ele><time>2026-04-25T09:01:16.75Z</time></trkpt><trkpt lat="46.0685348" lon="10.3170036"><ele>1342.0</ele><time>2026-04-25T09:01:17.75Z</time></trkpt><trkpt lat="46.0686293" lon="10.3170075"><ele>1343.1666666666665</ele><time>2026-04-25T09:01:18.751Z</time></trkpt><trkpt lat="46.0687243" lon="10.3170254"><ele>1344.3333333333333</ele><time>2026-04-25T09:01:19.747Z</time></trkpt><trkpt lat="46.0688157" lon="10.3170473"><ele>1345.5</ele><time>2026-04-25T09:01:20.746Z</time></trkpt><trkpt lat="46.0689031" lon="10.3170466"><ele>1346.6666666666667</ele><time>2026-04-25T09:01:21.747Z</time></trkpt><trkpt lat="46.0689893" lon="10.3170331"><ele>1347.8333333333335</ele><time>2026-04-25T09:01:22.751Z</time></trkpt><trkpt lat="46.0690672" lon="10.3170111"><ele>1349.0</ele><time>2026-04-25T09:01:23.748Z</time></trkpt><trkpt lat="46.0691653" lon="10.3169888"><ele>1350.3333333333335</ele><time>2026-04-25T09:01:25.746Z</time></trkpt><trkpt lat="46.0692422" lon="10.3170411"><ele>1351.6666666666667</ele><time>2026-04-25T09:01:56.747Z</time></trkpt><trkpt lat="46.0692972" lon="10.3171716"><ele>1353.0</ele><time>2026-04-25T09:01:58.748Z</time></trkpt><trkpt lat="46.0693212" lon="10.3172704"><ele>1354.3333333333333</ele><time>2026-04-25T09:01:59.75Z</time></trkpt><trkpt lat="46.0693548" lon="10.3173689"><ele>1355.6666666666665</ele><time>2026-04-25T09:02:00.749Z</time></trkpt><trkpt lat="46.0693906" lon="10.3174455"><ele>1357.0</ele><time>2026-04-25T09:02:01.748Z</time></trkpt><trkpt lat="46.0694958" lon="10.3175106"><ele>1355.1666666666665</ele><time>2026-04-25T09:02:03.749Z</time></trkpt><trkpt lat="46.0696275" lon="10.3174882"><ele>1353.3333333333333</ele><time>2026-04-25T09:02:05.751Z</time></trkpt><trkpt lat="46.0697019" lon="10.3174815"><ele>1351.5</ele><time>2026-04-25T09:02:06.749Z</time></trkpt><trkpt lat="46.0697822" lon="10.3174922"><ele>1349.6666666666667</ele><time>2026-04-25T09:02:07.751Z</time></trkpt><trkpt lat="46.0698564" lon="10.3175178"><ele>1347.8333333333335</ele><time>2026-04-25T09:02:08.746Z</time></trkpt><trkpt lat="46.0699218" lon="10.317555"><ele>1346.0</ele><time>2026-04-25T09:02:09.745Z</time></trkpt><trkpt lat="46.069978" lon="10.317599"><ele>1346.0</ele><time>2026-04-25T09:02:10.749Z</time></trkpt><trkpt lat="46.0700422" lon="10.31772"><ele>1346.0</ele><time>2026-04-25T09:02:12.752Z</time></trkpt><trkpt lat="46.0700033" lon="10.3178913"><ele>1346.0</ele><time>2026-04-25T09:02:14.75Z</time></trkpt><trkpt lat="46.0699786" lon="10.3179809"><ele>1346.0</ele><time>2026-04-25T09:02:15.75Z</time></trkpt><trkpt lat="46.0699585" lon="10.31807"><ele>1346.0</ele><time>2026-04-25T09:02:16.75Z</time></trkpt><trkpt lat="46.0699435" lon="10.3182259"><ele>1350.0</ele><time>2026-04-25T09:02:18.746Z</time></trkpt><trkpt lat="46.0699503" lon="10.3183218"><ele>1350.0</ele><time>2026-04-25T09:02:20.756Z</time></trkpt><trkpt lat="46.0699639" lon="10.3184232"><ele>1350.0</ele><time>2026-04-25T09:02:23.758Z</time></trkpt><trkpt lat="46.0699398" lon="10.3185117"><ele>1339.0</ele><time>2026-04-25T09:02:25.752Z</time></trkpt><trkpt lat="46.0699029" lon="10.3186316"><ele>1339.0</ele><time>2026-04-25T09:02:27.75Z</time></trkpt><trkpt lat="46.0698861" lon="10.3187379"><ele>1339.0</ele><time>2026-04-25T09:02:29.753Z</time></trkpt></trkseg></trk></gpx>